<?xml version="1.0" encoding="UTF-8" standalone="no" ?>
<gpx xmlns="http://www.topografix.com/GPX/1/1" xmlns:xsi="http://www.w3.org/2001/XMLSchema-instance" xsi:schemaLocation="http://www.topografix.com/GPX/1/1 http://www.topografix.com/GPX/1/1/gpx.xsd" version="1.1" creator="VisuGPX - https://www.visugpx.com">
  <metadata>
    <name>coursan bike 32 km-16611706</name>
  </metadata>
  <trk>
    <name><![CDATA[coursan bike 32 km-16611706]]></name>
    <extensions>
      <line xmlns="http://www.topografix.com/GPX/gpx_style/0/2">
        <color>0000FF</color>
        <width>4</width>
      </line>
    </extensions>
    <trkseg>
      <trkpt lat="43.21265" lon="3.06673">
        <ele>3</ele>
        <time>2023-04-23T15:14:43Z</time>
      </trkpt>
      <trkpt lat="43.21226" lon="3.06697">
        <ele>3</ele>
        <time>2023-04-23T15:14:53Z</time>
      </trkpt>
      <trkpt lat="43.21197" lon="3.06723">
        <ele>3</ele>
        <time>2023-04-23T15:15:01Z</time>
      </trkpt>
      <trkpt lat="43.21175" lon="3.06757">
        <ele>3</ele>
        <time>2023-04-23T15:15:09Z</time>
      </trkpt>
      <trkpt lat="43.2115" lon="3.06818">
        <ele>2</ele>
        <time>2023-04-23T15:15:21Z</time>
      </trkpt>
      <trkpt lat="43.21111" lon="3.069">
        <ele>4</ele>
        <time>2023-04-23T15:15:37Z</time>
      </trkpt>
      <trkpt lat="43.21063" lon="3.06956">
        <ele>3</ele>
        <time>2023-04-23T15:15:52Z</time>
      </trkpt>
      <trkpt lat="43.21047" lon="3.06971">
        <ele>3</ele>
        <time>2023-04-23T15:15:57Z</time>
      </trkpt>
      <trkpt lat="43.21014" lon="3.07">
        <ele>3</ele>
        <time>2023-04-23T15:16:06Z</time>
      </trkpt>
      <trkpt lat="43.20987" lon="3.07016">
        <ele>3</ele>
        <time>2023-04-23T15:16:13Z</time>
      </trkpt>
      <trkpt lat="43.20951" lon="3.07035">
        <ele>4</ele>
        <time>2023-04-23T15:16:22Z</time>
      </trkpt>
      <trkpt lat="43.20885" lon="3.07061">
        <ele>5</ele>
        <time>2023-04-23T15:16:38Z</time>
      </trkpt>
      <trkpt lat="43.20798" lon="3.07106">
        <ele>6</ele>
        <time>2023-04-23T15:16:59Z</time>
      </trkpt>
      <trkpt lat="43.20783" lon="3.07133">
        <ele>6</ele>
        <time>2023-04-23T15:17:05Z</time>
      </trkpt>
      <trkpt lat="43.20701" lon="3.07347">
        <ele>10</ele>
        <time>2023-04-23T15:17:46Z</time>
      </trkpt>
      <trkpt lat="43.2067" lon="3.07439">
        <ele>14</ele>
        <time>2023-04-23T15:18:04Z</time>
      </trkpt>
      <trkpt lat="43.20661" lon="3.0745">
        <ele>14</ele>
        <time>2023-04-23T15:18:06Z</time>
      </trkpt>
      <trkpt lat="43.20572" lon="3.07455">
        <ele>15</ele>
        <time>2023-04-23T15:18:27Z</time>
      </trkpt>
      <trkpt lat="43.20563" lon="3.07463">
        <ele>16</ele>
        <time>2023-04-23T15:18:30Z</time>
      </trkpt>
      <trkpt lat="43.20556" lon="3.07521">
        <ele>16</ele>
        <time>2023-04-23T15:18:40Z</time>
      </trkpt>
      <trkpt lat="43.20546" lon="3.07525">
        <ele>16</ele>
        <time>2023-04-23T15:18:42Z</time>
      </trkpt>
      <trkpt lat="43.20467" lon="3.07513">
        <ele>17</ele>
        <time>2023-04-23T15:19:01Z</time>
      </trkpt>
      <trkpt lat="43.20456" lon="3.0752">
        <ele>17</ele>
        <time>2023-04-23T15:19:04Z</time>
      </trkpt>
      <trkpt lat="43.20382" lon="3.07599">
        <ele>19</ele>
        <time>2023-04-23T15:19:25Z</time>
      </trkpt>
      <trkpt lat="43.2038" lon="3.07611">
        <ele>19</ele>
        <time>2023-04-23T15:19:28Z</time>
      </trkpt>
      <trkpt lat="43.20403" lon="3.07619">
        <ele>19</ele>
        <time>2023-04-23T15:19:33Z</time>
      </trkpt>
      <trkpt lat="43.20412" lon="3.0763">
        <ele>20</ele>
        <time>2023-04-23T15:19:36Z</time>
      </trkpt>
      <trkpt lat="43.20426" lon="3.07658">
        <ele>20</ele>
        <time>2023-04-23T15:19:42Z</time>
      </trkpt>
      <trkpt lat="43.2042" lon="3.07729">
        <ele>23</ele>
        <time>2023-04-23T15:19:54Z</time>
      </trkpt>
      <trkpt lat="43.20412" lon="3.07753">
        <ele>24</ele>
        <time>2023-04-23T15:19:58Z</time>
      </trkpt>
      <trkpt lat="43.20407" lon="3.07793">
        <ele>26</ele>
        <time>2023-04-23T15:20:05Z</time>
      </trkpt>
      <trkpt lat="43.20399" lon="3.07831">
        <ele>27</ele>
        <time>2023-04-23T15:20:12Z</time>
      </trkpt>
      <trkpt lat="43.20406" lon="3.07845">
        <ele>28</ele>
        <time>2023-04-23T15:20:15Z</time>
      </trkpt>
      <trkpt lat="43.20458" lon="3.07912">
        <ele>28</ele>
        <time>2023-04-23T15:20:32Z</time>
      </trkpt>
      <trkpt lat="43.20516" lon="3.08001">
        <ele>30</ele>
        <time>2023-04-23T15:20:52Z</time>
      </trkpt>
      <trkpt lat="43.20548" lon="3.08068">
        <ele>32</ele>
        <time>2023-04-23T15:21:05Z</time>
      </trkpt>
      <trkpt lat="43.20588" lon="3.08187">
        <ele>35</ele>
        <time>2023-04-23T15:21:28Z</time>
      </trkpt>
      <trkpt lat="43.20599" lon="3.08208">
        <ele>36</ele>
        <time>2023-04-23T15:21:32Z</time>
      </trkpt>
      <trkpt lat="43.20628" lon="3.08248">
        <ele>37</ele>
        <time>2023-04-23T15:21:42Z</time>
      </trkpt>
      <trkpt lat="43.20633" lon="3.08262">
        <ele>38</ele>
        <time>2023-04-23T15:21:44Z</time>
      </trkpt>
      <trkpt lat="43.20631" lon="3.08278">
        <ele>38</ele>
        <time>2023-04-23T15:21:47Z</time>
      </trkpt>
      <trkpt lat="43.20611" lon="3.08329">
        <ele>41</ele>
        <time>2023-04-23T15:21:57Z</time>
      </trkpt>
      <trkpt lat="43.20607" lon="3.08342">
        <ele>41</ele>
        <time>2023-04-23T15:21:59Z</time>
      </trkpt>
      <trkpt lat="43.20607" lon="3.08357">
        <ele>42</ele>
        <time>2023-04-23T15:22:02Z</time>
      </trkpt>
      <trkpt lat="43.20602" lon="3.08371">
        <ele>43</ele>
        <time>2023-04-23T15:22:05Z</time>
      </trkpt>
      <trkpt lat="43.20592" lon="3.08375">
        <ele>43</ele>
        <time>2023-04-23T15:22:07Z</time>
      </trkpt>
      <trkpt lat="43.20583" lon="3.08374">
        <ele>43</ele>
        <time>2023-04-23T15:22:09Z</time>
      </trkpt>
      <trkpt lat="43.2056" lon="3.08363">
        <ele>43</ele>
        <time>2023-04-23T15:22:15Z</time>
      </trkpt>
      <trkpt lat="43.20552" lon="3.08356">
        <ele>43</ele>
        <time>2023-04-23T15:22:17Z</time>
      </trkpt>
      <trkpt lat="43.2054" lon="3.08336">
        <ele>42</ele>
        <time>2023-04-23T15:22:22Z</time>
      </trkpt>
      <trkpt lat="43.20533" lon="3.08329">
        <ele>42</ele>
        <time>2023-04-23T15:22:24Z</time>
      </trkpt>
      <trkpt lat="43.20504" lon="3.08342">
        <ele>43</ele>
        <time>2023-04-23T15:22:31Z</time>
      </trkpt>
      <trkpt lat="43.20488" lon="3.08362">
        <ele>46</ele>
        <time>2023-04-23T15:22:36Z</time>
      </trkpt>
      <trkpt lat="43.20493" lon="3.08391">
        <ele>46</ele>
        <time>2023-04-23T15:22:41Z</time>
      </trkpt>
      <trkpt lat="43.20493" lon="3.08405">
        <ele>47</ele>
        <time>2023-04-23T15:22:43Z</time>
      </trkpt>
      <trkpt lat="43.20524" lon="3.08416">
        <ele>47</ele>
        <time>2023-04-23T15:22:51Z</time>
      </trkpt>
      <trkpt lat="43.20534" lon="3.08422">
        <ele>47</ele>
        <time>2023-04-23T15:22:53Z</time>
      </trkpt>
      <trkpt lat="43.20548" lon="3.08443">
        <ele>49</ele>
        <time>2023-04-23T15:22:58Z</time>
      </trkpt>
      <trkpt lat="43.20559" lon="3.08467">
        <ele>51</ele>
        <time>2023-04-23T15:23:03Z</time>
      </trkpt>
      <trkpt lat="43.20556" lon="3.08495">
        <ele>53</ele>
        <time>2023-04-23T15:23:08Z</time>
      </trkpt>
      <trkpt lat="43.20538" lon="3.08547">
        <ele>58</ele>
        <time>2023-04-23T15:23:17Z</time>
      </trkpt>
      <trkpt lat="43.20534" lon="3.08571">
        <ele>60</ele>
        <time>2023-04-23T15:23:22Z</time>
      </trkpt>
      <trkpt lat="43.20503" lon="3.0864">
        <ele>65</ele>
        <time>2023-04-23T15:23:35Z</time>
      </trkpt>
      <trkpt lat="43.20486" lon="3.08692">
        <ele>69</ele>
        <time>2023-04-23T15:23:45Z</time>
      </trkpt>
      <trkpt lat="43.20469" lon="3.08727">
        <ele>72</ele>
        <time>2023-04-23T15:23:52Z</time>
      </trkpt>
      <trkpt lat="43.20441" lon="3.08801">
        <ele>80</ele>
        <time>2023-04-23T15:24:07Z</time>
      </trkpt>
      <trkpt lat="43.2043" lon="3.08822">
        <ele>84</ele>
        <time>2023-04-23T15:24:11Z</time>
      </trkpt>
      <trkpt lat="43.20411" lon="3.08869">
        <ele>87</ele>
        <time>2023-04-23T15:24:20Z</time>
      </trkpt>
      <trkpt lat="43.20388" lon="3.08939">
        <ele>89</ele>
        <time>2023-04-23T15:24:33Z</time>
      </trkpt>
      <trkpt lat="43.20378" lon="3.08992">
        <ele>91</ele>
        <time>2023-04-23T15:24:42Z</time>
      </trkpt>
      <trkpt lat="43.20342" lon="3.09073">
        <ele>96</ele>
        <time>2023-04-23T15:24:59Z</time>
      </trkpt>
      <trkpt lat="43.20336" lon="3.0908">
        <ele>97</ele>
        <time>2023-04-23T17:43:32Z</time>
      </trkpt>
      <trkpt lat="43.20327" lon="3.09071">
        <ele>97</ele>
        <time>2023-04-23T17:43:35Z</time>
      </trkpt>
      <trkpt lat="43.20317" lon="3.09049">
        <ele>96</ele>
        <time>2023-04-23T17:43:39Z</time>
      </trkpt>
      <trkpt lat="43.20309" lon="3.0905">
        <ele>96</ele>
        <time>2023-04-23T17:43:41Z</time>
      </trkpt>
      <trkpt lat="43.20302" lon="3.09048">
        <ele>95</ele>
        <time>2023-04-23T17:43:43Z</time>
      </trkpt>
      <trkpt lat="43.203" lon="3.09035">
        <ele>95</ele>
        <time>2023-04-23T17:43:45Z</time>
      </trkpt>
      <trkpt lat="43.20315" lon="3.08989">
        <ele>94</ele>
        <time>2023-04-23T17:43:54Z</time>
      </trkpt>
      <trkpt lat="43.20323" lon="3.08949">
        <ele>94</ele>
        <time>2023-04-23T17:44:01Z</time>
      </trkpt>
      <trkpt lat="43.20323" lon="3.08918">
        <ele>93</ele>
        <time>2023-04-23T17:44:06Z</time>
      </trkpt>
      <trkpt lat="43.20327" lon="3.08893">
        <ele>91</ele>
        <time>2023-04-23T17:44:11Z</time>
      </trkpt>
      <trkpt lat="43.20344" lon="3.08845">
        <ele>88</ele>
        <time>2023-04-23T17:44:20Z</time>
      </trkpt>
      <trkpt lat="43.20371" lon="3.08788">
        <ele>82</ele>
        <time>2023-04-23T17:44:31Z</time>
      </trkpt>
      <trkpt lat="43.20387" lon="3.08768">
        <ele>81</ele>
        <time>2023-04-23T17:44:36Z</time>
      </trkpt>
      <trkpt lat="43.204" lon="3.08756">
        <ele>80</ele>
        <time>2023-04-23T17:44:40Z</time>
      </trkpt>
      <trkpt lat="43.20412" lon="3.0874">
        <ele>79</ele>
        <time>2023-04-23T17:44:44Z</time>
      </trkpt>
      <trkpt lat="43.2042" lon="3.08724">
        <ele>77</ele>
        <time>2023-04-23T17:44:47Z</time>
      </trkpt>
      <trkpt lat="43.20439" lon="3.08671">
        <ele>70</ele>
        <time>2023-04-23T17:44:57Z</time>
      </trkpt>
      <trkpt lat="43.20446" lon="3.08643">
        <ele>66</ele>
        <time>2023-04-23T17:45:02Z</time>
      </trkpt>
      <trkpt lat="43.20453" lon="3.08625">
        <ele>64</ele>
        <time>2023-04-23T17:45:06Z</time>
      </trkpt>
      <trkpt lat="43.20463" lon="3.08609">
        <ele>63</ele>
        <time>2023-04-23T17:45:09Z</time>
      </trkpt>
      <trkpt lat="43.20488" lon="3.08543">
        <ele>57</ele>
        <time>2023-04-23T17:45:22Z</time>
      </trkpt>
      <trkpt lat="43.20492" lon="3.08516">
        <ele>55</ele>
        <time>2023-04-23T17:45:27Z</time>
      </trkpt>
      <trkpt lat="43.20499" lon="3.08491">
        <ele>52</ele>
        <time>2023-04-23T17:45:31Z</time>
      </trkpt>
      <trkpt lat="43.20494" lon="3.08478">
        <ele>52</ele>
        <time>2023-04-23T17:45:34Z</time>
      </trkpt>
      <trkpt lat="43.20462" lon="3.08425">
        <ele>51</ele>
        <time>2023-04-23T17:45:45Z</time>
      </trkpt>
      <trkpt lat="43.20449" lon="3.08392">
        <ele>51</ele>
        <time>2023-04-23T17:45:52Z</time>
      </trkpt>
      <trkpt lat="43.20441" lon="3.0839">
        <ele>52</ele>
        <time>2023-04-23T17:45:54Z</time>
      </trkpt>
      <trkpt lat="43.20433" lon="3.08394">
        <ele>53</ele>
        <time>2023-04-23T17:45:56Z</time>
      </trkpt>
      <trkpt lat="43.20433" lon="3.08414">
        <ele>53</ele>
        <time>2023-04-23T17:45:59Z</time>
      </trkpt>
      <trkpt lat="43.20394" lon="3.0849">
        <ele>58</ele>
        <time>2023-04-23T17:46:15Z</time>
      </trkpt>
      <trkpt lat="43.20359" lon="3.08543">
        <ele>63</ele>
        <time>2023-04-23T17:46:27Z</time>
      </trkpt>
      <trkpt lat="43.20324" lon="3.08579">
        <ele>65</ele>
        <time>2023-04-23T17:46:37Z</time>
      </trkpt>
      <trkpt lat="43.20305" lon="3.0862">
        <ele>66</ele>
        <time>2023-04-23T17:46:46Z</time>
      </trkpt>
      <trkpt lat="43.20292" lon="3.08635">
        <ele>67</ele>
        <time>2023-04-23T17:46:50Z</time>
      </trkpt>
      <trkpt lat="43.20278" lon="3.08641">
        <ele>67</ele>
        <time>2023-04-23T17:46:53Z</time>
      </trkpt>
      <trkpt lat="43.20246" lon="3.08648">
        <ele>70</ele>
        <time>2023-04-23T17:47:01Z</time>
      </trkpt>
      <trkpt lat="43.20234" lon="3.08647">
        <ele>73</ele>
        <time>2023-04-23T17:47:03Z</time>
      </trkpt>
      <trkpt lat="43.20217" lon="3.08659">
        <ele>75</ele>
        <time>2023-04-23T17:47:08Z</time>
      </trkpt>
      <trkpt lat="43.20192" lon="3.08691">
        <ele>78</ele>
        <time>2023-04-23T17:47:16Z</time>
      </trkpt>
      <trkpt lat="43.20142" lon="3.08776">
        <ele>84</ele>
        <time>2023-04-23T17:47:34Z</time>
      </trkpt>
      <trkpt lat="43.20105" lon="3.08825">
        <ele>90</ele>
        <time>2023-04-23T17:47:46Z</time>
      </trkpt>
      <trkpt lat="43.20073" lon="3.08876">
        <ele>93</ele>
        <time>2023-04-23T17:47:58Z</time>
      </trkpt>
      <trkpt lat="43.2007" lon="3.08885">
        <ele>94</ele>
        <time>2023-04-23T17:48:00Z</time>
      </trkpt>
      <trkpt lat="43.20034" lon="3.08945">
        <ele>100</ele>
        <time>2023-04-23T17:48:13Z</time>
      </trkpt>
      <trkpt lat="43.19991" lon="3.08993">
        <ele>104</ele>
        <time>2023-04-23T17:48:26Z</time>
      </trkpt>
      <trkpt lat="43.19926" lon="3.09079">
        <ele>115</ele>
        <time>2023-04-23T17:48:47Z</time>
      </trkpt>
      <trkpt lat="43.19896" lon="3.09142">
        <ele>119</ele>
        <time>2023-04-23T17:49:00Z</time>
      </trkpt>
      <trkpt lat="43.19885" lon="3.09151">
        <ele>120</ele>
        <time>2023-04-23T17:49:03Z</time>
      </trkpt>
      <trkpt lat="43.19881" lon="3.09157">
        <ele>120</ele>
        <time>2023-04-23T17:49:04Z</time>
      </trkpt>
      <trkpt lat="43.19884" lon="3.09158">
        <ele>120</ele>
        <time>2023-04-23T17:49:05Z</time>
      </trkpt>
      <trkpt lat="43.19879" lon="3.09159">
        <ele>121</ele>
        <time>2023-04-23T17:49:06Z</time>
      </trkpt>
      <trkpt lat="43.19874" lon="3.0914">
        <ele>120</ele>
        <time>2023-04-23T17:49:09Z</time>
      </trkpt>
      <trkpt lat="43.19877" lon="3.09097">
        <ele>119</ele>
        <time>2023-04-23T17:49:17Z</time>
      </trkpt>
      <trkpt lat="43.19876" lon="3.09073">
        <ele>119</ele>
        <time>2023-04-23T17:49:21Z</time>
      </trkpt>
      <trkpt lat="43.19854" lon="3.09043">
        <ele>121</ele>
        <time>2023-04-23T17:49:28Z</time>
      </trkpt>
      <trkpt lat="43.1984" lon="3.0903">
        <ele>122</ele>
        <time>2023-04-23T17:49:32Z</time>
      </trkpt>
      <trkpt lat="43.19854" lon="3.08994">
        <ele>121</ele>
        <time>2023-04-23T17:49:39Z</time>
      </trkpt>
      <trkpt lat="43.19855" lon="3.08977">
        <ele>121</ele>
        <time>2023-04-23T17:49:42Z</time>
      </trkpt>
      <trkpt lat="43.19846" lon="3.08965">
        <ele>122</ele>
        <time>2023-04-23T17:49:45Z</time>
      </trkpt>
      <trkpt lat="43.19835" lon="3.08956">
        <ele>122</ele>
        <time>2023-04-23T17:49:48Z</time>
      </trkpt>
      <trkpt lat="43.19811" lon="3.08943">
        <ele>121</ele>
        <time>2023-04-23T17:49:54Z</time>
      </trkpt>
      <trkpt lat="43.19809" lon="3.08926">
        <ele>120</ele>
        <time>2023-04-23T17:49:57Z</time>
      </trkpt>
      <trkpt lat="43.19813" lon="3.08916">
        <ele>120</ele>
        <time>2023-04-23T17:49:59Z</time>
      </trkpt>
      <trkpt lat="43.19816" lon="3.08897">
        <ele>119</ele>
        <time>2023-04-23T17:50:02Z</time>
      </trkpt>
      <trkpt lat="43.19818" lon="3.08863">
        <ele>116</ele>
        <time>2023-04-23T17:50:08Z</time>
      </trkpt>
      <trkpt lat="43.19835" lon="3.08839">
        <ele>116</ele>
        <time>2023-04-23T17:50:13Z</time>
      </trkpt>
      <trkpt lat="43.19845" lon="3.08809">
        <ele>114</ele>
        <time>2023-04-23T17:50:19Z</time>
      </trkpt>
      <trkpt lat="43.19857" lon="3.08805">
        <ele>114</ele>
        <time>2023-04-23T17:50:22Z</time>
      </trkpt>
      <trkpt lat="43.19872" lon="3.08788">
        <ele>114</ele>
        <time>2023-04-23T17:50:26Z</time>
      </trkpt>
      <trkpt lat="43.19883" lon="3.08786">
        <ele>115</ele>
        <time>2023-04-23T17:50:29Z</time>
      </trkpt>
      <trkpt lat="43.19897" lon="3.08787">
        <ele>116</ele>
        <time>2023-04-23T17:50:32Z</time>
      </trkpt>
      <trkpt lat="43.19905" lon="3.08777">
        <ele>116</ele>
        <time>2023-04-23T17:50:35Z</time>
      </trkpt>
      <trkpt lat="43.19926" lon="3.08723">
        <ele>114</ele>
        <time>2023-04-23T17:50:45Z</time>
      </trkpt>
      <trkpt lat="43.19931" lon="3.08694">
        <ele>111</ele>
        <time>2023-04-23T17:50:50Z</time>
      </trkpt>
      <trkpt lat="43.19955" lon="3.08625">
        <ele>103</ele>
        <time>2023-04-23T17:51:03Z</time>
      </trkpt>
      <trkpt lat="43.19969" lon="3.08597">
        <ele>102</ele>
        <time>2023-04-23T17:51:09Z</time>
      </trkpt>
      <trkpt lat="43.19979" lon="3.086">
        <ele>103</ele>
        <time>2023-04-23T17:51:12Z</time>
      </trkpt>
      <trkpt lat="43.19981" lon="3.08598">
        <ele>103</ele>
        <time>2023-04-23T17:51:12Z</time>
      </trkpt>
      <trkpt lat="43.19999" lon="3.08535">
        <ele>100</ele>
        <time>2023-04-23T17:51:24Z</time>
      </trkpt>
      <trkpt lat="43.20018" lon="3.08509">
        <ele>98</ele>
        <time>2023-04-23T17:51:30Z</time>
      </trkpt>
      <trkpt lat="43.20025" lon="3.08505">
        <ele>97</ele>
        <time>2023-04-23T17:51:32Z</time>
      </trkpt>
      <trkpt lat="43.20031" lon="3.08496">
        <ele>97</ele>
        <time>2023-04-23T17:51:34Z</time>
      </trkpt>
      <trkpt lat="43.20035" lon="3.0847">
        <ele>94</ele>
        <time>2023-04-23T17:51:38Z</time>
      </trkpt>
      <trkpt lat="43.20037" lon="3.08466">
        <ele>93</ele>
        <time>2023-04-23T17:51:39Z</time>
      </trkpt>
      <trkpt lat="43.2004" lon="3.08466">
        <ele>93</ele>
        <time>2023-04-23T17:51:40Z</time>
      </trkpt>
      <trkpt lat="43.20047" lon="3.08459">
        <ele>92</ele>
        <time>2023-04-23T17:51:42Z</time>
      </trkpt>
      <trkpt lat="43.20042" lon="3.08445">
        <ele>91</ele>
        <time>2023-04-23T17:51:44Z</time>
      </trkpt>
      <trkpt lat="43.20041" lon="3.08427">
        <ele>89</ele>
        <time>2023-04-23T17:51:48Z</time>
      </trkpt>
      <trkpt lat="43.20044" lon="3.08419">
        <ele>88</ele>
        <time>2023-04-23T17:51:49Z</time>
      </trkpt>
      <trkpt lat="43.20043" lon="3.08409">
        <ele>87</ele>
        <time>2023-04-23T17:51:51Z</time>
      </trkpt>
      <trkpt lat="43.20052" lon="3.08371">
        <ele>81</ele>
        <time>2023-04-23T17:51:58Z</time>
      </trkpt>
      <trkpt lat="43.20058" lon="3.08355">
        <ele>79</ele>
        <time>2023-04-23T17:52:01Z</time>
      </trkpt>
      <trkpt lat="43.20063" lon="3.08358">
        <ele>79</ele>
        <time>2023-04-23T17:52:02Z</time>
      </trkpt>
      <trkpt lat="43.20068" lon="3.08366">
        <ele>80</ele>
        <time>2023-04-23T17:52:04Z</time>
      </trkpt>
      <trkpt lat="43.20075" lon="3.08362">
        <ele>79</ele>
        <time>2023-04-23T17:52:06Z</time>
      </trkpt>
      <trkpt lat="43.20082" lon="3.0833">
        <ele>75</ele>
        <time>2023-04-23T17:52:11Z</time>
      </trkpt>
      <trkpt lat="43.20087" lon="3.0833">
        <ele>75</ele>
        <time>2023-04-23T17:52:12Z</time>
      </trkpt>
      <trkpt lat="43.20087" lon="3.08321">
        <ele>74</ele>
        <time>2023-04-23T17:52:14Z</time>
      </trkpt>
      <trkpt lat="43.20092" lon="3.08315">
        <ele>73</ele>
        <time>2023-04-23T17:52:15Z</time>
      </trkpt>
      <trkpt lat="43.20098" lon="3.08298">
        <ele>71</ele>
        <time>2023-04-23T17:52:19Z</time>
      </trkpt>
      <trkpt lat="43.20097" lon="3.08282">
        <ele>69</ele>
        <time>2023-04-23T17:52:21Z</time>
      </trkpt>
      <trkpt lat="43.20106" lon="3.08254">
        <ele>66</ele>
        <time>2023-04-23T17:52:27Z</time>
      </trkpt>
      <trkpt lat="43.20101" lon="3.08234">
        <ele>64</ele>
        <time>2023-04-23T17:52:30Z</time>
      </trkpt>
      <trkpt lat="43.20103" lon="3.0823">
        <ele>64</ele>
        <time>2023-04-23T17:52:31Z</time>
      </trkpt>
      <trkpt lat="43.20102" lon="3.08219">
        <ele>63</ele>
        <time>2023-04-23T17:52:33Z</time>
      </trkpt>
      <trkpt lat="43.20097" lon="3.0821">
        <ele>63</ele>
        <time>2023-04-23T17:52:35Z</time>
      </trkpt>
      <trkpt lat="43.20105" lon="3.08176">
        <ele>60</ele>
        <time>2023-04-23T17:52:41Z</time>
      </trkpt>
      <trkpt lat="43.20111" lon="3.08167">
        <ele>59</ele>
        <time>2023-04-23T17:52:43Z</time>
      </trkpt>
      <trkpt lat="43.20119" lon="3.08162">
        <ele>59</ele>
        <time>2023-04-23T17:52:45Z</time>
      </trkpt>
      <trkpt lat="43.2012" lon="3.08152">
        <ele>58</ele>
        <time>2023-04-23T17:52:47Z</time>
      </trkpt>
      <trkpt lat="43.20104" lon="3.08141">
        <ele>58</ele>
        <time>2023-04-23T17:52:51Z</time>
      </trkpt>
      <trkpt lat="43.20091" lon="3.08118">
        <ele>57</ele>
        <time>2023-04-23T17:52:56Z</time>
      </trkpt>
      <trkpt lat="43.20083" lon="3.08113">
        <ele>57</ele>
        <time>2023-04-23T17:52:58Z</time>
      </trkpt>
      <trkpt lat="43.20048" lon="3.0811">
        <ele>56</ele>
        <time>2023-04-23T17:53:06Z</time>
      </trkpt>
      <trkpt lat="43.20029" lon="3.08105">
        <ele>54</ele>
        <time>2023-04-23T17:53:11Z</time>
      </trkpt>
      <trkpt lat="43.20023" lon="3.08097">
        <ele>53</ele>
        <time>2023-04-23T17:53:13Z</time>
      </trkpt>
      <trkpt lat="43.20018" lon="3.08079">
        <ele>51</ele>
        <time>2023-04-23T17:53:16Z</time>
      </trkpt>
      <trkpt lat="43.20011" lon="3.08068">
        <ele>49</ele>
        <time>2023-04-23T17:53:18Z</time>
      </trkpt>
      <trkpt lat="43.19996" lon="3.08055">
        <ele>46</ele>
        <time>2023-04-23T17:53:23Z</time>
      </trkpt>
      <trkpt lat="43.19993" lon="3.08055">
        <ele>46</ele>
        <time>2023-04-23T17:53:23Z</time>
      </trkpt>
      <trkpt lat="43.19965" lon="3.08086">
        <ele>47</ele>
        <time>2023-04-23T17:53:32Z</time>
      </trkpt>
      <trkpt lat="43.19945" lon="3.08118">
        <ele>48</ele>
        <time>2023-04-23T17:53:39Z</time>
      </trkpt>
      <trkpt lat="43.19919" lon="3.08141">
        <ele>48</ele>
        <time>2023-04-23T17:53:46Z</time>
      </trkpt>
      <trkpt lat="43.19914" lon="3.08159">
        <ele>49</ele>
        <time>2023-04-23T17:53:49Z</time>
      </trkpt>
      <trkpt lat="43.19904" lon="3.08172">
        <ele>51</ele>
        <time>2023-04-23T17:53:53Z</time>
      </trkpt>
      <trkpt lat="43.19897" lon="3.08206">
        <ele>53</ele>
        <time>2023-04-23T17:53:59Z</time>
      </trkpt>
      <trkpt lat="43.1989" lon="3.08215">
        <ele>54</ele>
        <time>2023-04-23T17:54:01Z</time>
      </trkpt>
      <trkpt lat="43.19884" lon="3.08231">
        <ele>55</ele>
        <time>2023-04-23T17:54:04Z</time>
      </trkpt>
      <trkpt lat="43.19856" lon="3.08328">
        <ele>59</ele>
        <time>2023-04-23T17:54:22Z</time>
      </trkpt>
      <trkpt lat="43.19833" lon="3.08393">
        <ele>60</ele>
        <time>2023-04-23T17:54:34Z</time>
      </trkpt>
      <trkpt lat="43.1982" lon="3.08441">
        <ele>65</ele>
        <time>2023-04-23T17:54:43Z</time>
      </trkpt>
      <trkpt lat="43.19809" lon="3.08465">
        <ele>66</ele>
        <time>2023-04-23T17:54:47Z</time>
      </trkpt>
      <trkpt lat="43.19805" lon="3.08469">
        <ele>66</ele>
        <time>2023-04-23T17:54:49Z</time>
      </trkpt>
      <trkpt lat="43.198" lon="3.08467">
        <ele>67</ele>
        <time>2023-04-23T17:54:50Z</time>
      </trkpt>
      <trkpt lat="43.19785" lon="3.08456">
        <ele>67</ele>
        <time>2023-04-23T17:54:54Z</time>
      </trkpt>
      <trkpt lat="43.19781" lon="3.08446">
        <ele>67</ele>
        <time>2023-04-23T17:54:56Z</time>
      </trkpt>
      <trkpt lat="43.19772" lon="3.08461">
        <ele>68</ele>
        <time>2023-04-23T17:54:59Z</time>
      </trkpt>
      <trkpt lat="43.19747" lon="3.08491">
        <ele>67</ele>
        <time>2023-04-23T17:55:07Z</time>
      </trkpt>
      <trkpt lat="43.19734" lon="3.08514">
        <ele>70</ele>
        <time>2023-04-23T17:55:12Z</time>
      </trkpt>
      <trkpt lat="43.19725" lon="3.08538">
        <ele>73</ele>
        <time>2023-04-23T17:55:16Z</time>
      </trkpt>
      <trkpt lat="43.19722" lon="3.08564">
        <ele>74</ele>
        <time>2023-04-23T17:55:21Z</time>
      </trkpt>
      <trkpt lat="43.19698" lon="3.0862">
        <ele>78</ele>
        <time>2023-04-23T17:55:32Z</time>
      </trkpt>
      <trkpt lat="43.19694" lon="3.08638">
        <ele>79</ele>
        <time>2023-04-23T17:55:35Z</time>
      </trkpt>
      <trkpt lat="43.19683" lon="3.08666">
        <ele>79</ele>
        <time>2023-04-23T17:55:41Z</time>
      </trkpt>
      <trkpt lat="43.19666" lon="3.08706">
        <ele>79</ele>
        <time>2023-04-23T17:55:48Z</time>
      </trkpt>
      <trkpt lat="43.19654" lon="3.08727">
        <ele>81</ele>
        <time>2023-04-23T17:55:53Z</time>
      </trkpt>
      <trkpt lat="43.19642" lon="3.08768">
        <ele>83</ele>
        <time>2023-04-23T17:56:00Z</time>
      </trkpt>
      <trkpt lat="43.19609" lon="3.08861">
        <ele>88</ele>
        <time>2023-04-23T17:56:18Z</time>
      </trkpt>
      <trkpt lat="43.19596" lon="3.08877">
        <ele>89</ele>
        <time>2023-04-23T17:56:22Z</time>
      </trkpt>
      <trkpt lat="43.19586" lon="3.08899">
        <ele>90</ele>
        <time>2023-04-23T17:56:27Z</time>
      </trkpt>
      <trkpt lat="43.19576" lon="3.08909">
        <ele>91</ele>
        <time>2023-04-23T17:56:29Z</time>
      </trkpt>
      <trkpt lat="43.19558" lon="3.08937">
        <ele>95</ele>
        <time>2023-04-23T17:56:36Z</time>
      </trkpt>
      <trkpt lat="43.19543" lon="3.08972">
        <ele>100</ele>
        <time>2023-04-23T17:56:43Z</time>
      </trkpt>
      <trkpt lat="43.19535" lon="3.08981">
        <ele>101</ele>
        <time>2023-04-23T17:56:45Z</time>
      </trkpt>
      <trkpt lat="43.19522" lon="3.08989">
        <ele>103</ele>
        <time>2023-04-23T17:56:48Z</time>
      </trkpt>
      <trkpt lat="43.1951" lon="3.0899">
        <ele>104</ele>
        <time>2023-04-23T17:56:51Z</time>
      </trkpt>
      <trkpt lat="43.19505" lon="3.08993">
        <ele>104</ele>
        <time>2023-04-23T17:56:53Z</time>
      </trkpt>
      <trkpt lat="43.19503" lon="3.08999">
        <ele>105</ele>
        <time>2023-04-23T17:56:54Z</time>
      </trkpt>
      <trkpt lat="43.19494" lon="3.09004">
        <ele>105</ele>
        <time>2023-04-23T17:56:56Z</time>
      </trkpt>
      <trkpt lat="43.19487" lon="3.08986">
        <ele>105</ele>
        <time>2023-04-23T17:56:59Z</time>
      </trkpt>
      <trkpt lat="43.19492" lon="3.08948">
        <ele>104</ele>
        <time>2023-04-23T17:57:06Z</time>
      </trkpt>
      <trkpt lat="43.19492" lon="3.08922">
        <ele>104</ele>
        <time>2023-04-23T17:57:10Z</time>
      </trkpt>
      <trkpt lat="43.19489" lon="3.08904">
        <ele>103</ele>
        <time>2023-04-23T17:57:14Z</time>
      </trkpt>
      <trkpt lat="43.19502" lon="3.08815">
        <ele>101</ele>
        <time>2023-04-23T17:57:29Z</time>
      </trkpt>
      <trkpt lat="43.19516" lon="3.08769">
        <ele>98</ele>
        <time>2023-04-23T17:57:37Z</time>
      </trkpt>
      <trkpt lat="43.19536" lon="3.08728">
        <ele>96</ele>
        <time>2023-04-23T17:57:46Z</time>
      </trkpt>
      <trkpt lat="43.1955" lon="3.08681">
        <ele>96</ele>
        <time>2023-04-23T17:57:55Z</time>
      </trkpt>
      <trkpt lat="43.19557" lon="3.08622">
        <ele>96</ele>
        <time>2023-04-23T17:58:05Z</time>
      </trkpt>
      <trkpt lat="43.19555" lon="3.08603">
        <ele>96</ele>
        <time>2023-04-23T17:58:08Z</time>
      </trkpt>
      <trkpt lat="43.19567" lon="3.08566">
        <ele>97</ele>
        <time>2023-04-23T17:58:15Z</time>
      </trkpt>
      <trkpt lat="43.1956" lon="3.08538">
        <ele>95</ele>
        <time>2023-04-23T17:58:20Z</time>
      </trkpt>
      <trkpt lat="43.1955" lon="3.08521">
        <ele>93</ele>
        <time>2023-04-23T17:58:24Z</time>
      </trkpt>
      <trkpt lat="43.19546" lon="3.085">
        <ele>91</ele>
        <time>2023-04-23T17:58:27Z</time>
      </trkpt>
      <trkpt lat="43.19541" lon="3.08488">
        <ele>89</ele>
        <time>2023-04-23T17:58:30Z</time>
      </trkpt>
      <trkpt lat="43.19534" lon="3.08485">
        <ele>88</ele>
        <time>2023-04-23T17:58:31Z</time>
      </trkpt>
      <trkpt lat="43.19533" lon="3.08464">
        <ele>87</ele>
        <time>2023-04-23T17:58:35Z</time>
      </trkpt>
      <trkpt lat="43.19522" lon="3.0844">
        <ele>84</ele>
        <time>2023-04-23T17:58:40Z</time>
      </trkpt>
      <trkpt lat="43.19522" lon="3.0842">
        <ele>84</ele>
        <time>2023-04-23T17:58:43Z</time>
      </trkpt>
      <trkpt lat="43.19518" lon="3.08408">
        <ele>82</ele>
        <time>2023-04-23T17:58:45Z</time>
      </trkpt>
      <trkpt lat="43.19506" lon="3.08393">
        <ele>80</ele>
        <time>2023-04-23T17:58:49Z</time>
      </trkpt>
      <trkpt lat="43.19506" lon="3.08381">
        <ele>79</ele>
        <time>2023-04-23T17:58:51Z</time>
      </trkpt>
      <trkpt lat="43.19501" lon="3.08367">
        <ele>78</ele>
        <time>2023-04-23T17:58:54Z</time>
      </trkpt>
      <trkpt lat="43.195" lon="3.08355">
        <ele>77</ele>
        <time>2023-04-23T17:58:56Z</time>
      </trkpt>
      <trkpt lat="43.19483" lon="3.08342">
        <ele>72</ele>
        <time>2023-04-23T17:59:01Z</time>
      </trkpt>
      <trkpt lat="43.1949" lon="3.08318">
        <ele>70</ele>
        <time>2023-04-23T17:59:05Z</time>
      </trkpt>
      <trkpt lat="43.19479" lon="3.08289">
        <ele>64</ele>
        <time>2023-04-23T17:59:11Z</time>
      </trkpt>
      <trkpt lat="43.19474" lon="3.08254">
        <ele>58</ele>
        <time>2023-04-23T17:59:17Z</time>
      </trkpt>
      <trkpt lat="43.19485" lon="3.08216">
        <ele>54</ele>
        <time>2023-04-23T17:59:24Z</time>
      </trkpt>
      <trkpt lat="43.19493" lon="3.08206">
        <ele>54</ele>
        <time>2023-04-23T17:59:26Z</time>
      </trkpt>
      <trkpt lat="43.19513" lon="3.08208">
        <ele>56</ele>
        <time>2023-04-23T17:59:31Z</time>
      </trkpt>
      <trkpt lat="43.19526" lon="3.08215">
        <ele>58</ele>
        <time>2023-04-23T17:59:34Z</time>
      </trkpt>
      <trkpt lat="43.19541" lon="3.08204">
        <ele>59</ele>
        <time>2023-04-23T17:59:38Z</time>
      </trkpt>
      <trkpt lat="43.19544" lon="3.08198">
        <ele>59</ele>
        <time>2023-04-23T17:59:39Z</time>
      </trkpt>
      <trkpt lat="43.19528" lon="3.08155">
        <ele>53</ele>
        <time>2023-04-23T17:59:47Z</time>
      </trkpt>
      <trkpt lat="43.1952" lon="3.08143">
        <ele>51</ele>
        <time>2023-04-23T17:59:50Z</time>
      </trkpt>
      <trkpt lat="43.19511" lon="3.08138">
        <ele>49</ele>
        <time>2023-04-23T17:59:52Z</time>
      </trkpt>
      <trkpt lat="43.19504" lon="3.08119">
        <ele>47</ele>
        <time>2023-04-23T17:59:56Z</time>
      </trkpt>
      <trkpt lat="43.19482" lon="3.08077">
        <ele>41</ele>
        <time>2023-04-23T18:00:05Z</time>
      </trkpt>
      <trkpt lat="43.1948" lon="3.08061">
        <ele>41</ele>
        <time>2023-04-23T18:00:08Z</time>
      </trkpt>
      <trkpt lat="43.19469" lon="3.08055">
        <ele>39</ele>
        <time>2023-04-23T18:00:10Z</time>
      </trkpt>
      <trkpt lat="43.1941" lon="3.07979">
        <ele>29</ele>
        <time>2023-04-23T18:00:29Z</time>
      </trkpt>
      <trkpt lat="43.19389" lon="3.07959">
        <ele>27</ele>
        <time>2023-04-23T18:00:35Z</time>
      </trkpt>
      <trkpt lat="43.19354" lon="3.07932">
        <ele>23</ele>
        <time>2023-04-23T18:00:45Z</time>
      </trkpt>
      <trkpt lat="43.19352" lon="3.07932">
        <ele>23</ele>
        <time>2023-04-23T18:00:45Z</time>
      </trkpt>
      <trkpt lat="43.19352" lon="3.07935">
        <ele>24</ele>
        <time>2023-04-23T18:00:46Z</time>
      </trkpt>
      <trkpt lat="43.19386" lon="3.07987">
        <ele>28</ele>
        <time>2023-04-23T18:00:58Z</time>
      </trkpt>
      <trkpt lat="43.19393" lon="3.08004">
        <ele>29</ele>
        <time>2023-04-23T18:01:01Z</time>
      </trkpt>
      <trkpt lat="43.19406" lon="3.08022">
        <ele>31</ele>
        <time>2023-04-23T18:01:05Z</time>
      </trkpt>
      <trkpt lat="43.19412" lon="3.08042">
        <ele>32</ele>
        <time>2023-04-23T18:01:09Z</time>
      </trkpt>
      <trkpt lat="43.19423" lon="3.08061">
        <ele>34</ele>
        <time>2023-04-23T18:01:13Z</time>
      </trkpt>
      <trkpt lat="43.19436" lon="3.08126">
        <ele>40</ele>
        <time>2023-04-23T18:01:24Z</time>
      </trkpt>
      <trkpt lat="43.19444" lon="3.08137">
        <ele>42</ele>
        <time>2023-04-23T18:01:27Z</time>
      </trkpt>
      <trkpt lat="43.19449" lon="3.0814">
        <ele>43</ele>
        <time>2023-04-23T18:01:28Z</time>
      </trkpt>
      <trkpt lat="43.19449" lon="3.08153">
        <ele>44</ele>
        <time>2023-04-23T18:01:31Z</time>
      </trkpt>
      <trkpt lat="43.19459" lon="3.08194">
        <ele>49</ele>
        <time>2023-04-23T18:01:38Z</time>
      </trkpt>
      <trkpt lat="43.19461" lon="3.08226">
        <ele>53</ele>
        <time>2023-04-23T18:01:43Z</time>
      </trkpt>
      <trkpt lat="43.19459" lon="3.08254">
        <ele>57</ele>
        <time>2023-04-23T18:01:48Z</time>
      </trkpt>
      <trkpt lat="43.19466" lon="3.08321">
        <ele>67</ele>
        <time>2023-04-23T18:02:00Z</time>
      </trkpt>
      <trkpt lat="43.19476" lon="3.08342">
        <ele>71</ele>
        <time>2023-04-23T18:02:04Z</time>
      </trkpt>
      <trkpt lat="43.19511" lon="3.08444">
        <ele>83</ele>
        <time>2023-04-23T18:02:23Z</time>
      </trkpt>
      <trkpt lat="43.19522" lon="3.08483">
        <ele>86</ele>
        <time>2023-04-23T18:02:30Z</time>
      </trkpt>
      <trkpt lat="43.19522" lon="3.0854">
        <ele>89</ele>
        <time>2023-04-23T18:02:40Z</time>
      </trkpt>
      <trkpt lat="43.19518" lon="3.08579">
        <ele>90</ele>
        <time>2023-04-23T18:02:47Z</time>
      </trkpt>
      <trkpt lat="43.19521" lon="3.08615">
        <ele>92</ele>
        <time>2023-04-23T18:02:53Z</time>
      </trkpt>
      <trkpt lat="43.19518" lon="3.08625">
        <ele>92</ele>
        <time>2023-04-23T18:02:55Z</time>
      </trkpt>
      <trkpt lat="43.19503" lon="3.0863">
        <ele>91</ele>
        <time>2023-04-23T18:02:58Z</time>
      </trkpt>
      <trkpt lat="43.195" lon="3.08629">
        <ele>91</ele>
        <time>2023-04-23T18:02:59Z</time>
      </trkpt>
      <trkpt lat="43.19484" lon="3.08637">
        <ele>88</ele>
        <time>2023-04-23T18:03:03Z</time>
      </trkpt>
      <trkpt lat="43.19476" lon="3.08647">
        <ele>87</ele>
        <time>2023-04-23T18:03:06Z</time>
      </trkpt>
      <trkpt lat="43.19474" lon="3.08646">
        <ele>86</ele>
        <time>2023-04-23T18:03:06Z</time>
      </trkpt>
      <trkpt lat="43.19473" lon="3.08641">
        <ele>86</ele>
        <time>2023-04-23T18:03:07Z</time>
      </trkpt>
      <trkpt lat="43.19465" lon="3.08632">
        <ele>84</ele>
        <time>2023-04-23T18:03:09Z</time>
      </trkpt>
      <trkpt lat="43.19461" lon="3.08619">
        <ele>82</ele>
        <time>2023-04-23T18:03:12Z</time>
      </trkpt>
      <trkpt lat="43.19456" lon="3.08615">
        <ele>81</ele>
        <time>2023-04-23T18:03:13Z</time>
      </trkpt>
      <trkpt lat="43.19452" lon="3.08606">
        <ele>80</ele>
        <time>2023-04-23T18:03:15Z</time>
      </trkpt>
      <trkpt lat="43.19444" lon="3.08598">
        <ele>77</ele>
        <time>2023-04-23T18:03:17Z</time>
      </trkpt>
      <trkpt lat="43.19427" lon="3.08587">
        <ele>73</ele>
        <time>2023-04-23T18:03:22Z</time>
      </trkpt>
      <trkpt lat="43.19419" lon="3.08561">
        <ele>69</ele>
        <time>2023-04-23T18:03:26Z</time>
      </trkpt>
      <trkpt lat="43.19416" lon="3.08562">
        <ele>69</ele>
        <time>2023-04-23T18:03:27Z</time>
      </trkpt>
      <trkpt lat="43.19407" lon="3.08553">
        <ele>66</ele>
        <time>2023-04-23T18:03:30Z</time>
      </trkpt>
      <trkpt lat="43.19406" lon="3.08537">
        <ele>65</ele>
        <time>2023-04-23T18:03:33Z</time>
      </trkpt>
      <trkpt lat="43.19395" lon="3.08505">
        <ele>60</ele>
        <time>2023-04-23T18:03:39Z</time>
      </trkpt>
      <trkpt lat="43.19381" lon="3.085">
        <ele>57</ele>
        <time>2023-04-23T18:03:42Z</time>
      </trkpt>
      <trkpt lat="43.19379" lon="3.08495">
        <ele>56</ele>
        <time>2023-04-23T18:03:43Z</time>
      </trkpt>
      <trkpt lat="43.19386" lon="3.08471">
        <ele>57</ele>
        <time>2023-04-23T18:03:47Z</time>
      </trkpt>
      <trkpt lat="43.1938" lon="3.08463">
        <ele>56</ele>
        <time>2023-04-23T18:03:49Z</time>
      </trkpt>
      <trkpt lat="43.19364" lon="3.08465">
        <ele>53</ele>
        <time>2023-04-23T18:03:53Z</time>
      </trkpt>
      <trkpt lat="43.19359" lon="3.08469">
        <ele>52</ele>
        <time>2023-04-23T18:03:54Z</time>
      </trkpt>
      <trkpt lat="43.19355" lon="3.08461">
        <ele>51</ele>
        <time>2023-04-23T18:03:56Z</time>
      </trkpt>
      <trkpt lat="43.19347" lon="3.08463">
        <ele>50</ele>
        <time>2023-04-23T18:03:58Z</time>
      </trkpt>
      <trkpt lat="43.19345" lon="3.08476">
        <ele>50</ele>
        <time>2023-04-23T18:04:00Z</time>
      </trkpt>
      <trkpt lat="43.19339" lon="3.08479">
        <ele>49</ele>
        <time>2023-04-23T18:04:02Z</time>
      </trkpt>
      <trkpt lat="43.19338" lon="3.08482">
        <ele>49</ele>
        <time>2023-04-23T18:04:02Z</time>
      </trkpt>
      <trkpt lat="43.19333" lon="3.08514">
        <ele>50</ele>
        <time>2023-04-23T18:04:08Z</time>
      </trkpt>
      <trkpt lat="43.19333" lon="3.08544">
        <ele>53</ele>
        <time>2023-04-23T18:04:13Z</time>
      </trkpt>
      <trkpt lat="43.19324" lon="3.0855">
        <ele>55</ele>
        <time>2023-04-23T18:04:15Z</time>
      </trkpt>
      <trkpt lat="43.19316" lon="3.08545">
        <ele>56</ele>
        <time>2023-04-23T18:04:17Z</time>
      </trkpt>
      <trkpt lat="43.19311" lon="3.08545">
        <ele>57</ele>
        <time>2023-04-23T18:04:18Z</time>
      </trkpt>
      <trkpt lat="43.19302" lon="3.0855">
        <ele>59</ele>
        <time>2023-04-23T18:04:21Z</time>
      </trkpt>
      <trkpt lat="43.19296" lon="3.0856">
        <ele>60</ele>
        <time>2023-04-23T18:04:23Z</time>
      </trkpt>
      <trkpt lat="43.19288" lon="3.08566">
        <ele>62</ele>
        <time>2023-04-23T18:04:25Z</time>
      </trkpt>
      <trkpt lat="43.19282" lon="3.08565">
        <ele>63</ele>
        <time>2023-04-23T18:04:26Z</time>
      </trkpt>
      <trkpt lat="43.19275" lon="3.08547">
        <ele>63</ele>
        <time>2023-04-23T18:04:30Z</time>
      </trkpt>
      <trkpt lat="43.19273" lon="3.08518">
        <ele>61</ele>
        <time>2023-04-23T18:04:35Z</time>
      </trkpt>
      <trkpt lat="43.19267" lon="3.08514">
        <ele>62</ele>
        <time>2023-04-23T18:04:36Z</time>
      </trkpt>
      <trkpt lat="43.19264" lon="3.08505">
        <ele>62</ele>
        <time>2023-04-23T18:04:38Z</time>
      </trkpt>
      <trkpt lat="43.19265" lon="3.08488">
        <ele>60</ele>
        <time>2023-04-23T18:04:41Z</time>
      </trkpt>
      <trkpt lat="43.19261" lon="3.08468">
        <ele>59</ele>
        <time>2023-04-23T18:04:45Z</time>
      </trkpt>
      <trkpt lat="43.19253" lon="3.08463">
        <ele>60</ele>
        <time>2023-04-23T18:04:47Z</time>
      </trkpt>
      <trkpt lat="43.1925" lon="3.08453">
        <ele>60</ele>
        <time>2023-04-23T18:04:48Z</time>
      </trkpt>
      <trkpt lat="43.19255" lon="3.08433">
        <ele>58</ele>
        <time>2023-04-23T18:04:52Z</time>
      </trkpt>
      <trkpt lat="43.19253" lon="3.08413">
        <ele>56</ele>
        <time>2023-04-23T18:04:55Z</time>
      </trkpt>
      <trkpt lat="43.19244" lon="3.08392">
        <ele>53</ele>
        <time>2023-04-23T18:05:00Z</time>
      </trkpt>
      <trkpt lat="43.19236" lon="3.08345">
        <ele>46</ele>
        <time>2023-04-23T18:05:08Z</time>
      </trkpt>
      <trkpt lat="43.1923" lon="3.08332">
        <ele>43</ele>
        <time>2023-04-23T18:05:10Z</time>
      </trkpt>
      <trkpt lat="43.19225" lon="3.08334">
        <ele>44</ele>
        <time>2023-04-23T18:05:12Z</time>
      </trkpt>
      <trkpt lat="43.19225" lon="3.08337">
        <ele>44</ele>
        <time>2023-04-23T18:05:12Z</time>
      </trkpt>
      <trkpt lat="43.1922" lon="3.08342">
        <ele>45</ele>
        <time>2023-04-23T18:05:14Z</time>
      </trkpt>
      <trkpt lat="43.19215" lon="3.08343">
        <ele>45</ele>
        <time>2023-04-23T18:05:15Z</time>
      </trkpt>
      <trkpt lat="43.1921" lon="3.0835">
        <ele>46</ele>
        <time>2023-04-23T18:05:16Z</time>
      </trkpt>
      <trkpt lat="43.19211" lon="3.08388">
        <ele>52</ele>
        <time>2023-04-23T18:05:23Z</time>
      </trkpt>
      <trkpt lat="43.192" lon="3.08393">
        <ele>53</ele>
        <time>2023-04-23T18:05:26Z</time>
      </trkpt>
      <trkpt lat="43.19187" lon="3.08407">
        <ele>55</ele>
        <time>2023-04-23T18:05:30Z</time>
      </trkpt>
      <trkpt lat="43.19181" lon="3.08408">
        <ele>55</ele>
        <time>2023-04-23T18:05:31Z</time>
      </trkpt>
      <trkpt lat="43.19153" lon="3.08403">
        <ele>50</ele>
        <time>2023-04-23T18:05:38Z</time>
      </trkpt>
      <trkpt lat="43.1916" lon="3.08379">
        <ele>48</ele>
        <time>2023-04-23T18:05:42Z</time>
      </trkpt>
      <trkpt lat="43.19163" lon="3.08377">
        <ele>49</ele>
        <time>2023-04-23T18:05:43Z</time>
      </trkpt>
      <trkpt lat="43.19163" lon="3.08369">
        <ele>47</ele>
        <time>2023-04-23T18:05:44Z</time>
      </trkpt>
      <trkpt lat="43.19166" lon="3.08362">
        <ele>47</ele>
        <time>2023-04-23T18:05:45Z</time>
      </trkpt>
      <trkpt lat="43.19164" lon="3.0836">
        <ele>46</ele>
        <time>2023-04-23T18:05:46Z</time>
      </trkpt>
      <trkpt lat="43.19153" lon="3.08365">
        <ele>45</ele>
        <time>2023-04-23T18:05:49Z</time>
      </trkpt>
      <trkpt lat="43.19141" lon="3.08366">
        <ele>42</ele>
        <time>2023-04-23T18:05:52Z</time>
      </trkpt>
      <trkpt lat="43.1913" lon="3.08372">
        <ele>41</ele>
        <time>2023-04-23T18:05:54Z</time>
      </trkpt>
      <trkpt lat="43.19128" lon="3.08376">
        <ele>41</ele>
        <time>2023-04-23T18:05:55Z</time>
      </trkpt>
      <trkpt lat="43.19118" lon="3.08377">
        <ele>39</ele>
        <time>2023-04-23T18:05:57Z</time>
      </trkpt>
      <trkpt lat="43.19097" lon="3.08363">
        <ele>33</ele>
        <time>2023-04-23T18:06:03Z</time>
      </trkpt>
      <trkpt lat="43.1909" lon="3.08363">
        <ele>32</ele>
        <time>2023-04-23T18:06:05Z</time>
      </trkpt>
      <trkpt lat="43.19056" lon="3.08458">
        <ele>35</ele>
        <time>2023-04-23T18:06:23Z</time>
      </trkpt>
      <trkpt lat="43.18991" lon="3.08611">
        <ele>36</ele>
        <time>2023-04-23T18:06:53Z</time>
      </trkpt>
      <trkpt lat="43.18983" lon="3.08625">
        <ele>36</ele>
        <time>2023-04-23T18:06:56Z</time>
      </trkpt>
      <trkpt lat="43.18973" lon="3.08629">
        <ele>35</ele>
        <time>2023-04-23T18:06:58Z</time>
      </trkpt>
      <trkpt lat="43.18964" lon="3.08638">
        <ele>35</ele>
        <time>2023-04-23T18:07:01Z</time>
      </trkpt>
      <trkpt lat="43.18957" lon="3.08653">
        <ele>35</ele>
        <time>2023-04-23T18:07:04Z</time>
      </trkpt>
      <trkpt lat="43.18955" lon="3.0868">
        <ele>35</ele>
        <time>2023-04-23T18:07:08Z</time>
      </trkpt>
      <trkpt lat="43.18957" lon="3.08798">
        <ele>36</ele>
        <time>2023-04-23T18:07:29Z</time>
      </trkpt>
      <trkpt lat="43.18969" lon="3.08934">
        <ele>37</ele>
        <time>2023-04-23T18:07:52Z</time>
      </trkpt>
      <trkpt lat="43.18977" lon="3.08968">
        <ele>38</ele>
        <time>2023-04-23T18:07:58Z</time>
      </trkpt>
      <trkpt lat="43.19001" lon="3.09038">
        <ele>38</ele>
        <time>2023-04-23T18:08:11Z</time>
      </trkpt>
      <trkpt lat="43.19061" lon="3.09159">
        <ele>44</ele>
        <time>2023-04-23T18:08:36Z</time>
      </trkpt>
      <trkpt lat="43.19076" lon="3.09199">
        <ele>45</ele>
        <time>2023-04-23T18:08:44Z</time>
      </trkpt>
      <trkpt lat="43.19105" lon="3.09262">
        <ele>48</ele>
        <time>2023-04-23T18:08:56Z</time>
      </trkpt>
      <trkpt lat="43.19114" lon="3.09276">
        <ele>49</ele>
        <time>2023-04-23T18:09:00Z</time>
      </trkpt>
      <trkpt lat="43.19128" lon="3.0929">
        <ele>50</ele>
        <time>2023-04-23T18:09:04Z</time>
      </trkpt>
      <trkpt lat="43.19182" lon="3.09357">
        <ele>53</ele>
        <time>2023-04-23T18:09:21Z</time>
      </trkpt>
      <trkpt lat="43.19185" lon="3.0937">
        <ele>53</ele>
        <time>2023-04-23T18:09:23Z</time>
      </trkpt>
      <trkpt lat="43.1917" lon="3.09387">
        <ele>52</ele>
        <time>2023-04-23T18:09:27Z</time>
      </trkpt>
      <trkpt lat="43.19186" lon="3.09388">
        <ele>53</ele>
        <time>2023-04-23T18:09:31Z</time>
      </trkpt>
      <trkpt lat="43.19217" lon="3.09404">
        <ele>55</ele>
        <time>2023-04-23T18:09:39Z</time>
      </trkpt>
      <trkpt lat="43.1925" lon="3.09424">
        <ele>56</ele>
        <time>2023-04-23T18:09:47Z</time>
      </trkpt>
      <trkpt lat="43.19271" lon="3.0944">
        <ele>57</ele>
        <time>2023-04-23T18:09:53Z</time>
      </trkpt>
      <trkpt lat="43.19275" lon="3.09439">
        <ele>57</ele>
        <time>2023-04-23T18:09:54Z</time>
      </trkpt>
      <trkpt lat="43.19292" lon="3.09417">
        <ele>58</ele>
        <time>2023-04-23T18:09:59Z</time>
      </trkpt>
      <trkpt lat="43.19315" lon="3.0938">
        <ele>61</ele>
        <time>2023-04-23T18:10:08Z</time>
      </trkpt>
      <trkpt lat="43.19345" lon="3.0934">
        <ele>65</ele>
        <time>2023-04-23T18:10:17Z</time>
      </trkpt>
      <trkpt lat="43.19352" lon="3.09345">
        <ele>66</ele>
        <time>2023-04-23T18:10:19Z</time>
      </trkpt>
      <trkpt lat="43.19382" lon="3.09383">
        <ele>68</ele>
        <time>2023-04-23T18:10:29Z</time>
      </trkpt>
      <trkpt lat="43.19388" lon="3.09386">
        <ele>68</ele>
        <time>2023-04-23T18:10:30Z</time>
      </trkpt>
      <trkpt lat="43.19392" lon="3.09386">
        <ele>69</ele>
        <time>2023-04-23T18:10:31Z</time>
      </trkpt>
      <trkpt lat="43.19411" lon="3.09375">
        <ele>72</ele>
        <time>2023-04-23T18:10:36Z</time>
      </trkpt>
      <trkpt lat="43.1943" lon="3.09379">
        <ele>75</ele>
        <time>2023-04-23T18:10:41Z</time>
      </trkpt>
      <trkpt lat="43.19451" lon="3.0938">
        <ele>79</ele>
        <time>2023-04-23T18:10:45Z</time>
      </trkpt>
      <trkpt lat="43.19464" lon="3.09387">
        <ele>81</ele>
        <time>2023-04-23T18:10:49Z</time>
      </trkpt>
      <trkpt lat="43.19497" lon="3.09388">
        <ele>87</ele>
        <time>2023-04-23T18:10:56Z</time>
      </trkpt>
      <trkpt lat="43.19502" lon="3.09386">
        <ele>88</ele>
        <time>2023-04-23T18:10:58Z</time>
      </trkpt>
      <trkpt lat="43.195" lon="3.09388">
        <ele>88</ele>
        <time>2023-04-23T18:10:58Z</time>
      </trkpt>
      <trkpt lat="43.19503" lon="3.09388">
        <ele>88</ele>
        <time>2023-04-23T18:10:59Z</time>
      </trkpt>
      <trkpt lat="43.19502" lon="3.09379">
        <ele>89</ele>
        <time>2023-04-23T18:11:00Z</time>
      </trkpt>
      <trkpt lat="43.19507" lon="3.09371">
        <ele>91</ele>
        <time>2023-04-23T18:11:02Z</time>
      </trkpt>
      <trkpt lat="43.19505" lon="3.0936">
        <ele>92</ele>
        <time>2023-04-23T18:11:04Z</time>
      </trkpt>
      <trkpt lat="43.19481" lon="3.09335">
        <ele>90</ele>
        <time>2023-04-23T18:11:11Z</time>
      </trkpt>
      <trkpt lat="43.19477" lon="3.09327">
        <ele>91</ele>
        <time>2023-04-23T18:11:13Z</time>
      </trkpt>
      <trkpt lat="43.19477" lon="3.09315">
        <ele>93</ele>
        <time>2023-04-23T18:11:15Z</time>
      </trkpt>
      <trkpt lat="43.19441" lon="3.09275">
        <ele>90</ele>
        <time>2023-04-23T18:11:26Z</time>
      </trkpt>
      <trkpt lat="43.19407" lon="3.09187">
        <ele>95</ele>
        <time>2023-04-23T18:11:43Z</time>
      </trkpt>
      <trkpt lat="43.19396" lon="3.09166">
        <ele>97</ele>
        <time>2023-04-23T18:11:47Z</time>
      </trkpt>
      <trkpt lat="43.19377" lon="3.0914">
        <ele>98</ele>
        <time>2023-04-23T18:11:53Z</time>
      </trkpt>
      <trkpt lat="43.19377" lon="3.09137">
        <ele>99</ele>
        <time>2023-04-23T18:11:54Z</time>
      </trkpt>
      <trkpt lat="43.19387" lon="3.09125">
        <ele>101</ele>
        <time>2023-04-23T18:11:57Z</time>
      </trkpt>
      <trkpt lat="43.19409" lon="3.09088">
        <ele>106</ele>
        <time>2023-04-23T18:12:05Z</time>
      </trkpt>
      <trkpt lat="43.19411" lon="3.09092">
        <ele>105</ele>
        <time>2023-04-23T18:12:06Z</time>
      </trkpt>
      <trkpt lat="43.19406" lon="3.09091">
        <ele>105</ele>
        <time>2023-04-23T18:12:07Z</time>
      </trkpt>
      <trkpt lat="43.1941" lon="3.09091">
        <ele>105</ele>
        <time>2023-04-23T18:12:08Z</time>
      </trkpt>
      <trkpt lat="43.19446" lon="3.09161">
        <ele>106</ele>
        <time>2023-04-23T18:12:23Z</time>
      </trkpt>
      <trkpt lat="43.19465" lon="3.0918">
        <ele>109</ele>
        <time>2023-04-23T18:12:28Z</time>
      </trkpt>
      <trkpt lat="43.1948" lon="3.09188">
        <ele>112</ele>
        <time>2023-04-23T18:12:32Z</time>
      </trkpt>
      <trkpt lat="43.19493" lon="3.09189">
        <ele>115</ele>
        <time>2023-04-23T18:12:35Z</time>
      </trkpt>
      <trkpt lat="43.195" lon="3.09198">
        <ele>116</ele>
        <time>2023-04-23T18:12:37Z</time>
      </trkpt>
      <trkpt lat="43.19526" lon="3.09217">
        <ele>115</ele>
        <time>2023-04-23T18:12:44Z</time>
      </trkpt>
      <trkpt lat="43.19538" lon="3.09231">
        <ele>115</ele>
        <time>2023-04-23T18:12:48Z</time>
      </trkpt>
      <trkpt lat="43.19585" lon="3.09271">
        <ele>116</ele>
        <time>2023-04-23T18:13:01Z</time>
      </trkpt>
      <trkpt lat="43.1962" lon="3.09285">
        <ele>116</ele>
        <time>2023-04-23T18:13:09Z</time>
      </trkpt>
      <trkpt lat="43.19651" lon="3.09302">
        <ele>117</ele>
        <time>2023-04-23T18:13:17Z</time>
      </trkpt>
      <trkpt lat="43.19655" lon="3.09297">
        <ele>118</ele>
        <time>2023-04-23T18:13:18Z</time>
      </trkpt>
      <trkpt lat="43.19668" lon="3.09313">
        <ele>118</ele>
        <time>2023-04-23T18:13:22Z</time>
      </trkpt>
      <trkpt lat="43.19672" lon="3.09315">
        <ele>118</ele>
        <time>2023-04-23T18:13:23Z</time>
      </trkpt>
      <trkpt lat="43.19675" lon="3.09331">
        <ele>118</ele>
        <time>2023-04-23T18:13:26Z</time>
      </trkpt>
      <trkpt lat="43.19682" lon="3.09337">
        <ele>117</ele>
        <time>2023-04-23T18:13:28Z</time>
      </trkpt>
      <trkpt lat="43.19681" lon="3.09343">
        <ele>117</ele>
        <time>2023-04-23T18:13:29Z</time>
      </trkpt>
      <trkpt lat="43.19676" lon="3.09346">
        <ele>116</ele>
        <time>2023-04-23T18:13:30Z</time>
      </trkpt>
      <trkpt lat="43.19678" lon="3.09361">
        <ele>114</ele>
        <time>2023-04-23T18:13:33Z</time>
      </trkpt>
      <trkpt lat="43.19688" lon="3.09385">
        <ele>109</ele>
        <time>2023-04-23T18:13:38Z</time>
      </trkpt>
      <trkpt lat="43.19682" lon="3.09394">
        <ele>108</ele>
        <time>2023-04-23T18:13:40Z</time>
      </trkpt>
      <trkpt lat="43.19665" lon="3.09401">
        <ele>107</ele>
        <time>2023-04-23T18:13:44Z</time>
      </trkpt>
      <trkpt lat="43.19654" lon="3.09391">
        <ele>108</ele>
        <time>2023-04-23T18:13:47Z</time>
      </trkpt>
      <trkpt lat="43.19644" lon="3.09377">
        <ele>109</ele>
        <time>2023-04-23T18:13:50Z</time>
      </trkpt>
      <trkpt lat="43.19638" lon="3.09374">
        <ele>109</ele>
        <time>2023-04-23T18:13:52Z</time>
      </trkpt>
      <trkpt lat="43.19633" lon="3.0938">
        <ele>107</ele>
        <time>2023-04-23T18:13:53Z</time>
      </trkpt>
      <trkpt lat="43.1963" lon="3.09389">
        <ele>106</ele>
        <time>2023-04-23T18:13:55Z</time>
      </trkpt>
      <trkpt lat="43.196" lon="3.09401">
        <ele>100</ele>
        <time>2023-04-23T18:14:02Z</time>
      </trkpt>
      <trkpt lat="43.1959" lon="3.09432">
        <ele>94</ele>
        <time>2023-04-23T18:14:08Z</time>
      </trkpt>
      <trkpt lat="43.19585" lon="3.09438">
        <ele>93</ele>
        <time>2023-04-23T18:14:10Z</time>
      </trkpt>
      <trkpt lat="43.19573" lon="3.09435">
        <ele>92</ele>
        <time>2023-04-23T18:14:13Z</time>
      </trkpt>
      <trkpt lat="43.1956" lon="3.09415">
        <ele>92</ele>
        <time>2023-04-23T18:14:17Z</time>
      </trkpt>
      <trkpt lat="43.19557" lon="3.09414">
        <ele>92</ele>
        <time>2023-04-23T18:14:18Z</time>
      </trkpt>
      <trkpt lat="43.19546" lon="3.09413">
        <ele>91</ele>
        <time>2023-04-23T18:14:20Z</time>
      </trkpt>
      <trkpt lat="43.19531" lon="3.09425">
        <ele>88</ele>
        <time>2023-04-23T18:14:24Z</time>
      </trkpt>
      <trkpt lat="43.19542" lon="3.09455">
        <ele>89</ele>
        <time>2023-04-23T18:14:30Z</time>
      </trkpt>
      <trkpt lat="43.19553" lon="3.09472">
        <ele>89</ele>
        <time>2023-04-23T18:14:34Z</time>
      </trkpt>
      <trkpt lat="43.19561" lon="3.0948">
        <ele>89</ele>
        <time>2023-04-23T18:14:36Z</time>
      </trkpt>
      <trkpt lat="43.19607" lon="3.09511">
        <ele>87</ele>
        <time>2023-04-23T18:14:48Z</time>
      </trkpt>
      <trkpt lat="43.19597" lon="3.09569">
        <ele>81</ele>
        <time>2023-04-23T18:14:58Z</time>
      </trkpt>
      <trkpt lat="43.19588" lon="3.09599">
        <ele>78</ele>
        <time>2023-04-23T18:15:04Z</time>
      </trkpt>
      <trkpt lat="43.19584" lon="3.09621">
        <ele>77</ele>
        <time>2023-04-23T18:15:08Z</time>
      </trkpt>
      <trkpt lat="43.19583" lon="3.09652">
        <ele>75</ele>
        <time>2023-04-23T18:15:13Z</time>
      </trkpt>
      <trkpt lat="43.19575" lon="3.09685">
        <ele>73</ele>
        <time>2023-04-23T18:15:19Z</time>
      </trkpt>
      <trkpt lat="43.19598" lon="3.09713">
        <ele>74</ele>
        <time>2023-04-23T18:15:26Z</time>
      </trkpt>
      <trkpt lat="43.19604" lon="3.09724">
        <ele>75</ele>
        <time>2023-04-23T18:15:29Z</time>
      </trkpt>
      <trkpt lat="43.19613" lon="3.09786">
        <ele>79</ele>
        <time>2023-04-23T18:15:39Z</time>
      </trkpt>
      <trkpt lat="43.19617" lon="3.09835">
        <ele>83</ele>
        <time>2023-04-23T18:15:48Z</time>
      </trkpt>
      <trkpt lat="43.19616" lon="3.09918">
        <ele>88</ele>
        <time>2023-04-23T18:16:02Z</time>
      </trkpt>
      <trkpt lat="43.19622" lon="3.09999">
        <ele>91</ele>
        <time>2023-04-23T18:16:16Z</time>
      </trkpt>
      <trkpt lat="43.19633" lon="3.09998">
        <ele>92</ele>
        <time>2023-04-23T18:16:18Z</time>
      </trkpt>
      <trkpt lat="43.19656" lon="3.10024">
        <ele>93</ele>
        <time>2023-04-23T18:16:25Z</time>
      </trkpt>
      <trkpt lat="43.19641" lon="3.10034">
        <ele>92</ele>
        <time>2023-04-23T18:16:29Z</time>
      </trkpt>
      <trkpt lat="43.19636" lon="3.10042">
        <ele>91</ele>
        <time>2023-04-23T18:16:31Z</time>
      </trkpt>
      <trkpt lat="43.19634" lon="3.10057">
        <ele>91</ele>
        <time>2023-04-23T18:16:34Z</time>
      </trkpt>
      <trkpt lat="43.19648" lon="3.10092">
        <ele>92</ele>
        <time>2023-04-23T18:16:40Z</time>
      </trkpt>
      <trkpt lat="43.19678" lon="3.10124">
        <ele>94</ele>
        <time>2023-04-23T18:16:49Z</time>
      </trkpt>
      <trkpt lat="43.19712" lon="3.10179">
        <ele>94</ele>
        <time>2023-04-23T18:17:01Z</time>
      </trkpt>
      <trkpt lat="43.19728" lon="3.10188">
        <ele>95</ele>
        <time>2023-04-23T18:17:06Z</time>
      </trkpt>
      <trkpt lat="43.19773" lon="3.10193">
        <ele>95</ele>
        <time>2023-04-23T18:17:16Z</time>
      </trkpt>
      <trkpt lat="43.19786" lon="3.10187">
        <ele>95</ele>
        <time>2023-04-23T18:17:19Z</time>
      </trkpt>
      <trkpt lat="43.19802" lon="3.10143">
        <ele>97</ele>
        <time>2023-04-23T18:17:28Z</time>
      </trkpt>
      <trkpt lat="43.19802" lon="3.10143">
        <ele>97</ele>
        <time>2023-04-23T18:17:28Z</time>
      </trkpt>
      <trkpt lat="43.19816" lon="3.10109">
        <ele>98.4</ele>
      </trkpt>
      <trkpt lat="43.19991" lon="3.09734">
        <ele>112.6</ele>
      </trkpt>
      <trkpt lat="43.19995" lon="3.09711">
        <ele>114.5</ele>
      </trkpt>
      <trkpt lat="43.2001" lon="3.09686">
        <ele>118.3</ele>
      </trkpt>
      <trkpt lat="43.2002" lon="3.0964">
        <ele>123.4</ele>
      </trkpt>
      <trkpt lat="43.2003" lon="3.0961">
        <ele>124.1</ele>
      </trkpt>
      <trkpt lat="43.20034" lon="3.09606">
        <ele>124.3</ele>
      </trkpt>
      <trkpt lat="43.20039" lon="3.09625">
        <ele>124.2</ele>
      </trkpt>
      <trkpt lat="43.20043" lon="3.09632">
        <ele>123</ele>
        <time>2023-04-23T15:26:58Z</time>
      </trkpt>
      <trkpt lat="43.20043" lon="3.09633">
        <ele>124.1</ele>
        <time>2023-04-23T15:27:03Z</time>
      </trkpt>
      <trkpt lat="43.20048" lon="3.09638">
        <ele>123</ele>
        <time>2023-04-23T15:27:10Z</time>
      </trkpt>
      <trkpt lat="43.20052" lon="3.0965">
        <ele>123</ele>
        <time>2023-04-23T15:27:12Z</time>
      </trkpt>
      <trkpt lat="43.20058" lon="3.09659">
        <ele>123</ele>
        <time>2023-04-23T15:27:14Z</time>
      </trkpt>
      <trkpt lat="43.20101" lon="3.09703">
        <ele>122</ele>
        <time>2023-04-23T15:27:26Z</time>
      </trkpt>
      <trkpt lat="43.20109" lon="3.0971">
        <ele>121</ele>
        <time>2023-04-23T15:27:29Z</time>
      </trkpt>
      <trkpt lat="43.20121" lon="3.09715">
        <ele>121</ele>
        <time>2023-04-23T15:27:32Z</time>
      </trkpt>
      <trkpt lat="43.20123" lon="3.09745">
        <ele>118</ele>
        <time>2023-04-23T15:27:37Z</time>
      </trkpt>
      <trkpt lat="43.20131" lon="3.09752">
        <ele>118</ele>
        <time>2023-04-23T15:27:39Z</time>
      </trkpt>
      <trkpt lat="43.20159" lon="3.09743">
        <ele>118</ele>
        <time>2023-04-23T15:27:46Z</time>
      </trkpt>
      <trkpt lat="43.2017" lon="3.09742">
        <ele>118</ele>
        <time>2023-04-23T15:27:48Z</time>
      </trkpt>
      <trkpt lat="43.20173" lon="3.09755">
        <ele>117</ele>
        <time>2023-04-23T15:27:51Z</time>
      </trkpt>
      <trkpt lat="43.2018" lon="3.09764">
        <ele>116</ele>
        <time>2023-04-23T15:27:53Z</time>
      </trkpt>
      <trkpt lat="43.20181" lon="3.09777">
        <ele>114</ele>
        <time>2023-04-23T15:27:55Z</time>
      </trkpt>
      <trkpt lat="43.20146" lon="3.09791">
        <ele>113</ele>
        <time>2023-04-23T15:28:04Z</time>
      </trkpt>
      <trkpt lat="43.2014" lon="3.09801">
        <ele>112</ele>
        <time>2023-04-23T15:28:06Z</time>
      </trkpt>
      <trkpt lat="43.20143" lon="3.09813">
        <ele>111</ele>
        <time>2023-04-23T15:28:08Z</time>
      </trkpt>
      <trkpt lat="43.20154" lon="3.09818">
        <ele>110</ele>
        <time>2023-04-23T15:28:11Z</time>
      </trkpt>
      <trkpt lat="43.20165" lon="3.09816">
        <ele>110</ele>
        <time>2023-04-23T15:28:13Z</time>
      </trkpt>
      <trkpt lat="43.20169" lon="3.09828">
        <ele>108</ele>
        <time>2023-04-23T15:28:15Z</time>
      </trkpt>
      <trkpt lat="43.20168" lon="3.09841">
        <ele>107</ele>
        <time>2023-04-23T15:28:18Z</time>
      </trkpt>
      <trkpt lat="43.20191" lon="3.09841">
        <ele>105</ele>
        <time>2023-04-23T15:28:23Z</time>
      </trkpt>
      <trkpt lat="43.20199" lon="3.09849">
        <ele>103</ele>
        <time>2023-04-23T15:28:25Z</time>
      </trkpt>
      <trkpt lat="43.20211" lon="3.09851">
        <ele>102</ele>
        <time>2023-04-23T15:28:28Z</time>
      </trkpt>
      <trkpt lat="43.20238" lon="3.09869">
        <ele>98</ele>
        <time>2023-04-23T15:28:35Z</time>
      </trkpt>
      <trkpt lat="43.20249" lon="3.09846">
        <ele>100</ele>
        <time>2023-04-23T15:28:40Z</time>
      </trkpt>
      <trkpt lat="43.20258" lon="3.09847">
        <ele>100</ele>
        <time>2023-04-23T15:28:42Z</time>
      </trkpt>
      <trkpt lat="43.20271" lon="3.09867">
        <ele>99</ele>
        <time>2023-04-23T15:28:47Z</time>
      </trkpt>
      <trkpt lat="43.2029" lon="3.09875">
        <ele>99</ele>
        <time>2023-04-23T15:28:51Z</time>
      </trkpt>
      <trkpt lat="43.20302" lon="3.09873">
        <ele>100</ele>
        <time>2023-04-23T15:28:54Z</time>
      </trkpt>
      <trkpt lat="43.2031" lon="3.09866">
        <ele>102</ele>
        <time>2023-04-23T15:28:56Z</time>
      </trkpt>
      <trkpt lat="43.20322" lon="3.09871">
        <ele>102</ele>
        <time>2023-04-23T15:28:59Z</time>
      </trkpt>
      <trkpt lat="43.20341" lon="3.09885">
        <ele>101</ele>
        <time>2023-04-23T15:29:04Z</time>
      </trkpt>
      <trkpt lat="43.20347" lon="3.09872">
        <ele>102</ele>
        <time>2023-04-23T15:29:07Z</time>
      </trkpt>
      <trkpt lat="43.20357" lon="3.0987">
        <ele>102</ele>
        <time>2023-04-23T15:29:09Z</time>
      </trkpt>
      <trkpt lat="43.20367" lon="3.09863">
        <ele>102</ele>
        <time>2023-04-23T15:29:12Z</time>
      </trkpt>
      <trkpt lat="43.2037" lon="3.09849">
        <ele>103</ele>
        <time>2023-04-23T15:29:14Z</time>
      </trkpt>
      <trkpt lat="43.20377" lon="3.09841">
        <ele>104</ele>
        <time>2023-04-23T15:29:16Z</time>
      </trkpt>
      <trkpt lat="43.20381" lon="3.09842">
        <ele>99.6</ele>
      </trkpt>
      <trkpt lat="43.20387" lon="3.09843">
        <ele>103</ele>
        <time>2023-04-23T15:29:19Z</time>
      </trkpt>
      <trkpt lat="43.20394" lon="3.09853">
        <ele>102</ele>
        <time>2023-04-23T15:29:21Z</time>
      </trkpt>
      <trkpt lat="43.20398" lon="3.09865">
        <ele>101</ele>
        <time>2023-04-23T15:29:23Z</time>
      </trkpt>
      <trkpt lat="43.20407" lon="3.0986">
        <ele>101</ele>
        <time>2023-04-23T15:29:26Z</time>
      </trkpt>
      <trkpt lat="43.20411" lon="3.09852">
        <ele>95.7</ele>
      </trkpt>
      <trkpt lat="43.20414" lon="3.09849">
        <ele>102</ele>
        <time>2023-04-23T15:29:28Z</time>
      </trkpt>
      <trkpt lat="43.20424" lon="3.09841">
        <ele>101</ele>
        <time>2023-04-23T15:29:31Z</time>
      </trkpt>
      <trkpt lat="43.20435" lon="3.0984">
        <ele>99</ele>
        <time>2023-04-23T15:29:33Z</time>
      </trkpt>
      <trkpt lat="43.20466" lon="3.09852">
        <ele>92</ele>
        <time>2023-04-23T15:29:41Z</time>
      </trkpt>
      <trkpt lat="43.20472" lon="3.09861">
        <ele>90</ele>
        <time>2023-04-23T15:29:43Z</time>
      </trkpt>
      <trkpt lat="43.20481" lon="3.09863">
        <ele>88</ele>
        <time>2023-04-23T15:29:45Z</time>
      </trkpt>
      <trkpt lat="43.2049" lon="3.09858">
        <ele>87</ele>
        <time>2023-04-23T15:29:47Z</time>
      </trkpt>
      <trkpt lat="43.20501" lon="3.09868">
        <ele>84</ele>
        <time>2023-04-23T15:29:50Z</time>
      </trkpt>
      <trkpt lat="43.20508" lon="3.09881">
        <ele>83</ele>
        <time>2023-04-23T15:29:53Z</time>
      </trkpt>
      <trkpt lat="43.2051" lon="3.09895">
        <ele>82</ele>
        <time>2023-04-23T15:29:56Z</time>
      </trkpt>
      <trkpt lat="43.20517" lon="3.09906">
        <ele>81</ele>
        <time>2023-04-23T15:29:58Z</time>
      </trkpt>
      <trkpt lat="43.20565" lon="3.09951">
        <ele>76</ele>
        <time>2023-04-23T15:30:12Z</time>
      </trkpt>
      <trkpt lat="43.20567" lon="3.09964">
        <ele>76</ele>
        <time>2023-04-23T15:30:14Z</time>
      </trkpt>
      <trkpt lat="43.20573" lon="3.09974">
        <ele>76</ele>
        <time>2023-04-23T15:30:16Z</time>
      </trkpt>
      <trkpt lat="43.20581" lon="3.09979">
        <ele>76</ele>
        <time>2023-04-23T15:30:18Z</time>
      </trkpt>
      <trkpt lat="43.20614" lon="3.09988">
        <ele>79</ele>
        <time>2023-04-23T15:30:26Z</time>
      </trkpt>
      <trkpt lat="43.20614" lon="3.10003">
        <ele>79</ele>
        <time>2023-04-23T15:30:29Z</time>
      </trkpt>
      <trkpt lat="43.20595" lon="3.1007">
        <ele>80</ele>
        <time>2023-04-23T15:30:41Z</time>
      </trkpt>
      <trkpt lat="43.20595" lon="3.10084">
        <ele>79</ele>
        <time>2023-04-23T15:30:43Z</time>
      </trkpt>
      <trkpt lat="43.20598" lon="3.10091">
        <ele>80</ele>
        <time>2023-04-23T15:30:45Z</time>
      </trkpt>
      <trkpt lat="43.20608" lon="3.10097">
        <ele>81</ele>
        <time>2023-04-23T15:30:47Z</time>
      </trkpt>
      <trkpt lat="43.20638" lon="3.1013">
        <ele>78.7</ele>
        <time>2023-04-23T15:30:57Z</time>
      </trkpt>
      <trkpt lat="43.20651" lon="3.10135">
        <ele>81</ele>
        <time>2023-04-23T15:30:59Z</time>
      </trkpt>
      <trkpt lat="43.20685" lon="3.10065">
        <ele>82</ele>
        <time>2023-04-23T15:31:14Z</time>
      </trkpt>
      <trkpt lat="43.20684" lon="3.10051">
        <ele>83</ele>
        <time>2023-04-23T15:31:16Z</time>
      </trkpt>
      <trkpt lat="43.20678" lon="3.10038">
        <ele>81.2</ele>
        <time>2023-04-23T15:31:19Z</time>
      </trkpt>
      <trkpt lat="43.20685" lon="3.10031">
        <ele>84</ele>
        <time>2023-04-23T15:31:21Z</time>
      </trkpt>
      <trkpt lat="43.20696" lon="3.10035">
        <ele>84</ele>
        <time>2023-04-23T15:31:24Z</time>
      </trkpt>
      <trkpt lat="43.20704" lon="3.10046">
        <ele>84</ele>
        <time>2023-04-23T15:31:26Z</time>
      </trkpt>
      <trkpt lat="43.20714" lon="3.10054">
        <ele>85</ele>
        <time>2023-04-23T15:31:29Z</time>
      </trkpt>
      <trkpt lat="43.20732" lon="3.10054">
        <ele>86</ele>
        <time>2023-04-23T15:31:33Z</time>
      </trkpt>
      <trkpt lat="43.20741" lon="3.10051">
        <ele>82</ele>
        <time>2023-04-23T15:31:36Z</time>
      </trkpt>
      <trkpt lat="43.2077" lon="3.0998">
        <ele>91</ele>
        <time>2023-04-23T15:31:50Z</time>
      </trkpt>
      <trkpt lat="43.20779" lon="3.09956">
        <ele>90</ele>
        <time>2023-04-23T15:31:55Z</time>
      </trkpt>
      <trkpt lat="43.20788" lon="3.0995">
        <ele>89</ele>
        <time>2023-04-23T15:31:57Z</time>
      </trkpt>
      <trkpt lat="43.20798" lon="3.09948">
        <ele>88</ele>
        <time>2023-04-23T15:31:59Z</time>
      </trkpt>
      <trkpt lat="43.20809" lon="3.09969">
        <ele>87</ele>
        <time>2023-04-23T15:32:04Z</time>
      </trkpt>
      <trkpt lat="43.20819" lon="3.09969">
        <ele>86</ele>
        <time>2023-04-23T15:32:06Z</time>
      </trkpt>
      <trkpt lat="43.20838" lon="3.09953">
        <ele>83</ele>
        <time>2023-04-23T15:32:11Z</time>
      </trkpt>
      <trkpt lat="43.20847" lon="3.09954">
        <ele>81</ele>
        <time>2023-04-23T15:32:13Z</time>
      </trkpt>
      <trkpt lat="43.20857" lon="3.09948">
        <ele>78</ele>
        <time>2023-04-23T15:32:16Z</time>
      </trkpt>
      <trkpt lat="43.20859" lon="3.09934">
        <ele>78</ele>
        <time>2023-04-23T15:32:18Z</time>
      </trkpt>
      <trkpt lat="43.20849" lon="3.09894">
        <ele>79</ele>
        <time>2023-04-23T15:32:26Z</time>
      </trkpt>
      <trkpt lat="43.2085" lon="3.09878">
        <ele>78</ele>
        <time>2023-04-23T15:32:28Z</time>
      </trkpt>
      <trkpt lat="43.20848" lon="3.09864">
        <ele>79</ele>
        <time>2023-04-23T15:32:31Z</time>
      </trkpt>
      <trkpt lat="43.20843" lon="3.09851">
        <ele>79</ele>
        <time>2023-04-23T15:32:33Z</time>
      </trkpt>
      <trkpt lat="43.2086" lon="3.09825">
        <ele>75</ele>
        <time>2023-04-23T15:32:39Z</time>
      </trkpt>
      <trkpt lat="43.2088" lon="3.09809">
        <ele>70</ele>
        <time>2023-04-23T15:32:45Z</time>
      </trkpt>
      <trkpt lat="43.20885" lon="3.09783">
        <ele>68</ele>
        <time>2023-04-23T15:32:49Z</time>
      </trkpt>
      <trkpt lat="43.20895" lon="3.09774">
        <ele>66</ele>
        <time>2023-04-23T15:32:52Z</time>
      </trkpt>
      <trkpt lat="43.20902" lon="3.09763">
        <ele>64</ele>
        <time>2023-04-23T15:32:54Z</time>
      </trkpt>
      <trkpt lat="43.20911" lon="3.09757">
        <ele>62</ele>
        <time>2023-04-23T15:32:57Z</time>
      </trkpt>
      <trkpt lat="43.20919" lon="3.09732">
        <ele>59</ele>
        <time>2023-04-23T15:33:01Z</time>
      </trkpt>
      <trkpt lat="43.20944" lon="3.09732">
        <ele>56</ele>
        <time>2023-04-23T15:33:07Z</time>
      </trkpt>
      <trkpt lat="43.20955" lon="3.0974">
        <ele>54</ele>
        <time>2023-04-23T15:33:10Z</time>
      </trkpt>
      <trkpt lat="43.2097" lon="3.09762">
        <ele>52</ele>
        <time>2023-04-23T15:33:15Z</time>
      </trkpt>
      <trkpt lat="43.2098" lon="3.09756">
        <ele>50</ele>
        <time>2023-04-23T15:33:18Z</time>
      </trkpt>
      <trkpt lat="43.20996" lon="3.09719">
        <ele>47</ele>
        <time>2023-04-23T15:33:25Z</time>
      </trkpt>
      <trkpt lat="43.21006" lon="3.09716">
        <ele>46</ele>
        <time>2023-04-23T15:33:28Z</time>
      </trkpt>
      <trkpt lat="43.21037" lon="3.09726">
        <ele>44</ele>
        <time>2023-04-23T15:33:35Z</time>
      </trkpt>
      <trkpt lat="43.21042" lon="3.09752">
        <ele>44</ele>
        <time>2023-04-23T15:33:40Z</time>
      </trkpt>
      <trkpt lat="43.21043" lon="3.09809">
        <ele>46</ele>
        <time>2023-04-23T15:33:49Z</time>
      </trkpt>
      <trkpt lat="43.21058" lon="3.09895">
        <ele>49</ele>
        <time>2023-04-23T15:34:04Z</time>
      </trkpt>
      <trkpt lat="43.21059" lon="3.09923">
        <ele>51</ele>
        <time>2023-04-23T15:34:09Z</time>
      </trkpt>
      <trkpt lat="43.21085" lon="3.09952">
        <ele>51</ele>
        <time>2023-04-23T15:34:17Z</time>
      </trkpt>
      <trkpt lat="43.21086" lon="3.09964">
        <ele>52</ele>
        <time>2023-04-23T15:34:19Z</time>
      </trkpt>
      <trkpt lat="43.21069" lon="3.09985">
        <ele>54</ele>
        <time>2023-04-23T15:34:24Z</time>
      </trkpt>
      <trkpt lat="43.21065" lon="3.09998">
        <ele>55</ele>
        <time>2023-04-23T15:34:27Z</time>
      </trkpt>
      <trkpt lat="43.21086" lon="3.10042">
        <ele>57</ele>
        <time>2023-04-23T15:34:36Z</time>
      </trkpt>
      <trkpt lat="43.21131" lon="3.10123">
        <ele>60</ele>
        <time>2023-04-23T15:34:53Z</time>
      </trkpt>
      <trkpt lat="43.21142" lon="3.10149">
        <ele>60</ele>
        <time>2023-04-23T15:34:58Z</time>
      </trkpt>
      <trkpt lat="43.2116" lon="3.10182">
        <ele>61</ele>
        <time>2023-04-23T15:35:05Z</time>
      </trkpt>
      <trkpt lat="43.21187" lon="3.10213">
        <ele>62</ele>
        <time>2023-04-23T15:35:13Z</time>
      </trkpt>
      <trkpt lat="43.2121" lon="3.10267">
        <ele>63</ele>
        <time>2023-04-23T15:35:24Z</time>
      </trkpt>
      <trkpt lat="43.21229" lon="3.10295">
        <ele>64</ele>
        <time>2023-04-23T15:35:30Z</time>
      </trkpt>
      <trkpt lat="43.21237" lon="3.10303">
        <ele>65</ele>
        <time>2023-04-23T15:35:33Z</time>
      </trkpt>
      <trkpt lat="43.21269" lon="3.10357">
        <ele>68</ele>
        <time>2023-04-23T15:35:45Z</time>
      </trkpt>
      <trkpt lat="43.21278" lon="3.10359">
        <ele>68</ele>
        <time>2023-04-23T15:35:47Z</time>
      </trkpt>
      <trkpt lat="43.21294" lon="3.10344">
        <ele>67</ele>
        <time>2023-04-23T15:35:51Z</time>
      </trkpt>
      <trkpt lat="43.21314" lon="3.10333">
        <ele>67</ele>
        <time>2023-04-23T15:35:56Z</time>
      </trkpt>
      <trkpt lat="43.21326" lon="3.10334">
        <ele>67</ele>
        <time>2023-04-23T15:35:59Z</time>
      </trkpt>
      <trkpt lat="43.21334" lon="3.1034">
        <ele>68</ele>
        <time>2023-04-23T15:36:01Z</time>
      </trkpt>
      <trkpt lat="43.21346" lon="3.10342">
        <ele>70</ele>
        <time>2023-04-23T15:36:04Z</time>
      </trkpt>
      <trkpt lat="43.21362" lon="3.10324">
        <ele>71</ele>
        <time>2023-04-23T15:36:09Z</time>
      </trkpt>
      <trkpt lat="43.21381" lon="3.10334">
        <ele>74</ele>
        <time>2023-04-23T15:36:14Z</time>
      </trkpt>
      <trkpt lat="43.21394" lon="3.1031">
        <ele>75</ele>
        <time>2023-04-23T15:36:19Z</time>
      </trkpt>
      <trkpt lat="43.21402" lon="3.10283">
        <ele>74</ele>
        <time>2023-04-23T15:36:24Z</time>
      </trkpt>
      <trkpt lat="43.21401" lon="3.10249">
        <ele>72</ele>
        <time>2023-04-23T15:36:29Z</time>
      </trkpt>
      <trkpt lat="43.21397" lon="3.10235">
        <ele>71</ele>
        <time>2023-04-23T15:36:32Z</time>
      </trkpt>
      <trkpt lat="43.214" lon="3.10193">
        <ele>68</ele>
        <time>2023-04-23T15:36:39Z</time>
      </trkpt>
      <trkpt lat="43.21398" lon="3.10181">
        <ele>67</ele>
        <time>2023-04-23T15:36:41Z</time>
      </trkpt>
      <trkpt lat="43.21412" lon="3.1016">
        <ele>69</ele>
        <time>2023-04-23T15:36:46Z</time>
      </trkpt>
      <trkpt lat="43.21422" lon="3.10159">
        <ele>70</ele>
        <time>2023-04-23T15:36:49Z</time>
      </trkpt>
      <trkpt lat="43.21449" lon="3.10177">
        <ele>76</ele>
        <time>2023-04-23T15:36:56Z</time>
      </trkpt>
      <trkpt lat="43.21476" lon="3.10191">
        <ele>81</ele>
        <time>2023-04-23T15:37:02Z</time>
      </trkpt>
      <trkpt lat="43.21483" lon="3.102">
        <ele>82</ele>
        <time>2023-04-23T15:37:05Z</time>
      </trkpt>
      <trkpt lat="43.21491" lon="3.10255">
        <ele>86</ele>
        <time>2023-04-23T15:37:14Z</time>
      </trkpt>
      <trkpt lat="43.21498" lon="3.10281">
        <ele>87</ele>
        <time>2023-04-23T15:37:19Z</time>
      </trkpt>
      <trkpt lat="43.215" lon="3.10309">
        <ele>88</ele>
        <time>2023-04-23T15:37:24Z</time>
      </trkpt>
      <trkpt lat="43.215" lon="3.10322">
        <ele>88</ele>
        <time>2023-04-23T15:37:26Z</time>
      </trkpt>
      <trkpt lat="43.21496" lon="3.10335">
        <ele>88</ele>
        <time>2023-04-23T15:37:28Z</time>
      </trkpt>
      <trkpt lat="43.21498" lon="3.1035">
        <ele>88</ele>
        <time>2023-04-23T15:37:31Z</time>
      </trkpt>
      <trkpt lat="43.21502" lon="3.10364">
        <ele>88</ele>
        <time>2023-04-23T15:37:33Z</time>
      </trkpt>
      <trkpt lat="43.21526" lon="3.10393">
        <ele>90</ele>
        <time>2023-04-23T15:37:41Z</time>
      </trkpt>
      <trkpt lat="43.21532" lon="3.10406">
        <ele>91</ele>
        <time>2023-04-23T15:37:43Z</time>
      </trkpt>
      <trkpt lat="43.21531" lon="3.10448">
        <ele>91</ele>
        <time>2023-04-23T15:37:51Z</time>
      </trkpt>
      <trkpt lat="43.21533" lon="3.10462">
        <ele>92</ele>
        <time>2023-04-23T15:37:53Z</time>
      </trkpt>
      <trkpt lat="43.21542" lon="3.10502">
        <ele>92</ele>
        <time>2023-04-23T15:38:00Z</time>
      </trkpt>
      <trkpt lat="43.2155" lon="3.1051">
        <ele>92</ele>
        <time>2023-04-23T15:38:02Z</time>
      </trkpt>
      <trkpt lat="43.2157" lon="3.10504">
        <ele>94</ele>
        <time>2023-04-23T15:38:07Z</time>
      </trkpt>
      <trkpt lat="43.2158" lon="3.10506">
        <ele>94</ele>
        <time>2023-04-23T15:38:10Z</time>
      </trkpt>
      <trkpt lat="43.21612" lon="3.10522">
        <ele>91</ele>
        <time>2023-04-23T15:38:18Z</time>
      </trkpt>
      <trkpt lat="43.21639" lon="3.10545">
        <ele>88</ele>
        <time>2023-04-23T15:38:25Z</time>
      </trkpt>
      <trkpt lat="43.21652" lon="3.10545">
        <ele>88</ele>
        <time>2023-04-23T15:38:28Z</time>
      </trkpt>
      <trkpt lat="43.21668" lon="3.10563">
        <ele>86</ele>
        <time>2023-04-23T15:38:33Z</time>
      </trkpt>
      <trkpt lat="43.21691" lon="3.10572">
        <ele>85</ele>
        <time>2023-04-23T15:38:38Z</time>
      </trkpt>
      <trkpt lat="43.217" lon="3.10578">
        <ele>85</ele>
        <time>2023-04-23T15:38:41Z</time>
      </trkpt>
      <trkpt lat="43.21722" lon="3.10573">
        <ele>85</ele>
        <time>2023-04-23T15:38:46Z</time>
      </trkpt>
      <trkpt lat="43.21742" lon="3.10578">
        <ele>84</ele>
        <time>2023-04-23T15:38:51Z</time>
      </trkpt>
      <trkpt lat="43.21783" lon="3.10565">
        <ele>84</ele>
        <time>2023-04-23T15:39:01Z</time>
      </trkpt>
      <trkpt lat="43.21823" lon="3.10564">
        <ele>84</ele>
        <time>2023-04-23T15:39:10Z</time>
      </trkpt>
      <trkpt lat="43.21857" lon="3.10574">
        <ele>84</ele>
        <time>2023-04-23T15:39:18Z</time>
      </trkpt>
      <trkpt lat="43.21877" lon="3.10585">
        <ele>83</ele>
        <time>2023-04-23T15:39:23Z</time>
      </trkpt>
      <trkpt lat="43.21958" lon="3.10617">
        <ele>83</ele>
        <time>2023-04-23T15:39:43Z</time>
      </trkpt>
      <trkpt lat="43.2198" lon="3.10622">
        <ele>82</ele>
        <time>2023-04-23T15:39:48Z</time>
      </trkpt>
      <trkpt lat="43.21989" lon="3.10595">
        <ele>82</ele>
        <time>2023-04-23T15:39:53Z</time>
      </trkpt>
      <trkpt lat="43.2197" lon="3.10533">
        <ele>82</ele>
        <time>2023-04-23T15:40:04Z</time>
      </trkpt>
      <trkpt lat="43.21973" lon="3.10521">
        <ele>81</ele>
        <time>2023-04-23T15:40:07Z</time>
      </trkpt>
      <trkpt lat="43.21993" lon="3.10503">
        <ele>81</ele>
        <time>2023-04-23T15:40:12Z</time>
      </trkpt>
      <trkpt lat="43.21999" lon="3.10493">
        <ele>81</ele>
        <time>2023-04-23T15:40:14Z</time>
      </trkpt>
      <trkpt lat="43.22021" lon="3.10426">
        <ele>79</ele>
        <time>2023-04-23T15:40:27Z</time>
      </trkpt>
      <trkpt lat="43.22023" lon="3.10399">
        <ele>78</ele>
        <time>2023-04-23T15:40:31Z</time>
      </trkpt>
      <trkpt lat="43.22038" lon="3.1038">
        <ele>76</ele>
        <time>2023-04-23T15:40:36Z</time>
      </trkpt>
      <trkpt lat="43.22037" lon="3.10352">
        <ele>75</ele>
        <time>2023-04-23T15:40:41Z</time>
      </trkpt>
      <trkpt lat="43.22033" lon="3.1034">
        <ele>74</ele>
        <time>2023-04-23T15:40:43Z</time>
      </trkpt>
      <trkpt lat="43.22032" lon="3.10324">
        <ele>74</ele>
        <time>2023-04-23T15:40:46Z</time>
      </trkpt>
      <trkpt lat="43.22036" lon="3.10309">
        <ele>73</ele>
        <time>2023-04-23T15:40:49Z</time>
      </trkpt>
      <trkpt lat="43.22037" lon="3.10292">
        <ele>72</ele>
        <time>2023-04-23T15:40:52Z</time>
      </trkpt>
      <trkpt lat="43.22042" lon="3.10278">
        <ele>70</ele>
        <time>2023-04-23T15:40:54Z</time>
      </trkpt>
      <trkpt lat="43.22042" lon="3.1026">
        <ele>70</ele>
        <time>2023-04-23T15:40:57Z</time>
      </trkpt>
      <trkpt lat="43.22036" lon="3.10232">
        <ele>69</ele>
        <time>2023-04-23T15:41:02Z</time>
      </trkpt>
      <trkpt lat="43.22044" lon="3.10218">
        <ele>68</ele>
        <time>2023-04-23T15:41:05Z</time>
      </trkpt>
      <trkpt lat="43.22049" lon="3.1019">
        <ele>67</ele>
        <time>2023-04-23T15:41:10Z</time>
      </trkpt>
      <trkpt lat="43.22048" lon="3.10154">
        <ele>66</ele>
        <time>2023-04-23T15:41:16Z</time>
      </trkpt>
      <trkpt lat="43.22045" lon="3.10139">
        <ele>65</ele>
        <time>2023-04-23T15:41:19Z</time>
      </trkpt>
      <trkpt lat="43.22049" lon="3.10095">
        <ele>62</ele>
        <time>2023-04-23T15:41:27Z</time>
      </trkpt>
      <trkpt lat="43.22048" lon="3.1008">
        <ele>61</ele>
        <time>2023-04-23T15:41:29Z</time>
      </trkpt>
      <trkpt lat="43.22039" lon="3.10073">
        <ele>61</ele>
        <time>2023-04-23T15:41:32Z</time>
      </trkpt>
      <trkpt lat="43.22026" lon="3.1007">
        <ele>61</ele>
        <time>2023-04-23T15:41:35Z</time>
      </trkpt>
      <trkpt lat="43.22014" lon="3.10071">
        <ele>61</ele>
        <time>2023-04-23T15:41:37Z</time>
      </trkpt>
      <trkpt lat="43.2201" lon="3.10057">
        <ele>61</ele>
        <time>2023-04-23T15:41:40Z</time>
      </trkpt>
      <trkpt lat="43.22008" lon="3.10026">
        <ele>60</ele>
        <time>2023-04-23T15:41:45Z</time>
      </trkpt>
      <trkpt lat="43.22014" lon="3.10002">
        <ele>60</ele>
        <time>2023-04-23T15:41:50Z</time>
      </trkpt>
      <trkpt lat="43.22028" lon="3.09982">
        <ele>58</ele>
        <time>2023-04-23T15:41:54Z</time>
      </trkpt>
      <trkpt lat="43.22029" lon="3.09964">
        <ele>58</ele>
        <time>2023-04-23T15:41:57Z</time>
      </trkpt>
      <trkpt lat="43.22025" lon="3.09949">
        <ele>57</ele>
        <time>2023-04-23T15:42:00Z</time>
      </trkpt>
      <trkpt lat="43.22038" lon="3.09929">
        <ele>56</ele>
        <time>2023-04-23T15:42:05Z</time>
      </trkpt>
      <trkpt lat="43.22036" lon="3.09916">
        <ele>56</ele>
        <time>2023-04-23T15:42:07Z</time>
      </trkpt>
      <trkpt lat="43.22044" lon="3.09907">
        <ele>55</ele>
        <time>2023-04-23T15:42:09Z</time>
      </trkpt>
      <trkpt lat="43.22047" lon="3.09893">
        <ele>55</ele>
        <time>2023-04-23T15:42:12Z</time>
      </trkpt>
      <trkpt lat="43.22025" lon="3.09884">
        <ele>54</ele>
        <time>2023-04-23T15:42:17Z</time>
      </trkpt>
      <trkpt lat="43.22021" lon="3.09872">
        <ele>54</ele>
        <time>2023-04-23T15:42:19Z</time>
      </trkpt>
      <trkpt lat="43.22014" lon="3.09862">
        <ele>54</ele>
        <time>2023-04-23T15:42:22Z</time>
      </trkpt>
      <trkpt lat="43.22009" lon="3.09817">
        <ele>52</ele>
        <time>2023-04-23T15:42:30Z</time>
      </trkpt>
      <trkpt lat="43.22012" lon="3.09805">
        <ele>51</ele>
        <time>2023-04-23T15:42:32Z</time>
      </trkpt>
      <trkpt lat="43.22019" lon="3.09795">
        <ele>50</ele>
        <time>2023-04-23T15:42:34Z</time>
      </trkpt>
      <trkpt lat="43.22026" lon="3.09767">
        <ele>48</ele>
        <time>2023-04-23T15:42:39Z</time>
      </trkpt>
      <trkpt lat="43.22035" lon="3.09765">
        <ele>47</ele>
        <time>2023-04-23T15:42:41Z</time>
      </trkpt>
      <trkpt lat="43.2204" lon="3.09754">
        <ele>46</ele>
        <time>2023-04-23T15:42:43Z</time>
      </trkpt>
      <trkpt lat="43.22034" lon="3.09744">
        <ele>46</ele>
        <time>2023-04-23T15:42:46Z</time>
      </trkpt>
      <trkpt lat="43.22023" lon="3.09737">
        <ele>47</ele>
        <time>2023-04-23T15:42:48Z</time>
      </trkpt>
      <trkpt lat="43.22015" lon="3.09712">
        <ele>47</ele>
        <time>2023-04-23T15:42:53Z</time>
      </trkpt>
      <trkpt lat="43.21982" lon="3.09656">
        <ele>48</ele>
        <time>2023-04-23T15:43:05Z</time>
      </trkpt>
      <trkpt lat="43.21978" lon="3.09639">
        <ele>47</ele>
        <time>2023-04-23T15:43:08Z</time>
      </trkpt>
      <trkpt lat="43.21976" lon="3.09608">
        <ele>46</ele>
        <time>2023-04-23T15:43:14Z</time>
      </trkpt>
      <trkpt lat="43.21979" lon="3.09594">
        <ele>45</ele>
        <time>2023-04-23T15:43:16Z</time>
      </trkpt>
      <trkpt lat="43.21979" lon="3.09577">
        <ele>45</ele>
        <time>2023-04-23T15:43:19Z</time>
      </trkpt>
      <trkpt lat="43.21974" lon="3.09565">
        <ele>44</ele>
        <time>2023-04-23T15:43:21Z</time>
      </trkpt>
      <trkpt lat="43.21978" lon="3.09549">
        <ele>43</ele>
        <time>2023-04-23T15:43:24Z</time>
      </trkpt>
      <trkpt lat="43.21981" lon="3.09548">
        <ele>43</ele>
        <time>2023-04-23T15:43:25Z</time>
      </trkpt>
      <trkpt lat="43.21997" lon="3.09566">
        <ele>44</ele>
        <time>2023-04-23T15:43:30Z</time>
      </trkpt>
      <trkpt lat="43.22008" lon="3.09569">
        <ele>43</ele>
        <time>2023-04-23T15:43:32Z</time>
      </trkpt>
      <trkpt lat="43.22017" lon="3.09567">
        <ele>42</ele>
        <time>2023-04-23T15:43:35Z</time>
      </trkpt>
      <trkpt lat="43.22028" lon="3.09558">
        <ele>41</ele>
        <time>2023-04-23T15:43:38Z</time>
      </trkpt>
      <trkpt lat="43.22035" lon="3.09527">
        <ele>39</ele>
        <time>2023-04-23T15:43:43Z</time>
      </trkpt>
      <trkpt lat="43.22055" lon="3.09507">
        <ele>37</ele>
        <time>2023-04-23T15:43:49Z</time>
      </trkpt>
      <trkpt lat="43.22065" lon="3.0948">
        <ele>35</ele>
        <time>2023-04-23T15:43:54Z</time>
      </trkpt>
      <trkpt lat="43.22072" lon="3.09468">
        <ele>34</ele>
        <time>2023-04-23T15:43:57Z</time>
      </trkpt>
      <trkpt lat="43.22083" lon="3.09471">
        <ele>33</ele>
        <time>2023-04-23T15:43:59Z</time>
      </trkpt>
      <trkpt lat="43.22102" lon="3.09486">
        <ele>33</ele>
        <time>2023-04-23T15:44:04Z</time>
      </trkpt>
      <trkpt lat="43.22163" lon="3.09549">
        <ele>34</ele>
        <time>2023-04-23T15:44:22Z</time>
      </trkpt>
      <trkpt lat="43.22238" lon="3.09612">
        <ele>37</ele>
        <time>2023-04-23T15:44:43Z</time>
      </trkpt>
      <trkpt lat="43.22252" lon="3.0963">
        <ele>39</ele>
        <time>2023-04-23T15:44:47Z</time>
      </trkpt>
      <trkpt lat="43.22258" lon="3.09642">
        <ele>40</ele>
        <time>2023-04-23T15:44:50Z</time>
      </trkpt>
      <trkpt lat="43.22255" lon="3.09684">
        <ele>42</ele>
        <time>2023-04-23T15:44:57Z</time>
      </trkpt>
      <trkpt lat="43.2226" lon="3.0974">
        <ele>45</ele>
        <time>2023-04-23T15:45:07Z</time>
      </trkpt>
      <trkpt lat="43.22258" lon="3.09752">
        <ele>46</ele>
        <time>2023-04-23T15:45:09Z</time>
      </trkpt>
      <trkpt lat="43.22252" lon="3.09762">
        <ele>47</ele>
        <time>2023-04-23T15:45:11Z</time>
      </trkpt>
      <trkpt lat="43.22254" lon="3.09775">
        <ele>48</ele>
        <time>2023-04-23T15:45:13Z</time>
      </trkpt>
      <trkpt lat="43.2227" lon="3.09792">
        <ele>50</ele>
        <time>2023-04-23T15:45:18Z</time>
      </trkpt>
      <trkpt lat="43.22291" lon="3.09798">
        <ele>50</ele>
        <time>2023-04-23T15:45:23Z</time>
      </trkpt>
      <trkpt lat="43.22302" lon="3.09805">
        <ele>51</ele>
        <time>2023-04-23T15:45:26Z</time>
      </trkpt>
      <trkpt lat="43.22309" lon="3.09814">
        <ele>52</ele>
        <time>2023-04-23T15:45:28Z</time>
      </trkpt>
      <trkpt lat="43.22303" lon="3.09854">
        <ele>56</ele>
        <time>2023-04-23T15:45:35Z</time>
      </trkpt>
      <trkpt lat="43.22294" lon="3.09882">
        <ele>58</ele>
        <time>2023-04-23T15:45:40Z</time>
      </trkpt>
      <trkpt lat="43.22277" lon="3.09979">
        <ele>61</ele>
        <time>2023-04-23T15:45:57Z</time>
      </trkpt>
      <trkpt lat="43.22277" lon="3.09993">
        <ele>62</ele>
        <time>2023-04-23T15:45:59Z</time>
      </trkpt>
      <trkpt lat="43.22274" lon="3.10006">
        <ele>62</ele>
        <time>2023-04-23T15:46:02Z</time>
      </trkpt>
      <trkpt lat="43.22277" lon="3.10036">
        <ele>63</ele>
        <time>2023-04-23T15:46:07Z</time>
      </trkpt>
      <trkpt lat="43.22271" lon="3.10092">
        <ele>64</ele>
        <time>2023-04-23T15:46:17Z</time>
      </trkpt>
      <trkpt lat="43.22275" lon="3.10118">
        <ele>65</ele>
        <time>2023-04-23T15:46:21Z</time>
      </trkpt>
      <trkpt lat="43.22305" lon="3.10102">
        <ele>65</ele>
        <time>2023-04-23T15:46:29Z</time>
      </trkpt>
      <trkpt lat="43.22299" lon="3.10063">
        <ele>64</ele>
        <time>2023-04-23T15:46:35Z</time>
      </trkpt>
      <trkpt lat="43.22299" lon="3.10016">
        <ele>62</ele>
        <time>2023-04-23T15:46:43Z</time>
      </trkpt>
      <trkpt lat="43.22305" lon="3.09974">
        <ele>61</ele>
        <time>2023-04-23T15:46:51Z</time>
      </trkpt>
      <trkpt lat="43.2232" lon="3.09934">
        <ele>61</ele>
        <time>2023-04-23T15:46:58Z</time>
      </trkpt>
      <trkpt lat="43.22321" lon="3.09918">
        <ele>61</ele>
        <time>2023-04-23T15:47:01Z</time>
      </trkpt>
      <trkpt lat="43.22316" lon="3.09906">
        <ele>60</ele>
        <time>2023-04-23T15:47:03Z</time>
      </trkpt>
      <trkpt lat="43.22318" lon="3.09892">
        <ele>59</ele>
        <time>2023-04-23T15:47:06Z</time>
      </trkpt>
      <trkpt lat="43.2233" lon="3.0985">
        <ele>55</ele>
        <time>2023-04-23T15:47:13Z</time>
      </trkpt>
      <trkpt lat="43.22335" lon="3.09841">
        <ele>54</ele>
        <time>2023-04-23T15:47:15Z</time>
      </trkpt>
      <trkpt lat="43.22347" lon="3.09866">
        <ele>55</ele>
        <time>2023-04-23T15:47:20Z</time>
      </trkpt>
      <trkpt lat="43.22354" lon="3.09874">
        <ele>56</ele>
        <time>2023-04-23T15:47:23Z</time>
      </trkpt>
      <trkpt lat="43.22376" lon="3.09872">
        <ele>53</ele>
        <time>2023-04-23T15:47:28Z</time>
      </trkpt>
      <trkpt lat="43.22384" lon="3.09869">
        <ele>52</ele>
        <time>2023-04-23T15:47:30Z</time>
      </trkpt>
      <trkpt lat="43.22389" lon="3.09853">
        <ele>50</ele>
        <time>2023-04-23T15:47:33Z</time>
      </trkpt>
      <trkpt lat="43.2239" lon="3.09841">
        <ele>49</ele>
        <time>2023-04-23T15:47:35Z</time>
      </trkpt>
      <trkpt lat="43.22389" lon="3.09787">
        <ele>46</ele>
        <time>2023-04-23T15:47:44Z</time>
      </trkpt>
      <trkpt lat="43.22399" lon="3.09792">
        <ele>46</ele>
        <time>2023-04-23T15:47:46Z</time>
      </trkpt>
      <trkpt lat="43.22406" lon="3.098">
        <ele>46</ele>
        <time>2023-04-23T15:47:49Z</time>
      </trkpt>
      <trkpt lat="43.22427" lon="3.0983">
        <ele>46</ele>
        <time>2023-04-23T15:47:56Z</time>
      </trkpt>
      <trkpt lat="43.22439" lon="3.09852">
        <ele>49</ele>
        <time>2023-04-23T15:48:00Z</time>
      </trkpt>
      <trkpt lat="43.22442" lon="3.09891">
        <ele>52</ele>
        <time>2023-04-23T15:48:07Z</time>
      </trkpt>
      <trkpt lat="43.22438" lon="3.09902">
        <ele>53</ele>
        <time>2023-04-23T15:48:09Z</time>
      </trkpt>
      <trkpt lat="43.22431" lon="3.09911">
        <ele>53</ele>
        <time>2023-04-23T15:48:11Z</time>
      </trkpt>
      <trkpt lat="43.22421" lon="3.09982">
        <ele>58</ele>
        <time>2023-04-23T15:48:24Z</time>
      </trkpt>
      <trkpt lat="43.22412" lon="3.10018">
        <ele>60</ele>
        <time>2023-04-23T15:48:30Z</time>
      </trkpt>
      <trkpt lat="43.22388" lon="3.10048">
        <ele>62</ele>
        <time>2023-04-23T15:48:38Z</time>
      </trkpt>
      <trkpt lat="43.22376" lon="3.1007">
        <ele>63</ele>
        <time>2023-04-23T15:48:42Z</time>
      </trkpt>
      <trkpt lat="43.22367" lon="3.10079">
        <ele>63</ele>
        <time>2023-04-23T15:48:45Z</time>
      </trkpt>
      <trkpt lat="43.2235" lon="3.10113">
        <ele>64</ele>
        <time>2023-04-23T15:48:52Z</time>
      </trkpt>
      <trkpt lat="43.22336" lon="3.10133">
        <ele>65</ele>
        <time>2023-04-23T15:48:57Z</time>
      </trkpt>
      <trkpt lat="43.22331" lon="3.10146">
        <ele>65</ele>
        <time>2023-04-23T15:48:59Z</time>
      </trkpt>
      <trkpt lat="43.22318" lon="3.10166">
        <ele>65</ele>
        <time>2023-04-23T15:49:04Z</time>
      </trkpt>
      <trkpt lat="43.22319" lon="3.10179">
        <ele>66</ele>
        <time>2023-04-23T15:49:06Z</time>
      </trkpt>
      <trkpt lat="43.22327" lon="3.10187">
        <ele>66</ele>
        <time>2023-04-23T15:49:08Z</time>
      </trkpt>
      <trkpt lat="43.22333" lon="3.10199">
        <ele>66</ele>
        <time>2023-04-23T15:49:11Z</time>
      </trkpt>
      <trkpt lat="43.22331" lon="3.10212">
        <ele>66</ele>
        <time>2023-04-23T15:49:13Z</time>
      </trkpt>
      <trkpt lat="43.22341" lon="3.10233">
        <ele>66</ele>
        <time>2023-04-23T15:49:17Z</time>
      </trkpt>
      <trkpt lat="43.2235" lon="3.10242">
        <ele>66</ele>
        <time>2023-04-23T15:49:20Z</time>
      </trkpt>
      <trkpt lat="43.2236" lon="3.10247">
        <ele>66</ele>
        <time>2023-04-23T15:49:22Z</time>
      </trkpt>
      <trkpt lat="43.22371" lon="3.10248">
        <ele>65</ele>
        <time>2023-04-23T15:49:25Z</time>
      </trkpt>
      <trkpt lat="43.22424" lon="3.1027">
        <ele>63</ele>
        <time>2023-04-23T15:49:38Z</time>
      </trkpt>
      <trkpt lat="43.22434" lon="3.10269">
        <ele>63</ele>
        <time>2023-04-23T15:49:40Z</time>
      </trkpt>
      <trkpt lat="43.22454" lon="3.10259">
        <ele>62</ele>
        <time>2023-04-23T15:49:45Z</time>
      </trkpt>
      <trkpt lat="43.22458" lon="3.10248">
        <ele>62</ele>
        <time>2023-04-23T15:49:47Z</time>
      </trkpt>
      <trkpt lat="43.22457" lon="3.10239">
        <ele>62</ele>
        <time>2023-04-23T15:49:49Z</time>
      </trkpt>
      <trkpt lat="43.22467" lon="3.10233">
        <ele>61</ele>
        <time>2023-04-23T15:49:51Z</time>
      </trkpt>
      <trkpt lat="43.22516" lon="3.10216">
        <ele>58</ele>
        <time>2023-04-23T15:50:03Z</time>
      </trkpt>
      <trkpt lat="43.2258" lon="3.10214">
        <ele>53</ele>
        <time>2023-04-23T15:50:18Z</time>
      </trkpt>
      <trkpt lat="43.22589" lon="3.10219">
        <ele>53</ele>
        <time>2023-04-23T15:50:20Z</time>
      </trkpt>
      <trkpt lat="43.22598" lon="3.10246">
        <ele>54</ele>
        <time>2023-04-23T15:50:25Z</time>
      </trkpt>
      <trkpt lat="43.22597" lon="3.10261">
        <ele>54</ele>
        <time>2023-04-23T15:50:28Z</time>
      </trkpt>
      <trkpt lat="43.22584" lon="3.10284">
        <ele>56</ele>
        <time>2023-04-23T15:50:33Z</time>
      </trkpt>
      <trkpt lat="43.22579" lon="3.10299">
        <ele>57</ele>
        <time>2023-04-23T15:50:36Z</time>
      </trkpt>
      <trkpt lat="43.22576" lon="3.10312">
        <ele>57</ele>
        <time>2023-04-23T15:50:38Z</time>
      </trkpt>
      <trkpt lat="43.22578" lon="3.10326">
        <ele>58</ele>
        <time>2023-04-23T15:50:41Z</time>
      </trkpt>
      <trkpt lat="43.22576" lon="3.10339">
        <ele>59</ele>
        <time>2023-04-23T15:50:43Z</time>
      </trkpt>
      <trkpt lat="43.22569" lon="3.1035">
        <ele>59</ele>
        <time>2023-04-23T15:50:45Z</time>
      </trkpt>
      <trkpt lat="43.22561" lon="3.10356">
        <ele>60</ele>
        <time>2023-04-23T15:50:47Z</time>
      </trkpt>
      <trkpt lat="43.22555" lon="3.10367">
        <ele>61</ele>
        <time>2023-04-23T15:50:50Z</time>
      </trkpt>
      <trkpt lat="43.22542" lon="3.10402">
        <ele>62</ele>
        <time>2023-04-23T15:50:56Z</time>
      </trkpt>
      <trkpt lat="43.22539" lon="3.10428">
        <ele>63</ele>
        <time>2023-04-23T15:51:01Z</time>
      </trkpt>
      <trkpt lat="43.22535" lon="3.1044">
        <ele>64</ele>
        <time>2023-04-23T15:51:03Z</time>
      </trkpt>
      <trkpt lat="43.22535" lon="3.10479">
        <ele>65</ele>
        <time>2023-04-23T15:51:10Z</time>
      </trkpt>
      <trkpt lat="43.22542" lon="3.10487">
        <ele>65</ele>
        <time>2023-04-23T15:51:12Z</time>
      </trkpt>
      <trkpt lat="43.22554" lon="3.10489">
        <ele>65</ele>
        <time>2023-04-23T15:51:15Z</time>
      </trkpt>
      <trkpt lat="43.22562" lon="3.10484">
        <ele>65</ele>
        <time>2023-04-23T15:51:17Z</time>
      </trkpt>
      <trkpt lat="43.2257" lon="3.10492">
        <ele>65</ele>
        <time>2023-04-23T15:51:19Z</time>
      </trkpt>
      <trkpt lat="43.2258" lon="3.10492">
        <ele>65</ele>
        <time>2023-04-23T15:51:21Z</time>
      </trkpt>
      <trkpt lat="43.226" lon="3.10479">
        <ele>63</ele>
        <time>2023-04-23T15:51:27Z</time>
      </trkpt>
      <trkpt lat="43.22646" lon="3.1046">
        <ele>62</ele>
        <time>2023-04-23T15:51:38Z</time>
      </trkpt>
      <trkpt lat="43.22676" lon="3.10441">
        <ele>60</ele>
        <time>2023-04-23T15:51:46Z</time>
      </trkpt>
      <trkpt lat="43.22686" lon="3.10442">
        <ele>60</ele>
        <time>2023-04-23T15:51:48Z</time>
      </trkpt>
      <trkpt lat="43.22712" lon="3.10467">
        <ele>57</ele>
        <time>2023-04-23T15:51:55Z</time>
      </trkpt>
      <trkpt lat="43.22717" lon="3.10478">
        <ele>57</ele>
        <time>2023-04-23T15:51:57Z</time>
      </trkpt>
      <trkpt lat="43.22729" lon="3.10472">
        <ele>56</ele>
        <time>2023-04-23T15:52:00Z</time>
      </trkpt>
      <trkpt lat="43.22738" lon="3.10479">
        <ele>55</ele>
        <time>2023-04-23T15:52:03Z</time>
      </trkpt>
      <trkpt lat="43.22744" lon="3.10512">
        <ele>55</ele>
        <time>2023-04-23T15:52:09Z</time>
      </trkpt>
      <trkpt lat="43.22767" lon="3.10556">
        <ele>54</ele>
        <time>2023-04-23T15:52:18Z</time>
      </trkpt>
      <trkpt lat="43.22776" lon="3.10563">
        <ele>54</ele>
        <time>2023-04-23T15:52:20Z</time>
      </trkpt>
      <trkpt lat="43.22786" lon="3.10587">
        <ele>54</ele>
        <time>2023-04-23T15:52:25Z</time>
      </trkpt>
      <trkpt lat="43.228" lon="3.10611">
        <ele>54</ele>
        <time>2023-04-23T15:52:30Z</time>
      </trkpt>
      <trkpt lat="43.22809" lon="3.10608">
        <ele>53</ele>
        <time>2023-04-23T15:52:32Z</time>
      </trkpt>
      <trkpt lat="43.22818" lon="3.10616">
        <ele>53</ele>
        <time>2023-04-23T15:52:35Z</time>
      </trkpt>
      <trkpt lat="43.22812" lon="3.1063">
        <ele>53</ele>
        <time>2023-04-23T15:52:38Z</time>
      </trkpt>
      <trkpt lat="43.2281" lon="3.10646">
        <ele>54</ele>
        <time>2023-04-23T15:52:40Z</time>
      </trkpt>
      <trkpt lat="43.22813" lon="3.10658">
        <ele>54</ele>
        <time>2023-04-23T15:52:43Z</time>
      </trkpt>
      <trkpt lat="43.22822" lon="3.10666">
        <ele>54</ele>
        <time>2023-04-23T15:52:45Z</time>
      </trkpt>
      <trkpt lat="43.22826" lon="3.10677">
        <ele>53</ele>
        <time>2023-04-23T15:52:47Z</time>
      </trkpt>
      <trkpt lat="43.22811" lon="3.10696">
        <ele>54</ele>
        <time>2023-04-23T15:52:52Z</time>
      </trkpt>
      <trkpt lat="43.2281" lon="3.1071">
        <ele>54</ele>
        <time>2023-04-23T15:52:54Z</time>
      </trkpt>
      <trkpt lat="43.22819" lon="3.10734">
        <ele>54</ele>
        <time>2023-04-23T15:52:59Z</time>
      </trkpt>
      <trkpt lat="43.2284" lon="3.10745">
        <ele>53</ele>
        <time>2023-04-23T15:53:04Z</time>
      </trkpt>
      <trkpt lat="43.2285" lon="3.10754">
        <ele>53</ele>
        <time>2023-04-23T15:53:07Z</time>
      </trkpt>
      <trkpt lat="43.22866" lon="3.10773">
        <ele>51</ele>
        <time>2023-04-23T15:53:12Z</time>
      </trkpt>
      <trkpt lat="43.22869" lon="3.10788">
        <ele>51</ele>
        <time>2023-04-23T15:53:15Z</time>
      </trkpt>
      <trkpt lat="43.22866" lon="3.10816">
        <ele>52</ele>
        <time>2023-04-23T15:53:19Z</time>
      </trkpt>
      <trkpt lat="43.22855" lon="3.10837">
        <ele>52</ele>
        <time>2023-04-23T15:53:24Z</time>
      </trkpt>
      <trkpt lat="43.22857" lon="3.10844">
        <ele>52</ele>
        <time>2023-04-23T15:53:25Z</time>
      </trkpt>
      <trkpt lat="43.22867" lon="3.10848">
        <ele>51</ele>
        <time>2023-04-23T15:53:27Z</time>
      </trkpt>
      <trkpt lat="43.22869" lon="3.10862">
        <ele>51</ele>
        <time>2023-04-23T15:53:30Z</time>
      </trkpt>
      <trkpt lat="43.22855" lon="3.10885">
        <ele>52</ele>
        <time>2023-04-23T15:53:35Z</time>
      </trkpt>
      <trkpt lat="43.2285" lon="3.10898">
        <ele>52</ele>
        <time>2023-04-23T15:53:38Z</time>
      </trkpt>
      <trkpt lat="43.22836" lon="3.10915">
        <ele>52</ele>
        <time>2023-04-23T15:53:42Z</time>
      </trkpt>
      <trkpt lat="43.22843" lon="3.10929">
        <ele>52</ele>
        <time>2023-04-23T15:53:45Z</time>
      </trkpt>
      <trkpt lat="43.22856" lon="3.10928">
        <ele>51</ele>
        <time>2023-04-23T15:53:48Z</time>
      </trkpt>
      <trkpt lat="43.22884" lon="3.10894">
        <ele>50</ele>
        <time>2023-04-23T15:53:57Z</time>
      </trkpt>
      <trkpt lat="43.22893" lon="3.10897">
        <ele>50</ele>
        <time>2023-04-23T15:53:59Z</time>
      </trkpt>
      <trkpt lat="43.22906" lon="3.10955">
        <ele>50</ele>
        <time>2023-04-23T15:54:09Z</time>
      </trkpt>
      <trkpt lat="43.22918" lon="3.10993">
        <ele>51</ele>
        <time>2023-04-23T15:54:16Z</time>
      </trkpt>
      <trkpt lat="43.22941" lon="3.11126">
        <ele>50</ele>
        <time>2023-04-23T15:54:39Z</time>
      </trkpt>
      <trkpt lat="43.22958" lon="3.11284">
        <ele>48</ele>
        <time>2023-04-23T15:55:07Z</time>
      </trkpt>
      <trkpt lat="43.22959" lon="3.11301">
        <ele>49</ele>
        <time>2023-04-23T15:55:09Z</time>
      </trkpt>
      <trkpt lat="43.22955" lon="3.11317">
        <ele>49</ele>
        <time>2023-04-23T15:55:12Z</time>
      </trkpt>
      <trkpt lat="43.2297" lon="3.11359">
        <ele>49</ele>
        <time>2023-04-23T15:55:20Z</time>
      </trkpt>
      <trkpt lat="43.22978" lon="3.11446">
        <ele>48</ele>
        <time>2023-04-23T15:55:35Z</time>
      </trkpt>
      <trkpt lat="43.22976" lon="3.1146">
        <ele>48</ele>
        <time>2023-04-23T15:55:38Z</time>
      </trkpt>
      <trkpt lat="43.22968" lon="3.11469">
        <ele>48</ele>
        <time>2023-04-23T15:55:40Z</time>
      </trkpt>
      <trkpt lat="43.22956" lon="3.11465">
        <ele>48</ele>
        <time>2023-04-23T15:55:43Z</time>
      </trkpt>
      <trkpt lat="43.22899" lon="3.11433">
        <ele>49</ele>
        <time>2023-04-23T15:55:57Z</time>
      </trkpt>
      <trkpt lat="43.22889" lon="3.11431">
        <ele>50</ele>
        <time>2023-04-23T15:56:00Z</time>
      </trkpt>
      <trkpt lat="43.22882" lon="3.1144">
        <ele>50</ele>
        <time>2023-04-23T15:56:02Z</time>
      </trkpt>
      <trkpt lat="43.2288" lon="3.11454">
        <ele>50</ele>
        <time>2023-04-23T15:56:04Z</time>
      </trkpt>
      <trkpt lat="43.22873" lon="3.11462">
        <ele>51</ele>
        <time>2023-04-23T15:56:06Z</time>
      </trkpt>
      <trkpt lat="43.22862" lon="3.1146">
        <ele>51</ele>
        <time>2023-04-23T15:56:09Z</time>
      </trkpt>
      <trkpt lat="43.22749" lon="3.11404">
        <ele>62</ele>
        <time>2023-04-23T15:56:37Z</time>
      </trkpt>
      <trkpt lat="43.2274" lon="3.11403">
        <ele>63</ele>
        <time>2023-04-23T15:56:39Z</time>
      </trkpt>
      <trkpt lat="43.22722" lon="3.11418">
        <ele>64</ele>
        <time>2023-04-23T15:56:44Z</time>
      </trkpt>
      <trkpt lat="43.22713" lon="3.11418">
        <ele>65</ele>
        <time>2023-04-23T15:56:46Z</time>
      </trkpt>
      <trkpt lat="43.22674" lon="3.11397">
        <ele>70</ele>
        <time>2023-04-23T15:56:56Z</time>
      </trkpt>
      <trkpt lat="43.22653" lon="3.1139">
        <ele>71</ele>
        <time>2023-04-23T15:57:01Z</time>
      </trkpt>
      <trkpt lat="43.22626" lon="3.11373">
        <ele>72</ele>
        <time>2023-04-23T15:57:08Z</time>
      </trkpt>
      <trkpt lat="43.22623" lon="3.1136">
        <ele>72</ele>
        <time>2023-04-23T15:57:10Z</time>
      </trkpt>
      <trkpt lat="43.22638" lon="3.11311">
        <ele>72</ele>
        <time>2023-04-23T15:57:19Z</time>
      </trkpt>
      <trkpt lat="43.22638" lon="3.11295">
        <ele>72</ele>
        <time>2023-04-23T15:57:22Z</time>
      </trkpt>
      <trkpt lat="43.22624" lon="3.11259">
        <ele>71</ele>
        <time>2023-04-23T15:57:29Z</time>
      </trkpt>
      <trkpt lat="43.2261" lon="3.11237">
        <ele>71</ele>
        <time>2023-04-23T15:57:34Z</time>
      </trkpt>
      <trkpt lat="43.22609" lon="3.11224">
        <ele>71</ele>
        <time>2023-04-23T15:57:36Z</time>
      </trkpt>
      <trkpt lat="43.22602" lon="3.112">
        <ele>70</ele>
        <time>2023-04-23T15:57:41Z</time>
      </trkpt>
      <trkpt lat="43.22596" lon="3.11143">
        <ele>68</ele>
        <time>2023-04-23T15:57:50Z</time>
      </trkpt>
      <trkpt lat="43.22601" lon="3.1113">
        <ele>67</ele>
        <time>2023-04-23T15:57:53Z</time>
      </trkpt>
      <trkpt lat="43.22609" lon="3.11121">
        <ele>67</ele>
        <time>2023-04-23T15:57:55Z</time>
      </trkpt>
      <trkpt lat="43.2262" lon="3.11114">
        <ele>66</ele>
        <time>2023-04-23T15:57:58Z</time>
      </trkpt>
      <trkpt lat="43.22637" lon="3.11091">
        <ele>64</ele>
        <time>2023-04-23T15:58:04Z</time>
      </trkpt>
      <trkpt lat="43.22658" lon="3.11079">
        <ele>62</ele>
        <time>2023-04-23T15:58:09Z</time>
      </trkpt>
      <trkpt lat="43.22678" lon="3.11079">
        <ele>62</ele>
        <time>2023-04-23T15:58:14Z</time>
      </trkpt>
      <trkpt lat="43.22689" lon="3.1107">
        <ele>62</ele>
        <time>2023-04-23T15:58:17Z</time>
      </trkpt>
      <trkpt lat="43.227" lon="3.11073">
        <ele>62</ele>
        <time>2023-04-23T15:58:19Z</time>
      </trkpt>
      <trkpt lat="43.22707" lon="3.11084">
        <ele>62</ele>
        <time>2023-04-23T15:58:22Z</time>
      </trkpt>
      <trkpt lat="43.22717" lon="3.11087">
        <ele>62</ele>
        <time>2023-04-23T15:58:24Z</time>
      </trkpt>
      <trkpt lat="43.22737" lon="3.11079">
        <ele>62</ele>
        <time>2023-04-23T15:58:29Z</time>
      </trkpt>
      <trkpt lat="43.22756" lon="3.11066">
        <ele>61</ele>
        <time>2023-04-23T15:58:34Z</time>
      </trkpt>
      <trkpt lat="43.22789" lon="3.11052">
        <ele>58</ele>
        <time>2023-04-23T15:58:42Z</time>
      </trkpt>
      <trkpt lat="43.22792" lon="3.11041">
        <ele>57</ele>
        <time>2023-04-23T15:58:44Z</time>
      </trkpt>
      <trkpt lat="43.228" lon="3.11028">
        <ele>56</ele>
        <time>2023-04-23T15:58:47Z</time>
      </trkpt>
      <trkpt lat="43.22809" lon="3.11022">
        <ele>55</ele>
        <time>2023-04-23T15:58:49Z</time>
      </trkpt>
      <trkpt lat="43.22821" lon="3.11002">
        <ele>54</ele>
        <time>2023-04-23T15:58:54Z</time>
      </trkpt>
      <trkpt lat="43.22815" lon="3.10991">
        <ele>54</ele>
        <time>2023-04-23T15:58:56Z</time>
      </trkpt>
      <trkpt lat="43.22812" lon="3.10978">
        <ele>54</ele>
        <time>2023-04-23T15:58:58Z</time>
      </trkpt>
      <trkpt lat="43.22803" lon="3.10972">
        <ele>54</ele>
        <time>2023-04-23T15:59:01Z</time>
      </trkpt>
      <trkpt lat="43.22763" lon="3.10978">
        <ele>57</ele>
        <time>2023-04-23T15:59:10Z</time>
      </trkpt>
      <trkpt lat="43.22754" lon="3.10971">
        <ele>57</ele>
        <time>2023-04-23T15:59:13Z</time>
      </trkpt>
      <trkpt lat="43.22744" lon="3.10969">
        <ele>58</ele>
        <time>2023-04-23T15:59:15Z</time>
      </trkpt>
      <trkpt lat="43.22727" lon="3.10979">
        <ele>59</ele>
        <time>2023-04-23T15:59:19Z</time>
      </trkpt>
      <trkpt lat="43.2272" lon="3.10971">
        <ele>59</ele>
        <time>2023-04-23T15:59:21Z</time>
      </trkpt>
      <trkpt lat="43.22718" lon="3.10957">
        <ele>59</ele>
        <time>2023-04-23T15:59:24Z</time>
      </trkpt>
      <trkpt lat="43.22722" lon="3.10944">
        <ele>59</ele>
        <time>2023-04-23T15:59:26Z</time>
      </trkpt>
      <trkpt lat="43.22715" lon="3.10917">
        <ele>60</ele>
        <time>2023-04-23T15:59:31Z</time>
      </trkpt>
      <trkpt lat="43.22688" lon="3.10935">
        <ele>61</ele>
        <time>2023-04-23T15:59:38Z</time>
      </trkpt>
      <trkpt lat="43.22688" lon="3.10947">
        <ele>61</ele>
        <time>2023-04-23T15:59:40Z</time>
      </trkpt>
      <trkpt lat="43.22684" lon="3.10959">
        <ele>61</ele>
        <time>2023-04-23T15:59:42Z</time>
      </trkpt>
      <trkpt lat="43.22665" lon="3.10973">
        <ele>62</ele>
        <time>2023-04-23T15:59:47Z</time>
      </trkpt>
      <trkpt lat="43.22662" lon="3.10987">
        <ele>62</ele>
        <time>2023-04-23T15:59:50Z</time>
      </trkpt>
      <trkpt lat="43.22662" lon="3.11004">
        <ele>62</ele>
        <time>2023-04-23T15:59:53Z</time>
      </trkpt>
      <trkpt lat="43.22666" lon="3.11016">
        <ele>62</ele>
        <time>2023-04-23T15:59:55Z</time>
      </trkpt>
      <trkpt lat="43.22662" lon="3.11031">
        <ele>62</ele>
        <time>2023-04-23T15:59:58Z</time>
      </trkpt>
      <trkpt lat="43.22652" lon="3.11037">
        <ele>63</ele>
        <time>2023-04-23T16:00:00Z</time>
      </trkpt>
      <trkpt lat="43.22623" lon="3.11038">
        <ele>65</ele>
        <time>2023-04-23T16:00:07Z</time>
      </trkpt>
      <trkpt lat="43.2262" lon="3.11037">
        <ele>65</ele>
        <time>2023-04-23T16:00:08Z</time>
      </trkpt>
      <trkpt lat="43.22625" lon="3.11008">
        <ele>65</ele>
        <time>2023-04-23T16:00:13Z</time>
      </trkpt>
      <trkpt lat="43.22633" lon="3.10999">
        <ele>64</ele>
        <time>2023-04-23T16:00:15Z</time>
      </trkpt>
      <trkpt lat="43.22637" lon="3.10988">
        <ele>64</ele>
        <time>2023-04-23T16:00:17Z</time>
      </trkpt>
      <trkpt lat="43.22629" lon="3.10948">
        <ele>64</ele>
        <time>2023-04-23T16:00:24Z</time>
      </trkpt>
      <trkpt lat="43.22619" lon="3.10948">
        <ele>65</ele>
        <time>2023-04-23T16:00:27Z</time>
      </trkpt>
      <trkpt lat="43.22608" lon="3.1097">
        <ele>66</ele>
        <time>2023-04-23T16:00:31Z</time>
      </trkpt>
      <trkpt lat="43.22597" lon="3.10976">
        <ele>67</ele>
        <time>2023-04-23T16:00:34Z</time>
      </trkpt>
      <trkpt lat="43.22588" lon="3.10976">
        <ele>67</ele>
        <time>2023-04-23T16:00:36Z</time>
      </trkpt>
      <trkpt lat="43.22562" lon="3.10998">
        <ele>68</ele>
        <time>2023-04-23T16:00:43Z</time>
      </trkpt>
      <trkpt lat="43.22555" lon="3.11009">
        <ele>68</ele>
        <time>2023-04-23T16:00:46Z</time>
      </trkpt>
      <trkpt lat="43.22551" lon="3.11033">
        <ele>67</ele>
        <time>2023-04-23T16:00:50Z</time>
      </trkpt>
      <trkpt lat="43.22545" lon="3.11044">
        <ele>67</ele>
        <time>2023-04-23T16:00:52Z</time>
      </trkpt>
      <trkpt lat="43.22535" lon="3.11048">
        <ele>67</ele>
        <time>2023-04-23T16:00:55Z</time>
      </trkpt>
      <trkpt lat="43.22516" lon="3.1105">
        <ele>67</ele>
        <time>2023-04-23T16:00:59Z</time>
      </trkpt>
      <trkpt lat="43.22497" lon="3.11081">
        <ele>66</ele>
        <time>2023-04-23T16:01:06Z</time>
      </trkpt>
      <trkpt lat="43.2248" lon="3.11096">
        <ele>67</ele>
        <time>2023-04-23T16:01:11Z</time>
      </trkpt>
      <trkpt lat="43.22471" lon="3.11108">
        <ele>68</ele>
        <time>2023-04-23T16:01:14Z</time>
      </trkpt>
      <trkpt lat="43.22463" lon="3.11102">
        <ele>68</ele>
        <time>2023-04-23T16:01:16Z</time>
      </trkpt>
      <trkpt lat="43.22459" lon="3.11087">
        <ele>68</ele>
        <time>2023-04-23T16:01:19Z</time>
      </trkpt>
      <trkpt lat="43.22459" lon="3.11055">
        <ele>69</ele>
        <time>2023-04-23T16:01:24Z</time>
      </trkpt>
      <trkpt lat="43.22451" lon="3.11049">
        <ele>69</ele>
        <time>2023-04-23T16:01:26Z</time>
      </trkpt>
      <trkpt lat="43.22441" lon="3.11046">
        <ele>69</ele>
        <time>2023-04-23T16:01:29Z</time>
      </trkpt>
      <trkpt lat="43.22428" lon="3.11068">
        <ele>70</ele>
        <time>2023-04-23T16:01:33Z</time>
      </trkpt>
      <trkpt lat="43.22418" lon="3.11061">
        <ele>70</ele>
        <time>2023-04-23T16:01:36Z</time>
      </trkpt>
      <trkpt lat="43.22413" lon="3.11072">
        <ele>71</ele>
        <time>2023-04-23T16:01:38Z</time>
      </trkpt>
      <trkpt lat="43.22414" lon="3.11085">
        <ele>71</ele>
        <time>2023-04-23T16:01:40Z</time>
      </trkpt>
      <trkpt lat="43.22409" lon="3.11118">
        <ele>71</ele>
        <time>2023-04-23T16:01:46Z</time>
      </trkpt>
      <trkpt lat="43.224" lon="3.1114">
        <ele>71</ele>
        <time>2023-04-23T16:01:50Z</time>
      </trkpt>
      <trkpt lat="43.22387" lon="3.11117">
        <ele>72</ele>
        <time>2023-04-23T16:01:55Z</time>
      </trkpt>
      <trkpt lat="43.22376" lon="3.11079">
        <ele>72</ele>
        <time>2023-04-23T16:02:02Z</time>
      </trkpt>
      <trkpt lat="43.22366" lon="3.11069">
        <ele>73</ele>
        <time>2023-04-23T16:02:05Z</time>
      </trkpt>
      <trkpt lat="43.22354" lon="3.1105">
        <ele>73</ele>
        <time>2023-04-23T16:02:10Z</time>
      </trkpt>
      <trkpt lat="43.22337" lon="3.11017">
        <ele>74</ele>
        <time>2023-04-23T16:02:16Z</time>
      </trkpt>
      <trkpt lat="43.2233" lon="3.1101">
        <ele>74</ele>
        <time>2023-04-23T16:02:18Z</time>
      </trkpt>
      <trkpt lat="43.22311" lon="3.10998">
        <ele>75</ele>
        <time>2023-04-23T16:02:23Z</time>
      </trkpt>
      <trkpt lat="43.22312" lon="3.10969">
        <ele>75</ele>
        <time>2023-04-23T16:02:28Z</time>
      </trkpt>
      <trkpt lat="43.22319" lon="3.10939">
        <ele>75</ele>
        <time>2023-04-23T16:02:34Z</time>
      </trkpt>
      <trkpt lat="43.22328" lon="3.10933">
        <ele>74</ele>
        <time>2023-04-23T16:02:36Z</time>
      </trkpt>
      <trkpt lat="43.22334" lon="3.10923">
        <ele>74</ele>
        <time>2023-04-23T16:02:38Z</time>
      </trkpt>
      <trkpt lat="43.22338" lon="3.10896">
        <ele>73</ele>
        <time>2023-04-23T16:02:43Z</time>
      </trkpt>
      <trkpt lat="43.2235" lon="3.10873">
        <ele>72</ele>
        <time>2023-04-23T16:02:48Z</time>
      </trkpt>
      <trkpt lat="43.22353" lon="3.10858">
        <ele>72</ele>
        <time>2023-04-23T16:02:50Z</time>
      </trkpt>
      <trkpt lat="43.2235" lon="3.10812">
        <ele>72</ele>
        <time>2023-04-23T16:02:58Z</time>
      </trkpt>
      <trkpt lat="43.2234" lon="3.10786">
        <ele>72</ele>
        <time>2023-04-23T16:03:03Z</time>
      </trkpt>
      <trkpt lat="43.22322" lon="3.10768">
        <ele>73</ele>
        <time>2023-04-23T16:03:08Z</time>
      </trkpt>
      <trkpt lat="43.22275" lon="3.10768">
        <ele>73</ele>
        <time>2023-04-23T16:03:19Z</time>
      </trkpt>
      <trkpt lat="43.22251" lon="3.10763">
        <ele>72</ele>
        <time>2023-04-23T16:03:25Z</time>
      </trkpt>
      <trkpt lat="43.22213" lon="3.10759">
        <ele>74</ele>
        <time>2023-04-23T16:03:34Z</time>
      </trkpt>
      <trkpt lat="43.22211" lon="3.10757">
        <ele>74</ele>
        <time>2023-04-23T16:03:34Z</time>
      </trkpt>
      <trkpt lat="43.22216" lon="3.10746">
        <ele>74</ele>
        <time>2023-04-23T16:03:37Z</time>
      </trkpt>
      <trkpt lat="43.22213" lon="3.10734">
        <ele>74</ele>
        <time>2023-04-23T16:03:39Z</time>
      </trkpt>
      <trkpt lat="43.22214" lon="3.10691">
        <ele>75</ele>
        <time>2023-04-23T16:03:46Z</time>
      </trkpt>
      <trkpt lat="43.22205" lon="3.10665">
        <ele>75</ele>
        <time>2023-04-23T16:03:51Z</time>
      </trkpt>
      <trkpt lat="43.22214" lon="3.10661">
        <ele>75</ele>
        <time>2023-04-23T16:03:53Z</time>
      </trkpt>
      <trkpt lat="43.22221" lon="3.1065">
        <ele>75</ele>
        <time>2023-04-23T16:03:56Z</time>
      </trkpt>
      <trkpt lat="43.2223" lon="3.10622">
        <ele>75</ele>
        <time>2023-04-23T16:04:01Z</time>
      </trkpt>
      <trkpt lat="43.22233" lon="3.10577">
        <ele>75</ele>
        <time>2023-04-23T16:04:09Z</time>
      </trkpt>
      <trkpt lat="43.22244" lon="3.1055">
        <ele>73</ele>
        <time>2023-04-23T16:04:14Z</time>
      </trkpt>
      <trkpt lat="43.22262" lon="3.1053">
        <ele>72</ele>
        <time>2023-04-23T16:04:19Z</time>
      </trkpt>
      <trkpt lat="43.22273" lon="3.10527">
        <ele>72</ele>
        <time>2023-04-23T16:04:22Z</time>
      </trkpt>
      <trkpt lat="43.22282" lon="3.10533">
        <ele>72</ele>
        <time>2023-04-23T16:04:24Z</time>
      </trkpt>
      <trkpt lat="43.22315" lon="3.10537">
        <ele>72</ele>
        <time>2023-04-23T16:04:32Z</time>
      </trkpt>
      <trkpt lat="43.22325" lon="3.10541">
        <ele>73</ele>
        <time>2023-04-23T16:04:34Z</time>
      </trkpt>
      <trkpt lat="43.22327" lon="3.10553">
        <ele>73</ele>
        <time>2023-04-23T16:04:37Z</time>
      </trkpt>
      <trkpt lat="43.22349" lon="3.10598">
        <ele>74</ele>
        <time>2023-04-23T16:04:46Z</time>
      </trkpt>
      <trkpt lat="43.22365" lon="3.10614">
        <ele>73</ele>
        <time>2023-04-23T16:04:50Z</time>
      </trkpt>
      <trkpt lat="43.22359" lon="3.10637">
        <ele>73</ele>
        <time>2023-04-23T16:04:55Z</time>
      </trkpt>
      <trkpt lat="43.22353" lon="3.10741">
        <ele>72</ele>
        <time>2023-04-23T16:05:12Z</time>
      </trkpt>
      <trkpt lat="43.22356" lon="3.10758">
        <ele>72</ele>
        <time>2023-04-23T16:05:15Z</time>
      </trkpt>
      <trkpt lat="43.22409" lon="3.10753">
        <ele>70</ele>
        <time>2023-04-23T16:05:28Z</time>
      </trkpt>
      <trkpt lat="43.22433" lon="3.10754">
        <ele>70</ele>
        <time>2023-04-23T16:05:33Z</time>
      </trkpt>
      <trkpt lat="43.22446" lon="3.10757">
        <ele>69</ele>
        <time>2023-04-23T16:05:36Z</time>
      </trkpt>
      <trkpt lat="43.22471" lon="3.10771">
        <ele>68</ele>
        <time>2023-04-23T16:05:43Z</time>
      </trkpt>
      <trkpt lat="43.22483" lon="3.10773">
        <ele>68</ele>
        <time>2023-04-23T16:05:45Z</time>
      </trkpt>
      <trkpt lat="43.22493" lon="3.10769">
        <ele>68</ele>
        <time>2023-04-23T16:05:48Z</time>
      </trkpt>
      <trkpt lat="43.22509" lon="3.10749">
        <ele>68</ele>
        <time>2023-04-23T16:05:53Z</time>
      </trkpt>
      <trkpt lat="43.22511" lon="3.10735">
        <ele>68</ele>
        <time>2023-04-23T16:05:55Z</time>
      </trkpt>
      <trkpt lat="43.22508" lon="3.10721">
        <ele>68</ele>
        <time>2023-04-23T16:05:58Z</time>
      </trkpt>
      <trkpt lat="43.22509" lon="3.10693">
        <ele>68</ele>
        <time>2023-04-23T16:06:03Z</time>
      </trkpt>
      <trkpt lat="43.22535" lon="3.10671">
        <ele>68</ele>
        <time>2023-04-23T16:06:10Z</time>
      </trkpt>
      <trkpt lat="43.22536" lon="3.10657">
        <ele>68</ele>
        <time>2023-04-23T16:06:12Z</time>
      </trkpt>
      <trkpt lat="43.22541" lon="3.10648">
        <ele>67</ele>
        <time>2023-04-23T16:06:14Z</time>
      </trkpt>
      <trkpt lat="43.22551" lon="3.10643">
        <ele>67</ele>
        <time>2023-04-23T16:06:17Z</time>
      </trkpt>
      <trkpt lat="43.22555" lon="3.10631">
        <ele>67</ele>
        <time>2023-04-23T16:06:19Z</time>
      </trkpt>
      <trkpt lat="43.22559" lon="3.10601">
        <ele>67</ele>
        <time>2023-04-23T16:06:24Z</time>
      </trkpt>
      <trkpt lat="43.22556" lon="3.10511">
        <ele>66</ele>
        <time>2023-04-23T16:06:39Z</time>
      </trkpt>
      <trkpt lat="43.22547" lon="3.10505">
        <ele>66</ele>
        <time>2023-04-23T16:06:42Z</time>
      </trkpt>
      <trkpt lat="43.22536" lon="3.10509">
        <ele>66</ele>
        <time>2023-04-23T16:06:44Z</time>
      </trkpt>
      <trkpt lat="43.22488" lon="3.10536">
        <ele>68</ele>
        <time>2023-04-23T16:06:56Z</time>
      </trkpt>
      <trkpt lat="43.22479" lon="3.10536">
        <ele>68</ele>
        <time>2023-04-23T16:06:59Z</time>
      </trkpt>
      <trkpt lat="43.22448" lon="3.10546">
        <ele>70</ele>
        <time>2023-04-23T16:07:06Z</time>
      </trkpt>
      <trkpt lat="43.22396" lon="3.10554">
        <ele>72</ele>
        <time>2023-04-23T16:07:18Z</time>
      </trkpt>
      <trkpt lat="43.22393" lon="3.10541">
        <ele>71</ele>
        <time>2023-04-23T16:07:21Z</time>
      </trkpt>
      <trkpt lat="43.224" lon="3.10532">
        <ele>71</ele>
        <time>2023-04-23T16:07:23Z</time>
      </trkpt>
      <trkpt lat="43.2242" lon="3.10477">
        <ele>69</ele>
        <time>2023-04-23T16:07:33Z</time>
      </trkpt>
      <trkpt lat="43.22431" lon="3.10471">
        <ele>68</ele>
        <time>2023-04-23T16:07:36Z</time>
      </trkpt>
      <trkpt lat="43.22453" lon="3.10476">
        <ele>68</ele>
        <time>2023-04-23T16:07:41Z</time>
      </trkpt>
      <trkpt lat="43.22464" lon="3.10474">
        <ele>68</ele>
        <time>2023-04-23T16:07:44Z</time>
      </trkpt>
      <trkpt lat="43.22499" lon="3.10481">
        <ele>67</ele>
        <time>2023-04-23T16:07:52Z</time>
      </trkpt>
      <trkpt lat="43.22508" lon="3.10469">
        <ele>66</ele>
        <time>2023-04-23T16:07:55Z</time>
      </trkpt>
      <trkpt lat="43.22519" lon="3.10442">
        <ele>65</ele>
        <time>2023-04-23T16:08:00Z</time>
      </trkpt>
      <trkpt lat="43.22518" lon="3.10392">
        <ele>63</ele>
        <time>2023-04-23T16:08:09Z</time>
      </trkpt>
      <trkpt lat="43.22511" lon="3.10379">
        <ele>63</ele>
        <time>2023-04-23T16:08:12Z</time>
      </trkpt>
      <trkpt lat="43.22507" lon="3.10365">
        <ele>63</ele>
        <time>2023-04-23T16:08:14Z</time>
      </trkpt>
      <trkpt lat="43.22497" lon="3.10363">
        <ele>64</ele>
        <time>2023-04-23T16:08:16Z</time>
      </trkpt>
      <trkpt lat="43.2249" lon="3.10353">
        <ele>64</ele>
        <time>2023-04-23T16:08:19Z</time>
      </trkpt>
      <trkpt lat="43.22471" lon="3.10338">
        <ele>63</ele>
        <time>2023-04-23T16:08:24Z</time>
      </trkpt>
      <trkpt lat="43.2245" lon="3.10332">
        <ele>64</ele>
        <time>2023-04-23T16:08:29Z</time>
      </trkpt>
      <trkpt lat="43.22431" lon="3.10322">
        <ele>64</ele>
        <time>2023-04-23T16:08:34Z</time>
      </trkpt>
      <trkpt lat="43.2242" lon="3.10319">
        <ele>64</ele>
        <time>2023-04-23T16:08:36Z</time>
      </trkpt>
      <trkpt lat="43.22387" lon="3.10316">
        <ele>65</ele>
        <time>2023-04-23T16:08:44Z</time>
      </trkpt>
      <trkpt lat="43.22374" lon="3.10312">
        <ele>65</ele>
        <time>2023-04-23T16:08:47Z</time>
      </trkpt>
      <trkpt lat="43.22336" lon="3.1028">
        <ele>67</ele>
        <time>2023-04-23T16:08:58Z</time>
      </trkpt>
      <trkpt lat="43.22317" lon="3.10271">
        <ele>67</ele>
        <time>2023-04-23T16:09:02Z</time>
      </trkpt>
      <trkpt lat="43.22296" lon="3.10263">
        <ele>68</ele>
        <time>2023-04-23T16:09:07Z</time>
      </trkpt>
      <trkpt lat="43.22256" lon="3.10388">
        <ele>69</ele>
        <time>2023-04-23T16:09:31Z</time>
      </trkpt>
      <trkpt lat="43.22235" lon="3.10387">
        <ele>69</ele>
        <time>2023-04-23T16:09:35Z</time>
      </trkpt>
      <trkpt lat="43.22227" lon="3.10377">
        <ele>68</ele>
        <time>2023-04-23T16:09:38Z</time>
      </trkpt>
      <trkpt lat="43.22225" lon="3.10362">
        <ele>68</ele>
        <time>2023-04-23T16:09:41Z</time>
      </trkpt>
      <trkpt lat="43.22253" lon="3.10242">
        <ele>69</ele>
        <time>2023-04-23T16:10:02Z</time>
      </trkpt>
      <trkpt lat="43.22249" lon="3.10229">
        <ele>68</ele>
        <time>2023-04-23T16:10:04Z</time>
      </trkpt>
      <trkpt lat="43.22197" lon="3.10205">
        <ele>63</ele>
        <time>2023-04-23T16:10:17Z</time>
      </trkpt>
      <trkpt lat="43.22188" lon="3.10197">
        <ele>63</ele>
        <time>2023-04-23T16:10:20Z</time>
      </trkpt>
      <trkpt lat="43.22185" lon="3.10183">
        <ele>62</ele>
        <time>2023-04-23T16:10:22Z</time>
      </trkpt>
      <trkpt lat="43.22199" lon="3.10112">
        <ele>60</ele>
        <time>2023-04-23T16:10:35Z</time>
      </trkpt>
      <trkpt lat="43.22211" lon="3.10023">
        <ele>58</ele>
        <time>2023-04-23T16:10:50Z</time>
      </trkpt>
      <trkpt lat="43.2222" lon="3.09997">
        <ele>59</ele>
        <time>2023-04-23T16:10:55Z</time>
      </trkpt>
      <trkpt lat="43.22211" lon="3.09968">
        <ele>57</ele>
        <time>2023-04-23T16:11:00Z</time>
      </trkpt>
      <trkpt lat="43.22212" lon="3.09881">
        <ele>53</ele>
        <time>2023-04-23T16:11:15Z</time>
      </trkpt>
      <trkpt lat="43.22214" lon="3.09868">
        <ele>52</ele>
        <time>2023-04-23T16:11:17Z</time>
      </trkpt>
      <trkpt lat="43.2221" lon="3.09853">
        <ele>51</ele>
        <time>2023-04-23T16:11:20Z</time>
      </trkpt>
      <trkpt lat="43.222" lon="3.09855">
        <ele>50</ele>
        <time>2023-04-23T16:11:23Z</time>
      </trkpt>
      <trkpt lat="43.22182" lon="3.09892">
        <ele>51</ele>
        <time>2023-04-23T16:11:30Z</time>
      </trkpt>
      <trkpt lat="43.22173" lon="3.09886">
        <ele>49</ele>
        <time>2023-04-23T16:11:32Z</time>
      </trkpt>
      <trkpt lat="43.22165" lon="3.09861">
        <ele>47</ele>
        <time>2023-04-23T16:11:37Z</time>
      </trkpt>
      <trkpt lat="43.22161" lon="3.09817">
        <ele>44</ele>
        <time>2023-04-23T16:11:45Z</time>
      </trkpt>
      <trkpt lat="43.22168" lon="3.09794">
        <ele>43</ele>
        <time>2023-04-23T16:11:49Z</time>
      </trkpt>
      <trkpt lat="43.22169" lon="3.0978">
        <ele>43</ele>
        <time>2023-04-23T16:11:51Z</time>
      </trkpt>
      <trkpt lat="43.22152" lon="3.09765">
        <ele>42</ele>
        <time>2023-04-23T16:11:56Z</time>
      </trkpt>
      <trkpt lat="43.22151" lon="3.0975">
        <ele>42</ele>
        <time>2023-04-23T16:11:59Z</time>
      </trkpt>
      <trkpt lat="43.22137" lon="3.09731">
        <ele>41</ele>
        <time>2023-04-23T16:12:03Z</time>
      </trkpt>
      <trkpt lat="43.22125" lon="3.09725">
        <ele>41</ele>
        <time>2023-04-23T16:12:06Z</time>
      </trkpt>
      <trkpt lat="43.22117" lon="3.0973">
        <ele>42</ele>
        <time>2023-04-23T16:12:08Z</time>
      </trkpt>
      <trkpt lat="43.22111" lon="3.0974">
        <ele>43</ele>
        <time>2023-04-23T16:12:10Z</time>
      </trkpt>
      <trkpt lat="43.221" lon="3.09744">
        <ele>43</ele>
        <time>2023-04-23T16:12:13Z</time>
      </trkpt>
      <trkpt lat="43.22078" lon="3.09745">
        <ele>44</ele>
        <time>2023-04-23T16:12:18Z</time>
      </trkpt>
      <trkpt lat="43.22071" lon="3.09755">
        <ele>45</ele>
        <time>2023-04-23T16:12:21Z</time>
      </trkpt>
      <trkpt lat="43.22067" lon="3.09768">
        <ele>46</ele>
        <time>2023-04-23T16:12:23Z</time>
      </trkpt>
      <trkpt lat="43.22069" lon="3.0978">
        <ele>46</ele>
        <time>2023-04-23T16:12:25Z</time>
      </trkpt>
      <trkpt lat="43.22074" lon="3.09791">
        <ele>47</ele>
        <time>2023-04-23T16:12:27Z</time>
      </trkpt>
      <trkpt lat="43.22085" lon="3.09798">
        <ele>47</ele>
        <time>2023-04-23T16:12:30Z</time>
      </trkpt>
      <trkpt lat="43.22091" lon="3.09811">
        <ele>47</ele>
        <time>2023-04-23T16:12:33Z</time>
      </trkpt>
      <trkpt lat="43.22108" lon="3.0983">
        <ele>48</ele>
        <time>2023-04-23T16:12:38Z</time>
      </trkpt>
      <trkpt lat="43.2211" lon="3.09844">
        <ele>49</ele>
        <time>2023-04-23T16:12:40Z</time>
      </trkpt>
      <trkpt lat="43.22131" lon="3.09853">
        <ele>48</ele>
        <time>2023-04-23T16:12:45Z</time>
      </trkpt>
      <trkpt lat="43.22145" lon="3.09878">
        <ele>49</ele>
        <time>2023-04-23T16:12:51Z</time>
      </trkpt>
      <trkpt lat="43.22117" lon="3.09987">
        <ele>55</ele>
        <time>2023-04-23T16:13:10Z</time>
      </trkpt>
      <trkpt lat="43.22097" lon="3.09997">
        <ele>56</ele>
        <time>2023-04-23T16:13:15Z</time>
      </trkpt>
      <trkpt lat="43.22092" lon="3.1001">
        <ele>57</ele>
        <time>2023-04-23T16:13:18Z</time>
      </trkpt>
      <trkpt lat="43.22084" lon="3.10018">
        <ele>58</ele>
        <time>2023-04-23T16:13:20Z</time>
      </trkpt>
      <trkpt lat="43.22073" lon="3.10016">
        <ele>58</ele>
        <time>2023-04-23T16:13:23Z</time>
      </trkpt>
      <trkpt lat="43.22053" lon="3.1002">
        <ele>59</ele>
        <time>2023-04-23T16:13:28Z</time>
      </trkpt>
      <trkpt lat="43.22043" lon="3.10019">
        <ele>59</ele>
        <time>2023-04-23T16:13:30Z</time>
      </trkpt>
      <trkpt lat="43.22035" lon="3.10026">
        <ele>59</ele>
        <time>2023-04-23T16:13:32Z</time>
      </trkpt>
      <trkpt lat="43.22033" lon="3.10039">
        <ele>60</ele>
        <time>2023-04-23T16:13:34Z</time>
      </trkpt>
      <trkpt lat="43.22035" lon="3.10055">
        <ele>60</ele>
        <time>2023-04-23T16:13:37Z</time>
      </trkpt>
      <trkpt lat="43.22042" lon="3.10068">
        <ele>61</ele>
        <time>2023-04-23T16:13:40Z</time>
      </trkpt>
      <trkpt lat="43.22063" lon="3.10058">
        <ele>60</ele>
        <time>2023-04-23T16:13:45Z</time>
      </trkpt>
      <trkpt lat="43.22072" lon="3.1006">
        <ele>59</ele>
        <time>2023-04-23T16:13:47Z</time>
      </trkpt>
      <trkpt lat="43.22082" lon="3.10064">
        <ele>59</ele>
        <time>2023-04-23T16:13:50Z</time>
      </trkpt>
      <trkpt lat="43.22088" lon="3.10074">
        <ele>59</ele>
        <time>2023-04-23T16:13:52Z</time>
      </trkpt>
      <trkpt lat="43.2209" lon="3.10087">
        <ele>60</ele>
        <time>2023-04-23T16:13:54Z</time>
      </trkpt>
      <trkpt lat="43.22079" lon="3.10206">
        <ele>66</ele>
        <time>2023-04-23T16:14:15Z</time>
      </trkpt>
      <trkpt lat="43.22079" lon="3.10249">
        <ele>66</ele>
        <time>2023-04-23T16:14:22Z</time>
      </trkpt>
      <trkpt lat="43.22074" lon="3.1029">
        <ele>69</ele>
        <time>2023-04-23T16:14:29Z</time>
      </trkpt>
      <trkpt lat="43.22073" lon="3.10331">
        <ele>71</ele>
        <time>2023-04-23T16:14:36Z</time>
      </trkpt>
      <trkpt lat="43.22065" lon="3.10401">
        <ele>75</ele>
        <time>2023-04-23T16:14:48Z</time>
      </trkpt>
      <trkpt lat="43.22069" lon="3.10428">
        <ele>75</ele>
        <time>2023-04-23T16:14:53Z</time>
      </trkpt>
      <trkpt lat="43.22059" lon="3.10478">
        <ele>77</ele>
        <time>2023-04-23T16:15:01Z</time>
      </trkpt>
      <trkpt lat="43.22059" lon="3.10507">
        <ele>78</ele>
        <time>2023-04-23T16:15:06Z</time>
      </trkpt>
      <trkpt lat="43.22056" lon="3.1052">
        <ele>78</ele>
        <time>2023-04-23T16:15:09Z</time>
      </trkpt>
      <trkpt lat="43.22053" lon="3.10562">
        <ele>79</ele>
        <time>2023-04-23T16:15:16Z</time>
      </trkpt>
      <trkpt lat="43.22051" lon="3.10575">
        <ele>79</ele>
        <time>2023-04-23T16:15:18Z</time>
      </trkpt>
      <trkpt lat="43.22045" lon="3.10586">
        <ele>79</ele>
        <time>2023-04-23T16:15:20Z</time>
      </trkpt>
      <trkpt lat="43.22056" lon="3.10615">
        <ele>78</ele>
        <time>2023-04-23T16:15:26Z</time>
      </trkpt>
      <trkpt lat="43.22059" lon="3.10632">
        <ele>78</ele>
        <time>2023-04-23T16:15:29Z</time>
      </trkpt>
      <trkpt lat="43.22046" lon="3.10677">
        <ele>79</ele>
        <time>2023-04-23T16:15:37Z</time>
      </trkpt>
      <trkpt lat="43.22035" lon="3.10701">
        <ele>79</ele>
        <time>2023-04-23T16:15:42Z</time>
      </trkpt>
      <trkpt lat="43.22033" lon="3.10714">
        <ele>80</ele>
        <time>2023-04-23T16:15:44Z</time>
      </trkpt>
      <trkpt lat="43.22042" lon="3.10723">
        <ele>79</ele>
        <time>2023-04-23T16:15:47Z</time>
      </trkpt>
      <trkpt lat="43.22049" lon="3.10735">
        <ele>78</ele>
        <time>2023-04-23T16:15:50Z</time>
      </trkpt>
      <trkpt lat="43.22054" lon="3.10749">
        <ele>78</ele>
        <time>2023-04-23T16:15:52Z</time>
      </trkpt>
      <trkpt lat="43.22056" lon="3.10765">
        <ele>78</ele>
        <time>2023-04-23T16:15:55Z</time>
      </trkpt>
      <trkpt lat="43.22062" lon="3.10776">
        <ele>78</ele>
        <time>2023-04-23T16:15:57Z</time>
      </trkpt>
      <trkpt lat="43.22081" lon="3.10773">
        <ele>76</ele>
        <time>2023-04-23T16:16:02Z</time>
      </trkpt>
      <trkpt lat="43.22093" lon="3.10778">
        <ele>76</ele>
        <time>2023-04-23T16:16:05Z</time>
      </trkpt>
      <trkpt lat="43.22098" lon="3.10778">
        <ele>77</ele>
        <time>2023-04-23T16:16:57Z</time>
      </trkpt>
      <trkpt lat="43.22096" lon="3.10791">
        <ele>77</ele>
        <time>2023-04-23T16:17:00Z</time>
      </trkpt>
      <trkpt lat="43.22101" lon="3.10838">
        <ele>78</ele>
        <time>2023-04-23T16:17:08Z</time>
      </trkpt>
      <trkpt lat="43.22095" lon="3.10882">
        <ele>78</ele>
        <time>2023-04-23T16:17:15Z</time>
      </trkpt>
      <trkpt lat="43.22097" lon="3.10907">
        <ele>79</ele>
        <time>2023-04-23T16:17:20Z</time>
      </trkpt>
      <trkpt lat="43.22095" lon="3.1092">
        <ele>79</ele>
        <time>2023-04-23T16:17:22Z</time>
      </trkpt>
      <trkpt lat="43.22082" lon="3.10959">
        <ele>81</ele>
        <time>2023-04-23T16:17:29Z</time>
      </trkpt>
      <trkpt lat="43.22089" lon="3.10985">
        <ele>82</ele>
        <time>2023-04-23T16:17:34Z</time>
      </trkpt>
      <trkpt lat="43.2208" lon="3.11026">
        <ele>83</ele>
        <time>2023-04-23T16:17:41Z</time>
      </trkpt>
      <trkpt lat="43.22099" lon="3.11058">
        <ele>81</ele>
        <time>2023-04-23T16:17:48Z</time>
      </trkpt>
      <trkpt lat="43.22111" lon="3.11067">
        <ele>81</ele>
        <time>2023-04-23T16:17:51Z</time>
      </trkpt>
      <trkpt lat="43.22128" lon="3.11086">
        <ele>80</ele>
        <time>2023-04-23T16:17:57Z</time>
      </trkpt>
      <trkpt lat="43.22157" lon="3.11106">
        <ele>78</ele>
        <time>2023-04-23T16:18:04Z</time>
      </trkpt>
      <trkpt lat="43.22204" lon="3.1117">
        <ele>76</ele>
        <time>2023-04-23T16:18:20Z</time>
      </trkpt>
      <trkpt lat="43.22214" lon="3.11175">
        <ele>76</ele>
        <time>2023-04-23T16:18:22Z</time>
      </trkpt>
      <trkpt lat="43.22225" lon="3.11132">
        <ele>76</ele>
        <time>2023-04-23T16:18:30Z</time>
      </trkpt>
      <trkpt lat="43.22236" lon="3.11126">
        <ele>76</ele>
        <time>2023-04-23T16:18:33Z</time>
      </trkpt>
      <trkpt lat="43.22246" lon="3.11131">
        <ele>76</ele>
        <time>2023-04-23T16:18:35Z</time>
      </trkpt>
      <trkpt lat="43.22265" lon="3.11157">
        <ele>75</ele>
        <time>2023-04-23T16:18:41Z</time>
      </trkpt>
      <trkpt lat="43.22275" lon="3.11179">
        <ele>75</ele>
        <time>2023-04-23T16:18:46Z</time>
      </trkpt>
      <trkpt lat="43.22285" lon="3.11191">
        <ele>75</ele>
        <time>2023-04-23T16:18:49Z</time>
      </trkpt>
      <trkpt lat="43.22293" lon="3.11215">
        <ele>75</ele>
        <time>2023-04-23T16:18:53Z</time>
      </trkpt>
      <trkpt lat="43.22292" lon="3.1123">
        <ele>75</ele>
        <time>2023-04-23T16:18:56Z</time>
      </trkpt>
      <trkpt lat="43.22288" lon="3.11242">
        <ele>75</ele>
        <time>2023-04-23T16:18:58Z</time>
      </trkpt>
      <trkpt lat="43.22298" lon="3.1132">
        <ele>76</ele>
        <time>2023-04-23T16:19:12Z</time>
      </trkpt>
      <trkpt lat="43.22305" lon="3.11328">
        <ele>76</ele>
        <time>2023-04-23T16:19:14Z</time>
      </trkpt>
      <trkpt lat="43.22316" lon="3.11333">
        <ele>77</ele>
        <time>2023-04-23T16:19:17Z</time>
      </trkpt>
      <trkpt lat="43.22319" lon="3.11349">
        <ele>77</ele>
        <time>2023-04-23T16:19:19Z</time>
      </trkpt>
      <trkpt lat="43.2232" lon="3.11393">
        <ele>77</ele>
        <time>2023-04-23T16:19:27Z</time>
      </trkpt>
      <trkpt lat="43.22331" lon="3.11447">
        <ele>76</ele>
        <time>2023-04-23T16:19:36Z</time>
      </trkpt>
      <trkpt lat="43.22331" lon="3.11462">
        <ele>76</ele>
        <time>2023-04-23T16:19:39Z</time>
      </trkpt>
      <trkpt lat="43.22321" lon="3.11471">
        <ele>76</ele>
        <time>2023-04-23T16:19:42Z</time>
      </trkpt>
      <trkpt lat="43.22284" lon="3.11493">
        <ele>75</ele>
        <time>2023-04-23T16:19:51Z</time>
      </trkpt>
      <trkpt lat="43.22238" lon="3.11514">
        <ele>75</ele>
        <time>2023-04-23T16:20:02Z</time>
      </trkpt>
      <trkpt lat="43.22228" lon="3.11515">
        <ele>76</ele>
        <time>2023-04-23T16:20:05Z</time>
      </trkpt>
      <trkpt lat="43.22217" lon="3.11509">
        <ele>76</ele>
        <time>2023-04-23T16:20:08Z</time>
      </trkpt>
      <trkpt lat="43.22203" lon="3.11493">
        <ele>77</ele>
        <time>2023-04-23T16:20:12Z</time>
      </trkpt>
      <trkpt lat="43.22185" lon="3.11481">
        <ele>78</ele>
        <time>2023-04-23T16:20:17Z</time>
      </trkpt>
      <trkpt lat="43.22176" lon="3.1148">
        <ele>79</ele>
        <time>2023-04-23T16:20:19Z</time>
      </trkpt>
      <trkpt lat="43.22155" lon="3.11491">
        <ele>80</ele>
        <time>2023-04-23T16:20:24Z</time>
      </trkpt>
      <trkpt lat="43.22146" lon="3.11499">
        <ele>80</ele>
        <time>2023-04-23T16:20:26Z</time>
      </trkpt>
      <trkpt lat="43.22132" lon="3.1152">
        <ele>81</ele>
        <time>2023-04-23T16:20:31Z</time>
      </trkpt>
      <trkpt lat="43.22124" lon="3.11528">
        <ele>81</ele>
        <time>2023-04-23T16:20:34Z</time>
      </trkpt>
      <trkpt lat="43.22115" lon="3.11584">
        <ele>83</ele>
        <time>2023-04-23T16:20:43Z</time>
      </trkpt>
      <trkpt lat="43.22095" lon="3.11594">
        <ele>83</ele>
        <time>2023-04-23T16:20:48Z</time>
      </trkpt>
      <trkpt lat="43.22087" lon="3.1162">
        <ele>83</ele>
        <time>2023-04-23T16:20:53Z</time>
      </trkpt>
      <trkpt lat="43.2208" lon="3.1163">
        <ele>82</ele>
        <time>2023-04-23T16:20:55Z</time>
      </trkpt>
      <trkpt lat="43.22067" lon="3.11632">
        <ele>80</ele>
        <time>2023-04-23T16:20:58Z</time>
      </trkpt>
      <trkpt lat="43.22058" lon="3.11639">
        <ele>79</ele>
        <time>2023-04-23T16:21:01Z</time>
      </trkpt>
      <trkpt lat="43.22042" lon="3.11662">
        <ele>76</ele>
        <time>2023-04-23T16:21:06Z</time>
      </trkpt>
      <trkpt lat="43.22033" lon="3.11685">
        <ele>73</ele>
        <time>2023-04-23T16:21:11Z</time>
      </trkpt>
      <trkpt lat="43.22018" lon="3.1171">
        <ele>70</ele>
        <time>2023-04-23T16:21:16Z</time>
      </trkpt>
      <trkpt lat="43.22015" lon="3.11726">
        <ele>69</ele>
        <time>2023-04-23T16:21:19Z</time>
      </trkpt>
      <trkpt lat="43.22008" lon="3.11739">
        <ele>68</ele>
        <time>2023-04-23T16:21:22Z</time>
      </trkpt>
      <trkpt lat="43.21994" lon="3.11736">
        <ele>67</ele>
        <time>2023-04-23T16:21:25Z</time>
      </trkpt>
      <trkpt lat="43.21981" lon="3.11741">
        <ele>66</ele>
        <time>2023-04-23T16:21:28Z</time>
      </trkpt>
      <trkpt lat="43.21969" lon="3.11738">
        <ele>65</ele>
        <time>2023-04-23T16:21:31Z</time>
      </trkpt>
      <trkpt lat="43.21961" lon="3.11724">
        <ele>64</ele>
        <time>2023-04-23T16:21:34Z</time>
      </trkpt>
      <trkpt lat="43.21952" lon="3.11716">
        <ele>64</ele>
        <time>2023-04-23T16:21:37Z</time>
      </trkpt>
      <trkpt lat="43.21946" lon="3.11706">
        <ele>63</ele>
        <time>2023-04-23T16:21:39Z</time>
      </trkpt>
      <trkpt lat="43.21946" lon="3.11691">
        <ele>64</ele>
        <time>2023-04-23T16:21:41Z</time>
      </trkpt>
      <trkpt lat="43.21949" lon="3.11676">
        <ele>64</ele>
        <time>2023-04-23T16:21:44Z</time>
      </trkpt>
      <trkpt lat="43.21958" lon="3.11666">
        <ele>65</ele>
        <time>2023-04-23T16:21:47Z</time>
      </trkpt>
      <trkpt lat="43.21963" lon="3.11652">
        <ele>66</ele>
        <time>2023-04-23T16:21:49Z</time>
      </trkpt>
      <trkpt lat="43.21972" lon="3.11585">
        <ele>69</ele>
        <time>2023-04-23T16:22:01Z</time>
      </trkpt>
      <trkpt lat="43.21968" lon="3.11571">
        <ele>68</ele>
        <time>2023-04-23T16:22:04Z</time>
      </trkpt>
      <trkpt lat="43.21961" lon="3.11562">
        <ele>68</ele>
        <time>2023-04-23T16:22:06Z</time>
      </trkpt>
      <trkpt lat="43.21959" lon="3.11545">
        <ele>68</ele>
        <time>2023-04-23T16:22:09Z</time>
      </trkpt>
      <trkpt lat="43.21964" lon="3.11494">
        <ele>70</ele>
        <time>2023-04-23T16:22:17Z</time>
      </trkpt>
      <trkpt lat="43.21971" lon="3.11469">
        <ele>71</ele>
        <time>2023-04-23T16:22:22Z</time>
      </trkpt>
      <trkpt lat="43.21983" lon="3.11444">
        <ele>72</ele>
        <time>2023-04-23T16:22:27Z</time>
      </trkpt>
      <trkpt lat="43.2199" lon="3.11404">
        <ele>73</ele>
        <time>2023-04-23T16:22:34Z</time>
      </trkpt>
      <trkpt lat="43.21987" lon="3.11392">
        <ele>73</ele>
        <time>2023-04-23T16:22:36Z</time>
      </trkpt>
      <trkpt lat="43.21969" lon="3.11375">
        <ele>74</ele>
        <time>2023-04-23T16:22:41Z</time>
      </trkpt>
      <trkpt lat="43.21959" lon="3.11369">
        <ele>74</ele>
        <time>2023-04-23T16:22:44Z</time>
      </trkpt>
      <trkpt lat="43.21934" lon="3.11339">
        <ele>75</ele>
        <time>2023-04-23T16:22:52Z</time>
      </trkpt>
      <trkpt lat="43.21914" lon="3.11332">
        <ele>75</ele>
        <time>2023-04-23T16:22:57Z</time>
      </trkpt>
      <trkpt lat="43.21904" lon="3.11336">
        <ele>75</ele>
        <time>2023-04-23T16:22:59Z</time>
      </trkpt>
      <trkpt lat="43.21882" lon="3.11372">
        <ele>74</ele>
        <time>2023-04-23T16:23:07Z</time>
      </trkpt>
      <trkpt lat="43.21871" lon="3.11371">
        <ele>74</ele>
        <time>2023-04-23T16:23:10Z</time>
      </trkpt>
      <trkpt lat="43.21853" lon="3.11356">
        <ele>75</ele>
        <time>2023-04-23T16:23:14Z</time>
      </trkpt>
      <trkpt lat="43.21837" lon="3.11372">
        <ele>74</ele>
        <time>2023-04-23T16:23:19Z</time>
      </trkpt>
      <trkpt lat="43.21818" lon="3.11377">
        <ele>73</ele>
        <time>2023-04-23T16:23:24Z</time>
      </trkpt>
      <trkpt lat="43.2181" lon="3.11387">
        <ele>72</ele>
        <time>2023-04-23T16:23:26Z</time>
      </trkpt>
      <trkpt lat="43.21814" lon="3.11401">
        <ele>72</ele>
        <time>2023-04-23T16:23:29Z</time>
      </trkpt>
      <trkpt lat="43.21814" lon="3.11418">
        <ele>71</ele>
        <time>2023-04-23T16:23:32Z</time>
      </trkpt>
      <trkpt lat="43.21809" lon="3.11445">
        <ele>68</ele>
        <time>2023-04-23T16:23:36Z</time>
      </trkpt>
      <trkpt lat="43.21802" lon="3.11457">
        <ele>67</ele>
        <time>2023-04-23T16:23:39Z</time>
      </trkpt>
      <trkpt lat="43.21792" lon="3.11452">
        <ele>68</ele>
        <time>2023-04-23T16:23:41Z</time>
      </trkpt>
      <trkpt lat="43.21783" lon="3.11443">
        <ele>68</ele>
        <time>2023-04-23T16:23:44Z</time>
      </trkpt>
      <trkpt lat="43.21771" lon="3.1144">
        <ele>68</ele>
        <time>2023-04-23T16:23:47Z</time>
      </trkpt>
      <trkpt lat="43.21752" lon="3.11452">
        <ele>67</ele>
        <time>2023-04-23T16:23:52Z</time>
      </trkpt>
      <trkpt lat="43.21735" lon="3.11435">
        <ele>69</ele>
        <time>2023-04-23T16:23:57Z</time>
      </trkpt>
      <trkpt lat="43.21714" lon="3.1147">
        <ele>68</ele>
        <time>2023-04-23T16:24:04Z</time>
      </trkpt>
      <trkpt lat="43.21699" lon="3.11563">
        <ele>62</ele>
        <time>2023-04-23T16:24:21Z</time>
      </trkpt>
      <trkpt lat="43.21676" lon="3.11642">
        <ele>57</ele>
        <time>2023-04-23T16:24:35Z</time>
      </trkpt>
      <trkpt lat="43.21667" lon="3.11648">
        <ele>57</ele>
        <time>2023-04-23T16:24:37Z</time>
      </trkpt>
      <trkpt lat="43.21655" lon="3.11644">
        <ele>58</ele>
        <time>2023-04-23T16:24:40Z</time>
      </trkpt>
      <trkpt lat="43.21635" lon="3.11633">
        <ele>60</ele>
        <time>2023-04-23T16:24:45Z</time>
      </trkpt>
      <trkpt lat="43.21619" lon="3.1162">
        <ele>61</ele>
        <time>2023-04-23T16:24:50Z</time>
      </trkpt>
      <trkpt lat="43.21608" lon="3.11619">
        <ele>62</ele>
        <time>2023-04-23T16:24:52Z</time>
      </trkpt>
      <trkpt lat="43.21628" lon="3.11614">
        <ele>62</ele>
        <time>2023-04-23T16:24:57Z</time>
      </trkpt>
      <trkpt lat="43.21647" lon="3.11621">
        <ele>60</ele>
        <time>2023-04-23T16:25:02Z</time>
      </trkpt>
      <trkpt lat="43.21656" lon="3.11616">
        <ele>60</ele>
        <time>2023-04-23T16:25:04Z</time>
      </trkpt>
      <trkpt lat="43.21665" lon="3.11606">
        <ele>60</ele>
        <time>2023-04-23T16:25:07Z</time>
      </trkpt>
      <trkpt lat="43.21681" lon="3.11537">
        <ele>65</ele>
        <time>2023-04-23T16:25:19Z</time>
      </trkpt>
      <trkpt lat="43.21685" lon="3.11508">
        <ele>68</ele>
        <time>2023-04-23T16:25:24Z</time>
      </trkpt>
      <trkpt lat="43.21691" lon="3.11498">
        <ele>68</ele>
        <time>2023-04-23T16:25:26Z</time>
      </trkpt>
      <trkpt lat="43.21694" lon="3.11471">
        <ele>69</ele>
        <time>2023-04-23T16:25:31Z</time>
      </trkpt>
      <trkpt lat="43.21703" lon="3.11433">
        <ele>71</ele>
        <time>2023-04-23T16:25:38Z</time>
      </trkpt>
      <trkpt lat="43.21706" lon="3.11392">
        <ele>73</ele>
        <time>2023-04-23T16:25:45Z</time>
      </trkpt>
      <trkpt lat="43.21714" lon="3.11385">
        <ele>73</ele>
        <time>2023-04-23T16:25:47Z</time>
      </trkpt>
      <trkpt lat="43.21702" lon="3.11365">
        <ele>73</ele>
        <time>2023-04-23T16:25:51Z</time>
      </trkpt>
      <trkpt lat="43.21686" lon="3.11347">
        <ele>74</ele>
        <time>2023-04-23T16:25:56Z</time>
      </trkpt>
      <trkpt lat="43.21677" lon="3.11324">
        <ele>74</ele>
        <time>2023-04-23T16:26:00Z</time>
      </trkpt>
      <trkpt lat="43.21675" lon="3.11309">
        <ele>75</ele>
        <time>2023-04-23T16:26:03Z</time>
      </trkpt>
      <trkpt lat="43.2167" lon="3.11296">
        <ele>75</ele>
        <time>2023-04-23T16:26:06Z</time>
      </trkpt>
      <trkpt lat="43.21661" lon="3.11288">
        <ele>75</ele>
        <time>2023-04-23T16:26:08Z</time>
      </trkpt>
      <trkpt lat="43.21663" lon="3.11275">
        <ele>76</ele>
        <time>2023-04-23T16:26:10Z</time>
      </trkpt>
      <trkpt lat="43.21679" lon="3.11259">
        <ele>76</ele>
        <time>2023-04-23T16:26:15Z</time>
      </trkpt>
      <trkpt lat="43.21698" lon="3.11249">
        <ele>76</ele>
        <time>2023-04-23T16:26:20Z</time>
      </trkpt>
      <trkpt lat="43.21719" lon="3.11246">
        <ele>77</ele>
        <time>2023-04-23T16:26:25Z</time>
      </trkpt>
      <trkpt lat="43.21726" lon="3.11236">
        <ele>77</ele>
        <time>2023-04-23T16:26:27Z</time>
      </trkpt>
      <trkpt lat="43.21712" lon="3.11216">
        <ele>77</ele>
        <time>2023-04-23T16:26:32Z</time>
      </trkpt>
      <trkpt lat="43.21701" lon="3.11209">
        <ele>77</ele>
        <time>2023-04-23T16:26:35Z</time>
      </trkpt>
      <trkpt lat="43.21667" lon="3.11167">
        <ele>77</ele>
        <time>2023-04-23T16:26:45Z</time>
      </trkpt>
      <trkpt lat="43.21585" lon="3.11051">
        <ele>81</ele>
        <time>2023-04-23T16:27:13Z</time>
      </trkpt>
      <trkpt lat="43.21551" lon="3.11009">
        <ele>83</ele>
        <time>2023-04-23T16:27:23Z</time>
      </trkpt>
      <trkpt lat="43.21532" lon="3.10994">
        <ele>84</ele>
        <time>2023-04-23T16:27:29Z</time>
      </trkpt>
      <trkpt lat="43.21522" lon="3.10997">
        <ele>84</ele>
        <time>2023-04-23T16:27:31Z</time>
      </trkpt>
      <trkpt lat="43.21514" lon="3.11013">
        <ele>84</ele>
        <time>2023-04-23T16:27:34Z</time>
      </trkpt>
      <trkpt lat="43.21514" lon="3.11028">
        <ele>83</ele>
        <time>2023-04-23T16:27:37Z</time>
      </trkpt>
      <trkpt lat="43.21525" lon="3.11057">
        <ele>81</ele>
        <time>2023-04-23T16:27:42Z</time>
      </trkpt>
      <trkpt lat="43.21524" lon="3.11073">
        <ele>81</ele>
        <time>2023-04-23T16:27:45Z</time>
      </trkpt>
      <trkpt lat="43.21522" lon="3.11089">
        <ele>80</ele>
        <time>2023-04-23T16:27:48Z</time>
      </trkpt>
      <trkpt lat="43.21496" lon="3.11183">
        <ele>80</ele>
        <time>2023-04-23T16:28:05Z</time>
      </trkpt>
      <trkpt lat="43.21506" lon="3.11208">
        <ele>81</ele>
        <time>2023-04-23T16:28:10Z</time>
      </trkpt>
      <trkpt lat="43.21505" lon="3.11221">
        <ele>82</ele>
        <time>2023-04-23T16:28:12Z</time>
      </trkpt>
      <trkpt lat="43.21512" lon="3.11249">
        <ele>82</ele>
        <time>2023-04-23T16:28:17Z</time>
      </trkpt>
      <trkpt lat="43.21512" lon="3.11292">
        <ele>83</ele>
        <time>2023-04-23T16:28:24Z</time>
      </trkpt>
      <trkpt lat="43.21507" lon="3.11307">
        <ele>83</ele>
        <time>2023-04-23T16:28:27Z</time>
      </trkpt>
      <trkpt lat="43.21498" lon="3.11318">
        <ele>84</ele>
        <time>2023-04-23T16:28:30Z</time>
      </trkpt>
      <trkpt lat="43.21497" lon="3.11333">
        <ele>84</ele>
        <time>2023-04-23T16:28:33Z</time>
      </trkpt>
      <trkpt lat="43.21492" lon="3.11346">
        <ele>83</ele>
        <time>2023-04-23T16:28:35Z</time>
      </trkpt>
      <trkpt lat="43.21477" lon="3.11368">
        <ele>81</ele>
        <time>2023-04-23T16:28:40Z</time>
      </trkpt>
      <trkpt lat="43.21432" lon="3.11407">
        <ele>77</ele>
        <time>2023-04-23T16:28:53Z</time>
      </trkpt>
      <trkpt lat="43.21419" lon="3.11431">
        <ele>74</ele>
        <time>2023-04-23T16:28:58Z</time>
      </trkpt>
      <trkpt lat="43.21415" lon="3.11443">
        <ele>73</ele>
        <time>2023-04-23T16:29:00Z</time>
      </trkpt>
      <trkpt lat="43.21394" lon="3.11458">
        <ele>70</ele>
        <time>2023-04-23T16:29:05Z</time>
      </trkpt>
      <trkpt lat="43.21382" lon="3.11484">
        <ele>68</ele>
        <time>2023-04-23T16:29:11Z</time>
      </trkpt>
      <trkpt lat="43.21372" lon="3.11488">
        <ele>67</ele>
        <time>2023-04-23T16:29:13Z</time>
      </trkpt>
      <trkpt lat="43.2136" lon="3.11497">
        <ele>67</ele>
        <time>2023-04-23T16:29:16Z</time>
      </trkpt>
      <trkpt lat="43.21339" lon="3.11568">
        <ele>66</ele>
        <time>2023-04-23T16:29:29Z</time>
      </trkpt>
      <trkpt lat="43.21338" lon="3.11597">
        <ele>66</ele>
        <time>2023-04-23T16:29:34Z</time>
      </trkpt>
      <trkpt lat="43.21312" lon="3.11647">
        <ele>65</ele>
        <time>2023-04-23T16:29:45Z</time>
      </trkpt>
      <trkpt lat="43.21301" lon="3.11674">
        <ele>64</ele>
        <time>2023-04-23T16:29:50Z</time>
      </trkpt>
      <trkpt lat="43.21314" lon="3.11655">
        <ele>65</ele>
        <time>2023-04-23T16:29:54Z</time>
      </trkpt>
      <trkpt lat="43.21335" lon="3.11606">
        <ele>66</ele>
        <time>2023-04-23T16:30:04Z</time>
      </trkpt>
      <trkpt lat="43.2134" lon="3.11591">
        <ele>66</ele>
        <time>2023-04-23T16:30:07Z</time>
      </trkpt>
      <trkpt lat="43.2134" lon="3.11562">
        <ele>66</ele>
        <time>2023-04-23T16:30:12Z</time>
      </trkpt>
      <trkpt lat="43.21364" lon="3.11497">
        <ele>67</ele>
        <time>2023-04-23T16:30:24Z</time>
      </trkpt>
      <trkpt lat="43.21373" lon="3.1149">
        <ele>67</ele>
        <time>2023-04-23T16:30:27Z</time>
      </trkpt>
      <trkpt lat="43.21382" lon="3.11493">
        <ele>67</ele>
        <time>2023-04-23T16:30:29Z</time>
      </trkpt>
      <trkpt lat="43.21392" lon="3.11488">
        <ele>67</ele>
        <time>2023-04-23T16:30:31Z</time>
      </trkpt>
      <trkpt lat="43.21401" lon="3.11464">
        <ele>70</ele>
        <time>2023-04-23T16:30:36Z</time>
      </trkpt>
      <trkpt lat="43.21408" lon="3.11455">
        <ele>71</ele>
        <time>2023-04-23T16:30:38Z</time>
      </trkpt>
      <trkpt lat="43.21398" lon="3.1146">
        <ele>70</ele>
        <time>2023-04-23T16:30:41Z</time>
      </trkpt>
      <trkpt lat="43.21386" lon="3.1148">
        <ele>68</ele>
        <time>2023-04-23T16:30:45Z</time>
      </trkpt>
      <trkpt lat="43.21377" lon="3.11487">
        <ele>67</ele>
        <time>2023-04-23T16:30:48Z</time>
      </trkpt>
      <trkpt lat="43.21379" lon="3.11474">
        <ele>68</ele>
        <time>2023-04-23T16:30:50Z</time>
      </trkpt>
      <trkpt lat="43.21409" lon="3.11436">
        <ele>73</ele>
        <time>2023-04-23T16:30:59Z</time>
      </trkpt>
      <trkpt lat="43.21426" lon="3.11398">
        <ele>77</ele>
        <time>2023-04-23T16:31:07Z</time>
      </trkpt>
      <trkpt lat="43.21431" lon="3.11384">
        <ele>78</ele>
        <time>2023-04-23T16:31:10Z</time>
      </trkpt>
      <trkpt lat="43.21432" lon="3.11369">
        <ele>79</ele>
        <time>2023-04-23T16:31:12Z</time>
      </trkpt>
      <trkpt lat="43.21427" lon="3.11342">
        <ele>80</ele>
        <time>2023-04-23T16:31:17Z</time>
      </trkpt>
      <trkpt lat="43.21428" lon="3.11329">
        <ele>80</ele>
        <time>2023-04-23T16:31:19Z</time>
      </trkpt>
      <trkpt lat="43.21452" lon="3.11268">
        <ele>81</ele>
        <time>2023-04-23T16:31:31Z</time>
      </trkpt>
      <trkpt lat="43.21465" lon="3.11246">
        <ele>81</ele>
        <time>2023-04-23T16:31:36Z</time>
      </trkpt>
      <trkpt lat="43.21469" lon="3.11233">
        <ele>81</ele>
        <time>2023-04-23T16:31:38Z</time>
      </trkpt>
      <trkpt lat="43.21489" lon="3.11206">
        <ele>81</ele>
        <time>2023-04-23T16:31:45Z</time>
      </trkpt>
      <trkpt lat="43.2149" lon="3.11192">
        <ele>81</ele>
        <time>2023-04-23T16:31:47Z</time>
      </trkpt>
      <trkpt lat="43.21486" lon="3.11177">
        <ele>80</ele>
        <time>2023-04-23T16:31:50Z</time>
      </trkpt>
      <trkpt lat="43.21486" lon="3.11163">
        <ele>80</ele>
        <time>2023-04-23T16:31:52Z</time>
      </trkpt>
      <trkpt lat="43.21483" lon="3.11151">
        <ele>79</ele>
        <time>2023-04-23T16:31:54Z</time>
      </trkpt>
      <trkpt lat="43.21475" lon="3.11141">
        <ele>79</ele>
        <time>2023-04-23T16:31:57Z</time>
      </trkpt>
      <trkpt lat="43.2147" lon="3.11125">
        <ele>79</ele>
        <time>2023-04-23T16:32:00Z</time>
      </trkpt>
      <trkpt lat="43.21473" lon="3.11083">
        <ele>79</ele>
        <time>2023-04-23T16:32:07Z</time>
      </trkpt>
      <trkpt lat="43.21467" lon="3.11073">
        <ele>80</ele>
        <time>2023-04-23T16:32:09Z</time>
      </trkpt>
      <trkpt lat="43.21469" lon="3.11045">
        <ele>81</ele>
        <time>2023-04-23T16:32:14Z</time>
      </trkpt>
      <trkpt lat="43.2148" lon="3.11006">
        <ele>83</ele>
        <time>2023-04-23T16:32:21Z</time>
      </trkpt>
      <trkpt lat="43.21482" lon="3.10937">
        <ele>87</ele>
        <time>2023-04-23T16:32:33Z</time>
      </trkpt>
      <trkpt lat="43.21486" lon="3.10925">
        <ele>88</ele>
        <time>2023-04-23T16:32:35Z</time>
      </trkpt>
      <trkpt lat="43.21496" lon="3.10931">
        <ele>88</ele>
        <time>2023-04-23T16:32:38Z</time>
      </trkpt>
      <trkpt lat="43.21501" lon="3.10944">
        <ele>88</ele>
        <time>2023-04-23T16:32:40Z</time>
      </trkpt>
      <trkpt lat="43.21532" lon="3.10987">
        <ele>84</ele>
        <time>2023-04-23T16:32:50Z</time>
      </trkpt>
      <trkpt lat="43.21542" lon="3.10986">
        <ele>84</ele>
        <time>2023-04-23T16:32:53Z</time>
      </trkpt>
      <trkpt lat="43.21551" lon="3.10978">
        <ele>84</ele>
        <time>2023-04-23T16:32:55Z</time>
      </trkpt>
      <trkpt lat="43.21571" lon="3.10944">
        <ele>84</ele>
        <time>2023-04-23T16:33:03Z</time>
      </trkpt>
      <trkpt lat="43.21577" lon="3.10917">
        <ele>84</ele>
        <time>2023-04-23T16:33:08Z</time>
      </trkpt>
      <trkpt lat="43.21583" lon="3.10905">
        <ele>84</ele>
        <time>2023-04-23T16:33:10Z</time>
      </trkpt>
      <trkpt lat="43.21586" lon="3.10892">
        <ele>84</ele>
        <time>2023-04-23T16:33:12Z</time>
      </trkpt>
      <trkpt lat="43.21583" lon="3.10878">
        <ele>85</ele>
        <time>2023-04-23T16:33:15Z</time>
      </trkpt>
      <trkpt lat="43.21558" lon="3.10847">
        <ele>87</ele>
        <time>2023-04-23T16:33:23Z</time>
      </trkpt>
      <trkpt lat="43.21557" lon="3.10831">
        <ele>88</ele>
        <time>2023-04-23T16:33:25Z</time>
      </trkpt>
      <trkpt lat="43.21565" lon="3.10806">
        <ele>86</ele>
        <time>2023-04-23T16:33:30Z</time>
      </trkpt>
      <trkpt lat="43.21569" lon="3.10779">
        <ele>84</ele>
        <time>2023-04-23T16:33:35Z</time>
      </trkpt>
      <trkpt lat="43.21589" lon="3.10749">
        <ele>81</ele>
        <time>2023-04-23T16:33:42Z</time>
      </trkpt>
      <trkpt lat="43.21594" lon="3.10733">
        <ele>81</ele>
        <time>2023-04-23T16:33:45Z</time>
      </trkpt>
      <trkpt lat="43.21596" lon="3.10704">
        <ele>81</ele>
        <time>2023-04-23T16:33:50Z</time>
      </trkpt>
      <trkpt lat="43.21592" lon="3.10659">
        <ele>83</ele>
        <time>2023-04-23T16:33:57Z</time>
      </trkpt>
      <trkpt lat="43.21592" lon="3.10631">
        <ele>85</ele>
        <time>2023-04-23T16:34:02Z</time>
      </trkpt>
      <trkpt lat="43.21581" lon="3.10629">
        <ele>85</ele>
        <time>2023-04-23T16:34:05Z</time>
      </trkpt>
      <trkpt lat="43.21562" lon="3.1063">
        <ele>86</ele>
        <time>2023-04-23T16:34:09Z</time>
      </trkpt>
      <trkpt lat="43.21541" lon="3.10624">
        <ele>87</ele>
        <time>2023-04-23T16:34:14Z</time>
      </trkpt>
      <trkpt lat="43.2153" lon="3.10624">
        <ele>87</ele>
        <time>2023-04-23T16:34:17Z</time>
      </trkpt>
      <trkpt lat="43.2151" lon="3.10627">
        <ele>87</ele>
        <time>2023-04-23T16:34:21Z</time>
      </trkpt>
      <trkpt lat="43.21499" lon="3.10633">
        <ele>87</ele>
        <time>2023-04-23T16:34:24Z</time>
      </trkpt>
      <trkpt lat="43.21489" lon="3.10644">
        <ele>87</ele>
        <time>2023-04-23T16:34:27Z</time>
      </trkpt>
      <trkpt lat="43.21453" lon="3.10642">
        <ele>87</ele>
        <time>2023-04-23T16:34:36Z</time>
      </trkpt>
      <trkpt lat="43.21442" lon="3.10646">
        <ele>87</ele>
        <time>2023-04-23T16:34:38Z</time>
      </trkpt>
      <trkpt lat="43.2143" lon="3.10645">
        <ele>87</ele>
        <time>2023-04-23T16:34:41Z</time>
      </trkpt>
      <trkpt lat="43.21411" lon="3.10654">
        <ele>87</ele>
        <time>2023-04-23T16:34:46Z</time>
      </trkpt>
      <trkpt lat="43.214" lon="3.10653">
        <ele>87</ele>
        <time>2023-04-23T16:34:48Z</time>
      </trkpt>
      <trkpt lat="43.21382" lon="3.10664">
        <ele>87</ele>
        <time>2023-04-23T16:34:53Z</time>
      </trkpt>
      <trkpt lat="43.21342" lon="3.10662">
        <ele>86</ele>
        <time>2023-04-23T16:35:02Z</time>
      </trkpt>
      <trkpt lat="43.21334" lon="3.1065">
        <ele>86</ele>
        <time>2023-04-23T16:35:05Z</time>
      </trkpt>
      <trkpt lat="43.21331" lon="3.10636">
        <ele>86</ele>
        <time>2023-04-23T16:35:07Z</time>
      </trkpt>
      <trkpt lat="43.21331" lon="3.10593">
        <ele>85</ele>
        <time>2023-04-23T16:35:15Z</time>
      </trkpt>
      <trkpt lat="43.21323" lon="3.10551">
        <ele>82</ele>
        <time>2023-04-23T16:35:22Z</time>
      </trkpt>
      <trkpt lat="43.21303" lon="3.10499">
        <ele>78</ele>
        <time>2023-04-23T16:35:32Z</time>
      </trkpt>
      <trkpt lat="43.21301" lon="3.10459">
        <ele>75</ele>
        <time>2023-04-23T16:35:39Z</time>
      </trkpt>
      <trkpt lat="43.21296" lon="3.10434">
        <ele>73</ele>
        <time>2023-04-23T16:35:43Z</time>
      </trkpt>
      <trkpt lat="43.21277" lon="3.10429">
        <ele>73</ele>
        <time>2023-04-23T16:35:48Z</time>
      </trkpt>
      <trkpt lat="43.21258" lon="3.10413">
        <ele>71</ele>
        <time>2023-04-23T16:35:53Z</time>
      </trkpt>
      <trkpt lat="43.21247" lon="3.10407">
        <ele>71</ele>
        <time>2023-04-23T16:35:56Z</time>
      </trkpt>
      <trkpt lat="43.21229" lon="3.10388">
        <ele>70</ele>
        <time>2023-04-23T16:36:01Z</time>
      </trkpt>
      <trkpt lat="43.2117" lon="3.10315">
        <ele>67</ele>
        <time>2023-04-23T16:36:20Z</time>
      </trkpt>
      <trkpt lat="43.21127" lon="3.1027">
        <ele>69</ele>
        <time>2023-04-23T16:36:32Z</time>
      </trkpt>
      <trkpt lat="43.21118" lon="3.10267">
        <ele>70</ele>
        <time>2023-04-23T16:36:35Z</time>
      </trkpt>
      <trkpt lat="43.21112" lon="3.10257">
        <ele>70</ele>
        <time>2023-04-23T16:36:37Z</time>
      </trkpt>
      <trkpt lat="43.21101" lon="3.10256">
        <ele>71</ele>
        <time>2023-04-23T16:36:39Z</time>
      </trkpt>
      <trkpt lat="43.21092" lon="3.10262">
        <ele>72</ele>
        <time>2023-04-23T16:36:42Z</time>
      </trkpt>
      <trkpt lat="43.21064" lon="3.103">
        <ele>76</ele>
        <time>2023-04-23T16:36:51Z</time>
      </trkpt>
      <trkpt lat="43.21039" lon="3.10348">
        <ele>80</ele>
        <time>2023-04-23T16:37:01Z</time>
      </trkpt>
      <trkpt lat="43.21023" lon="3.10397">
        <ele>83</ele>
        <time>2023-04-23T16:37:10Z</time>
      </trkpt>
      <trkpt lat="43.21012" lon="3.10421">
        <ele>85</ele>
        <time>2023-04-23T16:37:15Z</time>
      </trkpt>
      <trkpt lat="43.21003" lon="3.10425">
        <ele>86</ele>
        <time>2023-04-23T16:37:17Z</time>
      </trkpt>
      <trkpt lat="43.20993" lon="3.10421">
        <ele>86</ele>
        <time>2023-04-23T16:37:20Z</time>
      </trkpt>
      <trkpt lat="43.20977" lon="3.10407">
        <ele>85</ele>
        <time>2023-04-23T16:37:24Z</time>
      </trkpt>
      <trkpt lat="43.20941" lon="3.10385">
        <ele>84</ele>
        <time>2023-04-23T16:37:33Z</time>
      </trkpt>
      <trkpt lat="43.20928" lon="3.10362">
        <ele>84</ele>
        <time>2023-04-23T16:37:38Z</time>
      </trkpt>
      <trkpt lat="43.20908" lon="3.10355">
        <ele>82</ele>
        <time>2023-04-23T16:37:43Z</time>
      </trkpt>
      <trkpt lat="43.20904" lon="3.10341">
        <ele>81</ele>
        <time>2023-04-23T16:37:46Z</time>
      </trkpt>
      <trkpt lat="43.20904" lon="3.10327">
        <ele>80</ele>
        <time>2023-04-23T16:37:48Z</time>
      </trkpt>
      <trkpt lat="43.20895" lon="3.10335">
        <ele>79</ele>
        <time>2023-04-23T16:37:50Z</time>
      </trkpt>
      <trkpt lat="43.20889" lon="3.10325">
        <ele>78</ele>
        <time>2023-04-23T16:37:53Z</time>
      </trkpt>
      <trkpt lat="43.20881" lon="3.1033">
        <ele>76</ele>
        <time>2023-04-23T16:37:55Z</time>
      </trkpt>
      <trkpt lat="43.20875" lon="3.10317">
        <ele>75</ele>
        <time>2023-04-23T16:37:57Z</time>
      </trkpt>
      <trkpt lat="43.20865" lon="3.10312">
        <ele>73</ele>
        <time>2023-04-23T16:38:00Z</time>
      </trkpt>
      <trkpt lat="43.20855" lon="3.10319">
        <ele>72</ele>
        <time>2023-04-23T16:38:02Z</time>
      </trkpt>
      <trkpt lat="43.20848" lon="3.1031">
        <ele>70</ele>
        <time>2023-04-23T16:38:05Z</time>
      </trkpt>
      <trkpt lat="43.20848" lon="3.10301">
        <ele>70</ele>
        <time>2023-04-23T16:38:06Z</time>
      </trkpt>
      <trkpt lat="43.20838" lon="3.10299">
        <ele>68</ele>
        <time>2023-04-23T16:38:09Z</time>
      </trkpt>
      <trkpt lat="43.2083" lon="3.10304">
        <ele>68</ele>
        <time>2023-04-23T16:38:11Z</time>
      </trkpt>
      <trkpt lat="43.2082" lon="3.103">
        <ele>68</ele>
        <time>2023-04-23T16:38:13Z</time>
      </trkpt>
      <trkpt lat="43.20812" lon="3.10293">
        <ele>68</ele>
        <time>2023-04-23T16:38:15Z</time>
      </trkpt>
      <trkpt lat="43.2081" lon="3.10292">
        <ele>63.6</ele>
        <time>2023-04-23T16:38:17Z</time>
      </trkpt>
      <trkpt lat="43.20808" lon="3.10291">
        <ele>69</ele>
        <time>2023-04-23T16:48:59Z</time>
      </trkpt>
      <trkpt lat="43.20796" lon="3.10295">
        <ele>69</ele>
        <time>2023-04-23T16:49:01Z</time>
      </trkpt>
      <trkpt lat="43.20765" lon="3.10285">
        <ele>70</ele>
        <time>2023-04-23T16:49:09Z</time>
      </trkpt>
      <trkpt lat="43.20735" lon="3.10296">
        <ele>72</ele>
        <time>2023-04-23T16:49:16Z</time>
      </trkpt>
      <trkpt lat="43.20723" lon="3.10275">
        <ele>74</ele>
        <time>2023-04-23T16:49:21Z</time>
      </trkpt>
      <trkpt lat="43.20714" lon="3.1028">
        <ele>74</ele>
        <time>2023-04-23T16:49:23Z</time>
      </trkpt>
      <trkpt lat="43.20698" lon="3.10298">
        <ele>75</ele>
        <time>2023-04-23T16:49:28Z</time>
      </trkpt>
      <trkpt lat="43.20679" lon="3.1031">
        <ele>76</ele>
        <time>2023-04-23T16:49:33Z</time>
      </trkpt>
      <trkpt lat="43.20668" lon="3.10308">
        <ele>77</ele>
        <time>2023-04-23T16:49:35Z</time>
      </trkpt>
      <trkpt lat="43.20659" lon="3.10301">
        <ele>77</ele>
        <time>2023-04-23T16:49:38Z</time>
      </trkpt>
      <trkpt lat="43.20641" lon="3.10295">
        <ele>78</ele>
        <time>2023-04-23T16:49:42Z</time>
      </trkpt>
      <trkpt lat="43.20626" lon="3.1028">
        <ele>79</ele>
        <time>2023-04-23T16:49:46Z</time>
      </trkpt>
      <trkpt lat="43.20617" lon="3.10276">
        <ele>80</ele>
        <time>2023-04-23T16:49:49Z</time>
      </trkpt>
      <trkpt lat="43.20596" lon="3.10274">
        <ele>80</ele>
        <time>2023-04-23T16:49:53Z</time>
      </trkpt>
      <trkpt lat="43.20579" lon="3.10265">
        <ele>81</ele>
        <time>2023-04-23T16:49:58Z</time>
      </trkpt>
      <trkpt lat="43.20564" lon="3.10229">
        <ele>82</ele>
        <time>2023-04-23T16:50:05Z</time>
      </trkpt>
      <trkpt lat="43.20566" lon="3.10202">
        <ele>83</ele>
        <time>2023-04-23T16:50:09Z</time>
      </trkpt>
      <trkpt lat="43.20565" lon="3.10155">
        <ele>83</ele>
        <time>2023-04-23T16:50:17Z</time>
      </trkpt>
      <trkpt lat="43.20572" lon="3.10141">
        <ele>82</ele>
        <time>2023-04-23T16:50:20Z</time>
      </trkpt>
      <trkpt lat="43.2057" lon="3.10129">
        <ele>82</ele>
        <time>2023-04-23T16:59:13Z</time>
      </trkpt>
      <trkpt lat="43.20551" lon="3.10117">
        <ele>81</ele>
        <time>2023-04-23T16:59:17Z</time>
      </trkpt>
      <trkpt lat="43.2053" lon="3.10108">
        <ele>81</ele>
        <time>2023-04-23T16:59:23Z</time>
      </trkpt>
      <trkpt lat="43.20458" lon="3.10093">
        <ele>83</ele>
        <time>2023-04-23T16:59:40Z</time>
      </trkpt>
      <trkpt lat="43.20428" lon="3.10081">
        <ele>85</ele>
        <time>2023-04-23T16:59:47Z</time>
      </trkpt>
      <trkpt lat="43.20393" lon="3.10056">
        <ele>85.9</ele>
        <time>2023-04-23T16:59:56Z</time>
      </trkpt>
      <trkpt lat="43.20384" lon="3.10051">
        <ele>85.8</ele>
      </trkpt>
      <trkpt lat="43.20374" lon="3.10046">
        <ele>86</ele>
        <time>2023-04-23T17:00:01Z</time>
      </trkpt>
      <trkpt lat="43.20366" lon="3.10035">
        <ele>86</ele>
        <time>2023-04-23T17:00:03Z</time>
      </trkpt>
      <trkpt lat="43.2036" lon="3.10012">
        <ele>88</ele>
        <time>2023-04-23T17:00:08Z</time>
      </trkpt>
      <trkpt lat="43.20364" lon="3.09999">
        <ele>89</ele>
        <time>2023-04-23T17:00:10Z</time>
      </trkpt>
      <trkpt lat="43.20367" lon="3.09953">
        <ele>94</ele>
        <time>2023-04-23T17:00:18Z</time>
      </trkpt>
      <trkpt lat="43.20373" lon="3.09923">
        <ele>97</ele>
        <time>2023-04-23T17:00:23Z</time>
      </trkpt>
      <trkpt lat="43.20355" lon="3.09905">
        <ele>99</ele>
        <time>2023-04-23T17:00:28Z</time>
      </trkpt>
      <trkpt lat="43.20346" lon="3.09904">
        <ele>100</ele>
        <time>2023-04-23T17:00:31Z</time>
      </trkpt>
      <trkpt lat="43.20336" lon="3.09904">
        <ele>100</ele>
        <time>2023-04-23T17:00:33Z</time>
      </trkpt>
      <trkpt lat="43.20317" lon="3.0991">
        <ele>98</ele>
        <time>2023-04-23T17:00:37Z</time>
      </trkpt>
      <trkpt lat="43.20307" lon="3.09918">
        <ele>96</ele>
        <time>2023-04-23T17:00:40Z</time>
      </trkpt>
      <trkpt lat="43.20283" lon="3.09917">
        <ele>94</ele>
        <time>2023-04-23T17:00:46Z</time>
      </trkpt>
      <trkpt lat="43.20275" lon="3.09912">
        <ele>94</ele>
        <time>2023-04-23T17:00:48Z</time>
      </trkpt>
      <trkpt lat="43.20253" lon="3.09885">
        <ele>95</ele>
        <time>2023-04-23T17:00:55Z</time>
      </trkpt>
      <trkpt lat="43.20243" lon="3.0988">
        <ele>96</ele>
        <time>2023-04-23T17:00:57Z</time>
      </trkpt>
      <trkpt lat="43.20232" lon="3.09878">
        <ele>97</ele>
        <time>2023-04-23T17:01:00Z</time>
      </trkpt>
      <trkpt lat="43.20199" lon="3.09886">
        <ele>99</ele>
        <time>2023-04-23T17:01:08Z</time>
      </trkpt>
      <trkpt lat="43.20191" lon="3.09895">
        <ele>99</ele>
        <time>2023-04-23T17:01:10Z</time>
      </trkpt>
      <trkpt lat="43.20186" lon="3.09907">
        <ele>98</ele>
        <time>2023-04-23T17:01:12Z</time>
      </trkpt>
      <trkpt lat="43.20182" lon="3.09922">
        <ele>96</ele>
        <time>2023-04-23T17:01:15Z</time>
      </trkpt>
      <trkpt lat="43.20179" lon="3.09975">
        <ele>94</ele>
        <time>2023-04-23T17:01:24Z</time>
      </trkpt>
      <trkpt lat="43.20186" lon="3.10061">
        <ele>90</ele>
        <time>2023-04-23T17:01:39Z</time>
      </trkpt>
      <trkpt lat="43.20182" lon="3.10096">
        <ele>89</ele>
        <time>2023-04-23T17:01:45Z</time>
      </trkpt>
      <trkpt lat="43.2017" lon="3.10103">
        <ele>89</ele>
        <time>2023-04-23T17:01:48Z</time>
      </trkpt>
      <trkpt lat="43.20112" lon="3.10097">
        <ele>90</ele>
        <time>2023-04-23T17:02:02Z</time>
      </trkpt>
      <trkpt lat="43.20064" lon="3.10086">
        <ele>92</ele>
        <time>2023-04-23T17:02:13Z</time>
      </trkpt>
      <trkpt lat="43.20016" lon="3.10071">
        <ele>94</ele>
        <time>2023-04-23T17:02:24Z</time>
      </trkpt>
      <trkpt lat="43.19968" lon="3.10076">
        <ele>95</ele>
        <time>2023-04-23T17:02:36Z</time>
      </trkpt>
      <trkpt lat="43.1991" lon="3.10091">
        <ele>95</ele>
        <time>2023-04-23T17:02:49Z</time>
      </trkpt>
      <trkpt lat="43.19852" lon="3.10084">
        <ele>100</ele>
        <time>2023-04-23T17:03:03Z</time>
      </trkpt>
      <trkpt lat="43.19842" lon="3.10082">
        <ele>100</ele>
        <time>2023-04-23T17:03:05Z</time>
      </trkpt>
      <trkpt lat="43.19833" lon="3.10077">
        <ele>101</ele>
        <time>2023-04-23T17:03:08Z</time>
      </trkpt>
      <trkpt lat="43.19835" lon="3.10064">
        <ele>102</ele>
        <time>2023-04-23T17:03:10Z</time>
      </trkpt>
      <trkpt lat="43.19835" lon="3.10064">
        <ele>102</ele>
        <time>2023-04-23T17:03:10Z</time>
      </trkpt>
      <trkpt lat="43.19848" lon="3.10027">
        <ele>103</ele>
        <time>2023-04-23T17:03:17Z</time>
      </trkpt>
      <trkpt lat="43.19866" lon="3.09989">
        <ele>104</ele>
        <time>2023-04-23T17:03:25Z</time>
      </trkpt>
      <trkpt lat="43.19889" lon="3.0995">
        <ele>105</ele>
        <time>2023-04-23T17:03:33Z</time>
      </trkpt>
      <trkpt lat="43.19941" lon="3.09841">
        <ele>107</ele>
        <time>2023-04-23T17:03:55Z</time>
      </trkpt>
      <trkpt lat="43.19961" lon="3.09788">
        <ele>108</ele>
        <time>2023-04-23T17:04:05Z</time>
      </trkpt>
      <trkpt lat="43.19982" lon="3.09754">
        <ele>111</ele>
        <time>2023-04-23T17:04:13Z</time>
      </trkpt>
      <trkpt lat="43.1999" lon="3.09717">
        <ele>115</ele>
        <time>2023-04-23T17:04:20Z</time>
      </trkpt>
      <trkpt lat="43.2001" lon="3.09676">
        <ele>120</ele>
        <time>2023-04-23T17:04:28Z</time>
      </trkpt>
      <trkpt lat="43.20022" lon="3.09622">
        <ele>123</ele>
        <time>2023-04-23T17:04:38Z</time>
      </trkpt>
      <trkpt lat="43.20034" lon="3.096">
        <ele>123</ele>
        <time>2023-04-23T17:04:42Z</time>
      </trkpt>
      <trkpt lat="43.20037" lon="3.09584">
        <ele>124</ele>
        <time>2023-04-23T17:04:45Z</time>
      </trkpt>
      <trkpt lat="43.20034" lon="3.09569">
        <ele>124</ele>
        <time>2023-04-23T17:04:48Z</time>
      </trkpt>
      <trkpt lat="43.20006" lon="3.09536">
        <ele>125</ele>
        <time>2023-04-23T17:04:56Z</time>
      </trkpt>
      <trkpt lat="43.19991" lon="3.09513">
        <ele>125</ele>
        <time>2023-04-23T17:05:02Z</time>
      </trkpt>
      <trkpt lat="43.20001" lon="3.09515">
        <ele>126</ele>
        <time>2023-04-23T17:05:04Z</time>
      </trkpt>
      <trkpt lat="43.2002" lon="3.09536">
        <ele>125</ele>
        <time>2023-04-23T17:05:10Z</time>
      </trkpt>
      <trkpt lat="43.20054" lon="3.09581">
        <ele>123</ele>
        <time>2023-04-23T17:05:21Z</time>
      </trkpt>
      <trkpt lat="43.20064" lon="3.09585">
        <ele>123</ele>
        <time>2023-04-23T17:05:23Z</time>
      </trkpt>
      <trkpt lat="43.20093" lon="3.09566">
        <ele>123</ele>
        <time>2023-04-23T17:05:31Z</time>
      </trkpt>
      <trkpt lat="43.20116" lon="3.09572">
        <ele>123</ele>
        <time>2023-04-23T17:05:36Z</time>
      </trkpt>
      <trkpt lat="43.20161" lon="3.09576">
        <ele>122</ele>
        <time>2023-04-23T17:05:47Z</time>
      </trkpt>
      <trkpt lat="43.20171" lon="3.09579">
        <ele>122</ele>
        <time>2023-04-23T17:05:49Z</time>
      </trkpt>
      <trkpt lat="43.20174" lon="3.09592">
        <ele>122</ele>
        <time>2023-04-23T17:05:51Z</time>
      </trkpt>
      <trkpt lat="43.20159" lon="3.09637">
        <ele>123</ele>
        <time>2023-04-23T17:06:00Z</time>
      </trkpt>
      <trkpt lat="43.2016" lon="3.09651">
        <ele>123</ele>
        <time>2023-04-23T17:06:02Z</time>
      </trkpt>
      <trkpt lat="43.20171" lon="3.0966">
        <ele>123</ele>
        <time>2023-04-23T17:06:05Z</time>
      </trkpt>
      <trkpt lat="43.20181" lon="3.09662">
        <ele>122</ele>
        <time>2023-04-23T17:06:08Z</time>
      </trkpt>
      <trkpt lat="43.20202" lon="3.09654">
        <ele>121</ele>
        <time>2023-04-23T17:06:13Z</time>
      </trkpt>
      <trkpt lat="43.20211" lon="3.09655">
        <ele>121</ele>
        <time>2023-04-23T17:06:15Z</time>
      </trkpt>
      <trkpt lat="43.20222" lon="3.09652">
        <ele>120</ele>
        <time>2023-04-23T17:06:17Z</time>
      </trkpt>
      <trkpt lat="43.20228" lon="3.09641">
        <ele>120</ele>
        <time>2023-04-23T17:06:20Z</time>
      </trkpt>
      <trkpt lat="43.20232" lon="3.09626">
        <ele>120</ele>
        <time>2023-04-23T17:06:22Z</time>
      </trkpt>
      <trkpt lat="43.2024" lon="3.09612">
        <ele>120</ele>
        <time>2023-04-23T17:06:25Z</time>
      </trkpt>
      <trkpt lat="43.20254" lon="3.09571">
        <ele>120</ele>
        <time>2023-04-23T17:06:33Z</time>
      </trkpt>
      <trkpt lat="43.20265" lon="3.09574">
        <ele>119</ele>
        <time>2023-04-23T17:06:36Z</time>
      </trkpt>
      <trkpt lat="43.20274" lon="3.09567">
        <ele>119</ele>
        <time>2023-04-23T17:06:38Z</time>
      </trkpt>
      <trkpt lat="43.20273" lon="3.09553">
        <ele>119</ele>
        <time>2023-04-23T17:06:41Z</time>
      </trkpt>
      <trkpt lat="43.20286" lon="3.09524">
        <ele>118</ele>
        <time>2023-04-23T17:06:46Z</time>
      </trkpt>
      <trkpt lat="43.20293" lon="3.09494">
        <ele>117</ele>
        <time>2023-04-23T17:06:52Z</time>
      </trkpt>
      <trkpt lat="43.203" lon="3.0948">
        <ele>117</ele>
        <time>2023-04-23T17:06:55Z</time>
      </trkpt>
      <trkpt lat="43.203" lon="3.09464">
        <ele>116</ele>
        <time>2023-04-23T17:06:57Z</time>
      </trkpt>
      <trkpt lat="43.20296" lon="3.09453">
        <ele>116</ele>
        <time>2023-04-23T17:06:59Z</time>
      </trkpt>
      <trkpt lat="43.2028" lon="3.09431">
        <ele>116</ele>
        <time>2023-04-23T17:07:05Z</time>
      </trkpt>
      <trkpt lat="43.20261" lon="3.09416">
        <ele>116</ele>
        <time>2023-04-23T17:07:10Z</time>
      </trkpt>
      <trkpt lat="43.20255" lon="3.09406">
        <ele>116</ele>
        <time>2023-04-23T17:07:12Z</time>
      </trkpt>
      <trkpt lat="43.20255" lon="3.09333">
        <ele>113</ele>
        <time>2023-04-23T17:07:24Z</time>
      </trkpt>
      <trkpt lat="43.20278" lon="3.09272">
        <ele>105</ele>
        <time>2023-04-23T17:07:36Z</time>
      </trkpt>
      <trkpt lat="43.20285" lon="3.09242">
        <ele>103</ele>
        <time>2023-04-23T17:07:42Z</time>
      </trkpt>
      <trkpt lat="43.20285" lon="3.09225">
        <ele>102</ele>
        <time>2023-04-23T17:07:44Z</time>
      </trkpt>
      <trkpt lat="43.20308" lon="3.09187">
        <ele>99</ele>
        <time>2023-04-23T17:07:53Z</time>
      </trkpt>
      <trkpt lat="43.20352" lon="3.0914">
        <ele>94</ele>
        <time>2023-04-23T17:08:06Z</time>
      </trkpt>
      <trkpt lat="43.20367" lon="3.09117">
        <ele>92</ele>
        <time>2023-04-23T17:08:11Z</time>
      </trkpt>
      <trkpt lat="43.20376" lon="3.0911">
        <ele>91</ele>
        <time>2023-04-23T17:08:14Z</time>
      </trkpt>
      <trkpt lat="43.20379" lon="3.09096">
        <ele>90</ele>
        <time>2023-04-23T17:08:16Z</time>
      </trkpt>
      <trkpt lat="43.20373" lon="3.09085">
        <ele>91</ele>
        <time>2023-04-23T17:08:18Z</time>
      </trkpt>
      <trkpt lat="43.20382" lon="3.09079">
        <ele>90</ele>
        <time>2023-04-23T17:08:21Z</time>
      </trkpt>
      <trkpt lat="43.20415" lon="3.09044">
        <ele>86</ele>
        <time>2023-04-23T17:08:30Z</time>
      </trkpt>
      <trkpt lat="43.20444" lon="3.09023">
        <ele>84</ele>
        <time>2023-04-23T17:08:38Z</time>
      </trkpt>
      <trkpt lat="43.20461" lon="3.09005">
        <ele>82</ele>
        <time>2023-04-23T17:08:43Z</time>
      </trkpt>
      <trkpt lat="43.20493" lon="3.08959">
        <ele>78</ele>
        <time>2023-04-23T17:08:54Z</time>
      </trkpt>
      <trkpt lat="43.205" lon="3.08945">
        <ele>77</ele>
        <time>2023-04-23T17:08:57Z</time>
      </trkpt>
      <trkpt lat="43.20514" lon="3.08893">
        <ele>75</ele>
        <time>2023-04-23T17:09:06Z</time>
      </trkpt>
      <trkpt lat="43.20571" lon="3.08778">
        <ele>69</ele>
        <time>2023-04-23T17:09:30Z</time>
      </trkpt>
      <trkpt lat="43.2058" lon="3.08773">
        <ele>69</ele>
        <time>2023-04-23T17:09:32Z</time>
      </trkpt>
      <trkpt lat="43.20588" lon="3.08783">
        <ele>69</ele>
        <time>2023-04-23T17:09:35Z</time>
      </trkpt>
      <trkpt lat="43.20607" lon="3.08821">
        <ele>70</ele>
        <time>2023-04-23T17:09:43Z</time>
      </trkpt>
      <trkpt lat="43.20637" lon="3.08863">
        <ele>67</ele>
        <time>2023-04-23T17:09:53Z</time>
      </trkpt>
      <trkpt lat="43.20647" lon="3.08893">
        <ele>65</ele>
        <time>2023-04-23T17:09:58Z</time>
      </trkpt>
      <trkpt lat="43.20661" lon="3.08916">
        <ele>62</ele>
        <time>2023-04-23T17:10:03Z</time>
      </trkpt>
      <trkpt lat="43.20672" lon="3.08921">
        <ele>61</ele>
        <time>2023-04-23T17:10:06Z</time>
      </trkpt>
      <trkpt lat="43.20701" lon="3.08906">
        <ele>62</ele>
        <time>2023-04-23T17:10:13Z</time>
      </trkpt>
      <trkpt lat="43.20711" lon="3.08896">
        <ele>61</ele>
        <time>2023-04-23T17:10:16Z</time>
      </trkpt>
      <trkpt lat="43.20715" lon="3.08885">
        <ele>61</ele>
        <time>2023-04-23T17:10:18Z</time>
      </trkpt>
      <trkpt lat="43.20751" lon="3.08857">
        <ele>57</ele>
        <time>2023-04-23T17:10:28Z</time>
      </trkpt>
      <trkpt lat="43.2075" lon="3.08841">
        <ele>56</ele>
        <time>2023-04-23T17:10:31Z</time>
      </trkpt>
      <trkpt lat="43.20746" lon="3.08828">
        <ele>55</ele>
        <time>2023-04-23T17:10:33Z</time>
      </trkpt>
      <trkpt lat="43.20746" lon="3.08812">
        <ele>54</ele>
        <time>2023-04-23T17:10:36Z</time>
      </trkpt>
      <trkpt lat="43.20752" lon="3.08782">
        <ele>52</ele>
        <time>2023-04-23T17:10:41Z</time>
      </trkpt>
      <trkpt lat="43.20762" lon="3.08752">
        <ele>50</ele>
        <time>2023-04-23T17:10:47Z</time>
      </trkpt>
      <trkpt lat="43.20774" lon="3.08727">
        <ele>48</ele>
        <time>2023-04-23T17:10:52Z</time>
      </trkpt>
      <trkpt lat="43.20784" lon="3.08725">
        <ele>48</ele>
        <time>2023-04-23T17:10:54Z</time>
      </trkpt>
      <trkpt lat="43.20822" lon="3.08694">
        <ele>45</ele>
        <time>2023-04-23T17:11:04Z</time>
      </trkpt>
      <trkpt lat="43.20849" lon="3.08691">
        <ele>44</ele>
        <time>2023-04-23T17:11:11Z</time>
      </trkpt>
      <trkpt lat="43.20864" lon="3.08685">
        <ele>43</ele>
        <time>2023-04-23T17:11:14Z</time>
      </trkpt>
      <trkpt lat="43.20859" lon="3.08664">
        <ele>42</ele>
        <time>2023-04-23T17:11:18Z</time>
      </trkpt>
      <trkpt lat="43.20855" lon="3.08664">
        <ele>42</ele>
        <time>2023-04-23T17:11:19Z</time>
      </trkpt>
      <trkpt lat="43.20849" lon="3.08671">
        <ele>42</ele>
        <time>2023-04-23T17:11:21Z</time>
      </trkpt>
      <trkpt lat="43.20855" lon="3.08682">
        <ele>43</ele>
        <time>2023-04-23T17:11:23Z</time>
      </trkpt>
      <trkpt lat="43.20864" lon="3.08676">
        <ele>42</ele>
        <time>2023-04-23T17:11:26Z</time>
      </trkpt>
      <trkpt lat="43.20881" lon="3.08652">
        <ele>41</ele>
        <time>2023-04-23T17:11:31Z</time>
      </trkpt>
      <trkpt lat="43.20899" lon="3.08643">
        <ele>40</ele>
        <time>2023-04-23T17:11:36Z</time>
      </trkpt>
      <trkpt lat="43.20906" lon="3.08628">
        <ele>39</ele>
        <time>2023-04-23T17:11:39Z</time>
      </trkpt>
      <trkpt lat="43.20905" lon="3.08614">
        <ele>38</ele>
        <time>2023-04-23T17:11:41Z</time>
      </trkpt>
      <trkpt lat="43.20907" lon="3.08602">
        <ele>38</ele>
        <time>2023-04-23T17:11:43Z</time>
      </trkpt>
      <trkpt lat="43.20916" lon="3.08596">
        <ele>37</ele>
        <time>2023-04-23T17:11:46Z</time>
      </trkpt>
      <trkpt lat="43.20935" lon="3.08591">
        <ele>35</ele>
        <time>2023-04-23T17:11:50Z</time>
      </trkpt>
      <trkpt lat="43.20943" lon="3.0858">
        <ele>34</ele>
        <time>2023-04-23T17:11:53Z</time>
      </trkpt>
      <trkpt lat="43.2096" lon="3.08568">
        <ele>32</ele>
        <time>2023-04-23T17:11:57Z</time>
      </trkpt>
      <trkpt lat="43.2097" lon="3.08566">
        <ele>31</ele>
        <time>2023-04-23T17:12:00Z</time>
      </trkpt>
      <trkpt lat="43.20976" lon="3.08556">
        <ele>30</ele>
        <time>2023-04-23T17:12:02Z</time>
      </trkpt>
      <trkpt lat="43.20999" lon="3.08551">
        <ele>28</ele>
        <time>2023-04-23T17:12:07Z</time>
      </trkpt>
      <trkpt lat="43.21024" lon="3.08551">
        <ele>27</ele>
        <time>2023-04-23T17:12:13Z</time>
      </trkpt>
      <trkpt lat="43.21042" lon="3.08533">
        <ele>27</ele>
        <time>2023-04-23T17:12:18Z</time>
      </trkpt>
      <trkpt lat="43.21048" lon="3.0852">
        <ele>26</ele>
        <time>2023-04-23T17:12:21Z</time>
      </trkpt>
      <trkpt lat="43.21055" lon="3.08485">
        <ele>26</ele>
        <time>2023-04-23T17:12:27Z</time>
      </trkpt>
      <trkpt lat="43.21055" lon="3.08448">
        <ele>25</ele>
        <time>2023-04-23T17:12:33Z</time>
      </trkpt>
      <trkpt lat="43.21043" lon="3.08357">
        <ele>24</ele>
        <time>2023-04-23T17:12:49Z</time>
      </trkpt>
      <trkpt lat="43.21042" lon="3.08299">
        <ele>23</ele>
        <time>2023-04-23T17:12:59Z</time>
      </trkpt>
      <trkpt lat="43.21007" lon="3.08067">
        <ele>19</ele>
        <time>2023-04-23T17:13:39Z</time>
      </trkpt>
      <trkpt lat="43.21006" lon="3.07996">
        <ele>17</ele>
        <time>2023-04-23T17:13:51Z</time>
      </trkpt>
      <trkpt lat="43.21067" lon="3.07755">
        <ele>13</ele>
        <time>2023-04-23T17:14:35Z</time>
      </trkpt>
      <trkpt lat="43.21097" lon="3.07666">
        <ele>10</ele>
        <time>2023-04-23T17:14:52Z</time>
      </trkpt>
      <trkpt lat="43.21132" lon="3.07573">
        <ele>7</ele>
        <time>2023-04-23T17:15:09Z</time>
      </trkpt>
      <trkpt lat="43.21169" lon="3.07454">
        <ele>4</ele>
        <time>2023-04-23T17:15:31Z</time>
      </trkpt>
      <trkpt lat="43.21182" lon="3.07421">
        <ele>4</ele>
        <time>2023-04-23T17:15:38Z</time>
      </trkpt>
      <trkpt lat="43.21192" lon="3.07369">
        <ele>5</ele>
        <time>2023-04-23T17:15:47Z</time>
      </trkpt>
      <trkpt lat="43.2123" lon="3.07252">
        <ele>3</ele>
        <time>2023-04-23T17:16:09Z</time>
      </trkpt>
      <trkpt lat="43.21231" lon="3.07239">
        <ele>3</ele>
        <time>2023-04-23T17:16:11Z</time>
      </trkpt>
      <trkpt lat="43.2122" lon="3.07229">
        <ele>3</ele>
        <time>2023-04-23T17:16:14Z</time>
      </trkpt>
      <trkpt lat="43.21188" lon="3.07216">
        <ele>3</ele>
        <time>2023-04-23T17:16:22Z</time>
      </trkpt>
      <trkpt lat="43.21101" lon="3.07172">
        <ele>3</ele>
        <time>2023-04-23T17:16:43Z</time>
      </trkpt>
      <trkpt lat="43.21012" lon="3.07109">
        <ele>4</ele>
        <time>2023-04-23T17:17:07Z</time>
      </trkpt>
      <trkpt lat="43.2099" lon="3.07086">
        <ele>4</ele>
        <time>2023-04-23T17:17:13Z</time>
      </trkpt>
      <trkpt lat="43.20964" lon="3.07046">
        <ele>4</ele>
        <time>2023-04-23T17:17:22Z</time>
      </trkpt>
      <trkpt lat="43.20959" lon="3.07032">
        <ele>4</ele>
        <time>2023-04-23T17:17:25Z</time>
      </trkpt>
      <trkpt lat="43.20967" lon="3.0702">
        <ele>4</ele>
        <time>2023-04-23T17:17:28Z</time>
      </trkpt>
      <trkpt lat="43.20999" lon="3.07006">
        <ele>3</ele>
        <time>2023-04-23T17:17:36Z</time>
      </trkpt>
      <trkpt lat="43.21022" lon="3.0699">
        <ele>3</ele>
        <time>2023-04-23T17:17:42Z</time>
      </trkpt>
      <trkpt lat="43.21055" lon="3.0696">
        <ele>3</ele>
        <time>2023-04-23T17:17:51Z</time>
      </trkpt>
      <trkpt lat="43.21109" lon="3.06902">
        <ele>4</ele>
        <time>2023-04-23T17:18:07Z</time>
      </trkpt>
      <trkpt lat="43.21127" lon="3.06876">
        <ele>3</ele>
        <time>2023-04-23T17:18:13Z</time>
      </trkpt>
      <trkpt lat="43.21163" lon="3.06799">
        <ele>2</ele>
        <time>2023-04-23T17:18:29Z</time>
      </trkpt>
      <trkpt lat="43.2118" lon="3.06756">
        <ele>3</ele>
        <time>2023-04-23T17:18:37Z</time>
      </trkpt>
      <trkpt lat="43.21188" lon="3.06749">
        <ele>3</ele>
        <time>2023-04-23T17:18:39Z</time>
      </trkpt>
      <trkpt lat="43.21389" lon="3.06818">
        <ele>4</ele>
        <time>2023-04-23T17:19:28Z</time>
      </trkpt>
      <trkpt lat="43.21531" lon="3.06863">
        <ele>5</ele>
        <time>2023-04-23T17:20:02Z</time>
      </trkpt>
      <trkpt lat="43.21552" lon="3.06867">
        <ele>5</ele>
        <time>2023-04-23T17:20:07Z</time>
      </trkpt>
      <trkpt lat="43.2156" lon="3.06858">
        <ele>5</ele>
        <time>2023-04-23T17:20:09Z</time>
      </trkpt>
      <trkpt lat="43.21572" lon="3.06859">
        <ele>5</ele>
        <time>2023-04-23T17:20:12Z</time>
      </trkpt>
      <trkpt lat="43.21631" lon="3.06878">
        <ele>5</ele>
        <time>2023-04-23T17:20:26Z</time>
      </trkpt>
      <trkpt lat="43.21642" lon="3.06878">
        <ele>5</ele>
        <time>2023-04-23T17:20:29Z</time>
      </trkpt>
      <trkpt lat="43.2165" lon="3.06868">
        <ele>5</ele>
        <time>2023-04-23T17:20:31Z</time>
      </trkpt>
      <trkpt lat="43.21654" lon="3.06856">
        <ele>5</ele>
        <time>2023-04-23T17:20:33Z</time>
      </trkpt>
      <trkpt lat="43.21655" lon="3.06838">
        <ele>6</ele>
        <time>2023-04-23T17:20:36Z</time>
      </trkpt>
      <trkpt lat="43.21649" lon="3.06799">
        <ele>6</ele>
        <time>2023-04-23T17:20:43Z</time>
      </trkpt>
      <trkpt lat="43.21649" lon="3.06779">
        <ele>6</ele>
        <time>2023-04-23T17:20:47Z</time>
      </trkpt>
      <trkpt lat="43.21654" lon="3.06761">
        <ele>6</ele>
        <time>2023-04-23T17:20:50Z</time>
      </trkpt>
      <trkpt lat="43.21673" lon="3.06737">
        <ele>6</ele>
        <time>2023-04-23T17:20:56Z</time>
      </trkpt>
      <trkpt lat="43.21684" lon="3.06728">
        <ele>5</ele>
        <time>2023-04-23T17:20:59Z</time>
      </trkpt>
      <trkpt lat="43.21697" lon="3.0673">
        <ele>5</ele>
        <time>2023-04-23T17:21:02Z</time>
      </trkpt>
      <trkpt lat="43.21732" lon="3.06743">
        <ele>5</ele>
        <time>2023-04-23T17:21:10Z</time>
      </trkpt>
      <trkpt lat="43.21762" lon="3.06765">
        <ele>5</ele>
        <time>2023-04-23T17:21:18Z</time>
      </trkpt>
      <trkpt lat="43.2177" lon="3.06774">
        <ele>5</ele>
        <time>2023-04-23T17:21:21Z</time>
      </trkpt>
      <trkpt lat="43.2177" lon="3.06787">
        <ele>5</ele>
        <time>2023-04-23T17:21:23Z</time>
      </trkpt>
      <trkpt lat="43.21737" lon="3.06901">
        <ele>6</ele>
        <time>2023-04-23T17:21:44Z</time>
      </trkpt>
      <trkpt lat="43.21741" lon="3.06913">
        <ele>6</ele>
        <time>2023-04-23T17:21:46Z</time>
      </trkpt>
      <trkpt lat="43.21754" lon="3.06917">
        <ele>6</ele>
        <time>2023-04-23T17:21:49Z</time>
      </trkpt>
      <trkpt lat="43.21774" lon="3.06917">
        <ele>5</ele>
        <time>2023-04-23T17:21:54Z</time>
      </trkpt>
      <trkpt lat="43.218" lon="3.06922">
        <ele>5</ele>
        <time>2023-04-23T17:22:00Z</time>
      </trkpt>
      <trkpt lat="43.21819" lon="3.06943">
        <ele>4</ele>
        <time>2023-04-23T17:22:06Z</time>
      </trkpt>
      <trkpt lat="43.2183" lon="3.06945">
        <ele>4</ele>
        <time>2023-04-23T17:22:08Z</time>
      </trkpt>
      <trkpt lat="43.21885" lon="3.06861">
        <ele>4</ele>
        <time>2023-04-23T17:22:28Z</time>
      </trkpt>
      <trkpt lat="43.21889" lon="3.06845">
        <ele>4</ele>
        <time>2023-04-23T17:22:30Z</time>
      </trkpt>
      <trkpt lat="43.21889" lon="3.06827">
        <ele>4</ele>
        <time>2023-04-23T17:22:33Z</time>
      </trkpt>
      <trkpt lat="43.21895" lon="3.06812">
        <ele>4</ele>
        <time>2023-04-23T17:22:36Z</time>
      </trkpt>
      <trkpt lat="43.21909" lon="3.06789">
        <ele>4</ele>
        <time>2023-04-23T17:22:41Z</time>
      </trkpt>
      <trkpt lat="43.21921" lon="3.06782">
        <ele>4</ele>
        <time>2023-04-23T17:22:45Z</time>
      </trkpt>
      <trkpt lat="43.2193" lon="3.06772">
        <ele>4</ele>
        <time>2023-04-23T17:22:47Z</time>
      </trkpt>
      <trkpt lat="43.21931" lon="3.06727">
        <ele>4</ele>
        <time>2023-04-23T17:22:55Z</time>
      </trkpt>
      <trkpt lat="43.21934" lon="3.06713">
        <ele>4</ele>
        <time>2023-04-23T17:22:57Z</time>
      </trkpt>
      <trkpt lat="43.21941" lon="3.06704">
        <ele>4</ele>
        <time>2023-04-23T17:23:00Z</time>
      </trkpt>
      <trkpt lat="43.2195" lon="3.06706">
        <ele>4</ele>
        <time>2023-04-23T17:23:02Z</time>
      </trkpt>
      <trkpt lat="43.21968" lon="3.0672">
        <ele>5</ele>
        <time>2023-04-23T17:23:07Z</time>
      </trkpt>
      <trkpt lat="43.21987" lon="3.06726">
        <ele>5</ele>
        <time>2023-04-23T17:23:11Z</time>
      </trkpt>
      <trkpt lat="43.21997" lon="3.06722">
        <ele>5</ele>
        <time>2023-04-23T17:23:14Z</time>
      </trkpt>
      <trkpt lat="43.22025" lon="3.06697">
        <ele>5</ele>
        <time>2023-04-23T17:23:21Z</time>
      </trkpt>
      <trkpt lat="43.22029" lon="3.06692">
        <ele>5</ele>
        <time>2023-04-23T17:23:23Z</time>
      </trkpt>
      <trkpt lat="43.22027" lon="3.06688">
        <ele>5</ele>
        <time>2023-04-23T17:23:23Z</time>
      </trkpt>
    </trkseg>
  </trk>
</gpx>